<?xml version="1.0" encoding="UTF-8" standalone="no" ?>
<gpx xmlns="http://www.topografix.com/GPX/1/1" xmlns:xsi="http://www.w3.org/2001/XMLSchema-instance" xsi:schemaLocation="http://www.topografix.com/GPX/1/1 http://www.topografix.com/GPX/1/1/gpx.xsd" version="1.1" creator="VisuGPX - https://www.visugpx.com">
  <metadata>
    <name>2021-05-27 col d'Auberlauchen et crête du Petit Ballon</name>
  </metadata>
  <trk>
    <name><![CDATA[2021-05-27 col d'Auberlauchen et crête du Petit Ballon]]></name>
    <extensions>
      <line xmlns="http://www.topografix.com/GPX/gpx_style/0/2">
        <color>0000FF</color>
        <opacity>0.59</opacity>
        <width>6.0</width>
      </line>
    </extensions>
    <trkseg>
      <trkpt lat="47.96449" lon="7.05686">
        <ele>764.4</ele>
        <time>2021-05-27T06:58:43.000Z</time>
      </trkpt>
      <trkpt lat="47.9644" lon="7.0569">
        <ele>766</ele>
        <time>2021-05-27T06:58:57.000Z</time>
      </trkpt>
      <trkpt lat="47.96434" lon="7.05702">
        <ele>767.8</ele>
        <time>2021-05-27T06:59:09.000Z</time>
      </trkpt>
      <trkpt lat="47.96425" lon="7.05694">
        <ele>768.7</ele>
        <time>2021-05-27T06:59:20.000Z</time>
      </trkpt>
      <trkpt lat="47.96416" lon="7.05689">
        <ele>769.8</ele>
        <time>2021-05-27T06:59:26.000Z</time>
      </trkpt>
      <trkpt lat="47.96406" lon="7.05689">
        <ele>771.7</ele>
        <time>2021-05-27T06:59:32.000Z</time>
      </trkpt>
      <trkpt lat="47.96397" lon="7.05684">
        <ele>773.2</ele>
        <time>2021-05-27T06:59:39.000Z</time>
      </trkpt>
      <trkpt lat="47.96387" lon="7.05674">
        <ele>774.1</ele>
        <time>2021-05-27T06:59:47.000Z</time>
      </trkpt>
      <trkpt lat="47.96378" lon="7.05666">
        <ele>774.9</ele>
        <time>2021-05-27T06:59:56.000Z</time>
      </trkpt>
      <trkpt lat="47.9637" lon="7.05658">
        <ele>776.3</ele>
        <time>2021-05-27T07:00:03.000Z</time>
      </trkpt>
      <trkpt lat="47.96363" lon="7.05648">
        <ele>777.4</ele>
        <time>2021-05-27T07:00:11.000Z</time>
      </trkpt>
      <trkpt lat="47.96354" lon="7.05641">
        <ele>778.7</ele>
        <time>2021-05-27T07:00:19.000Z</time>
      </trkpt>
      <trkpt lat="47.96352" lon="7.05628">
        <ele>778.8</ele>
        <time>2021-05-27T07:00:30.000Z</time>
      </trkpt>
      <trkpt lat="47.96345" lon="7.05618">
        <ele>779.5</ele>
        <time>2021-05-27T07:00:40.000Z</time>
      </trkpt>
      <trkpt lat="47.96337" lon="7.05613">
        <ele>780.6</ele>
        <time>2021-05-27T07:00:50.000Z</time>
      </trkpt>
      <trkpt lat="47.96328" lon="7.05609">
        <ele>782</ele>
        <time>2021-05-27T07:00:56.000Z</time>
      </trkpt>
      <trkpt lat="47.9632" lon="7.056">
        <ele>783</ele>
        <time>2021-05-27T07:01:03.000Z</time>
      </trkpt>
      <trkpt lat="47.96312" lon="7.05593">
        <ele>784.3</ele>
        <time>2021-05-27T07:01:09.000Z</time>
      </trkpt>
      <trkpt lat="47.96304" lon="7.05584">
        <ele>785.3</ele>
        <time>2021-05-27T07:01:14.000Z</time>
      </trkpt>
      <trkpt lat="47.96297" lon="7.05572">
        <ele>787.9</ele>
        <time>2021-05-27T07:01:20.000Z</time>
      </trkpt>
      <trkpt lat="47.96297" lon="7.05558">
        <ele>789.6</ele>
        <time>2021-05-27T07:01:32.000Z</time>
      </trkpt>
      <trkpt lat="47.96291" lon="7.05547">
        <ele>792.1</ele>
        <time>2021-05-27T07:01:43.000Z</time>
      </trkpt>
      <trkpt lat="47.96284" lon="7.05536">
        <ele>794.3</ele>
        <time>2021-05-27T07:01:51.000Z</time>
      </trkpt>
      <trkpt lat="47.96281" lon="7.05514">
        <ele>797.3</ele>
        <time>2021-05-27T07:02:18.000Z</time>
      </trkpt>
      <trkpt lat="47.96272" lon="7.05506">
        <ele>799.4</ele>
        <time>2021-05-27T07:02:28.000Z</time>
      </trkpt>
      <trkpt lat="47.96263" lon="7.05504">
        <ele>800.9</ele>
        <time>2021-05-27T07:02:37.000Z</time>
      </trkpt>
      <trkpt lat="47.96253" lon="7.05502">
        <ele>802.5</ele>
        <time>2021-05-27T07:03:03.000Z</time>
      </trkpt>
      <trkpt lat="47.96243" lon="7.05499">
        <ele>804.4</ele>
        <time>2021-05-27T07:03:10.000Z</time>
      </trkpt>
      <trkpt lat="47.96235" lon="7.05492">
        <ele>807.1</ele>
        <time>2021-05-27T07:03:23.000Z</time>
      </trkpt>
      <trkpt lat="47.96226" lon="7.05488">
        <ele>809.6</ele>
        <time>2021-05-27T07:03:33.000Z</time>
      </trkpt>
      <trkpt lat="47.96217" lon="7.05486">
        <ele>811.5</ele>
        <time>2021-05-27T07:03:45.000Z</time>
      </trkpt>
      <trkpt lat="47.96207" lon="7.05484">
        <ele>813.5</ele>
        <time>2021-05-27T07:03:52.000Z</time>
      </trkpt>
      <trkpt lat="47.96198" lon="7.05479">
        <ele>816.4</ele>
        <time>2021-05-27T07:04:00.000Z</time>
      </trkpt>
      <trkpt lat="47.96189" lon="7.05476">
        <ele>818.7</ele>
        <time>2021-05-27T07:04:11.000Z</time>
      </trkpt>
      <trkpt lat="47.9618" lon="7.05473">
        <ele>820.9</ele>
        <time>2021-05-27T07:04:21.000Z</time>
      </trkpt>
      <trkpt lat="47.96172" lon="7.05466">
        <ele>824.2</ele>
        <time>2021-05-27T07:04:35.000Z</time>
      </trkpt>
      <trkpt lat="47.96162" lon="7.05463">
        <ele>826.6</ele>
        <time>2021-05-27T07:04:44.000Z</time>
      </trkpt>
      <trkpt lat="47.96152" lon="7.05458">
        <ele>828.6</ele>
        <time>2021-05-27T07:04:54.000Z</time>
      </trkpt>
      <trkpt lat="47.96143" lon="7.05456">
        <ele>829.8</ele>
        <time>2021-05-27T07:05:05.000Z</time>
      </trkpt>
      <trkpt lat="47.96129" lon="7.05457">
        <ele>830.6</ele>
        <time>2021-05-27T07:05:27.000Z</time>
      </trkpt>
      <trkpt lat="47.96119" lon="7.05457">
        <ele>831.1</ele>
        <time>2021-05-27T07:05:39.000Z</time>
      </trkpt>
      <trkpt lat="47.9611" lon="7.05456">
        <ele>832.2</ele>
        <time>2021-05-27T07:05:47.000Z</time>
      </trkpt>
      <trkpt lat="47.96102" lon="7.0545">
        <ele>833.8</ele>
        <time>2021-05-27T07:05:57.000Z</time>
      </trkpt>
      <trkpt lat="47.96094" lon="7.05442">
        <ele>836</ele>
        <time>2021-05-27T07:06:02.000Z</time>
      </trkpt>
      <trkpt lat="47.96087" lon="7.05433">
        <ele>838</ele>
        <time>2021-05-27T07:06:16.000Z</time>
      </trkpt>
      <trkpt lat="47.96078" lon="7.05427">
        <ele>839.5</ele>
        <time>2021-05-27T07:06:28.000Z</time>
      </trkpt>
      <trkpt lat="47.9607" lon="7.05418">
        <ele>841.4</ele>
        <time>2021-05-27T07:06:38.000Z</time>
      </trkpt>
      <trkpt lat="47.96058" lon="7.05404">
        <ele>845.6</ele>
        <time>2021-05-27T07:06:56.000Z</time>
      </trkpt>
      <trkpt lat="47.96051" lon="7.05395">
        <ele>848.2</ele>
        <time>2021-05-27T07:07:03.000Z</time>
      </trkpt>
      <trkpt lat="47.96041" lon="7.0539">
        <ele>849.7</ele>
        <time>2021-05-27T07:07:13.000Z</time>
      </trkpt>
      <trkpt lat="47.96032" lon="7.05383">
        <ele>851.4</ele>
        <time>2021-05-27T07:07:26.000Z</time>
      </trkpt>
      <trkpt lat="47.96023" lon="7.05381">
        <ele>852.1</ele>
        <time>2021-05-27T07:07:38.000Z</time>
      </trkpt>
      <trkpt lat="47.96015" lon="7.05375">
        <ele>853.3</ele>
        <time>2021-05-27T07:07:50.000Z</time>
      </trkpt>
      <trkpt lat="47.96004" lon="7.05367">
        <ele>855.2</ele>
        <time>2021-05-27T07:08:07.000Z</time>
      </trkpt>
      <trkpt lat="47.95995" lon="7.05363">
        <ele>856.5</ele>
        <time>2021-05-27T07:08:19.000Z</time>
      </trkpt>
      <trkpt lat="47.95987" lon="7.05355">
        <ele>858.5</ele>
        <time>2021-05-27T07:08:36.000Z</time>
      </trkpt>
      <trkpt lat="47.95982" lon="7.05342">
        <ele>860.8</ele>
        <time>2021-05-27T07:08:43.000Z</time>
      </trkpt>
      <trkpt lat="47.95976" lon="7.05331">
        <ele>862.9</ele>
        <time>2021-05-27T07:08:51.000Z</time>
      </trkpt>
      <trkpt lat="47.95968" lon="7.05325">
        <ele>864.1</ele>
        <time>2021-05-27T07:08:57.000Z</time>
      </trkpt>
      <trkpt lat="47.95961" lon="7.05315">
        <ele>866.3</ele>
        <time>2021-05-27T07:09:02.000Z</time>
      </trkpt>
      <trkpt lat="47.95958" lon="7.053">
        <ele>869</ele>
        <time>2021-05-27T07:09:11.000Z</time>
      </trkpt>
      <trkpt lat="47.95954" lon="7.05288">
        <ele>871.1</ele>
        <time>2021-05-27T07:09:19.000Z</time>
      </trkpt>
      <trkpt lat="47.95948" lon="7.05277">
        <ele>872.5</ele>
        <time>2021-05-27T07:09:25.000Z</time>
      </trkpt>
      <trkpt lat="47.95942" lon="7.05267">
        <ele>873.6</ele>
        <time>2021-05-27T07:09:37.000Z</time>
      </trkpt>
      <trkpt lat="47.95933" lon="7.05263">
        <ele>872.9</ele>
        <time>2021-05-27T07:09:51.000Z</time>
      </trkpt>
      <trkpt lat="47.95924" lon="7.05261">
        <ele>871.9</ele>
        <time>2021-05-27T07:10:06.000Z</time>
      </trkpt>
      <trkpt lat="47.95914" lon="7.05259">
        <ele>871.2</ele>
        <time>2021-05-27T07:10:18.000Z</time>
      </trkpt>
      <trkpt lat="47.95904" lon="7.05249">
        <ele>873.1</ele>
        <time>2021-05-27T07:10:33.000Z</time>
      </trkpt>
      <trkpt lat="47.95897" lon="7.05238">
        <ele>875.7</ele>
        <time>2021-05-27T07:10:44.000Z</time>
      </trkpt>
      <trkpt lat="47.95893" lon="7.05226">
        <ele>878.3</ele>
        <time>2021-05-27T07:10:53.000Z</time>
      </trkpt>
      <trkpt lat="47.95888" lon="7.05214">
        <ele>880.5</ele>
        <time>2021-05-27T07:11:01.000Z</time>
      </trkpt>
      <trkpt lat="47.95883" lon="7.05204">
        <ele>882.4</ele>
        <time>2021-05-27T07:11:08.000Z</time>
      </trkpt>
      <trkpt lat="47.95875" lon="7.05195">
        <ele>883.7</ele>
        <time>2021-05-27T07:11:17.000Z</time>
      </trkpt>
      <trkpt lat="47.95866" lon="7.05187">
        <ele>884.7</ele>
        <time>2021-05-27T07:11:23.000Z</time>
      </trkpt>
      <trkpt lat="47.95857" lon="7.0518">
        <ele>885.2</ele>
        <time>2021-05-27T07:11:31.000Z</time>
      </trkpt>
      <trkpt lat="47.95848" lon="7.05176">
        <ele>885.2</ele>
        <time>2021-05-27T07:11:36.000Z</time>
      </trkpt>
      <trkpt lat="47.9584" lon="7.05171">
        <ele>885.1</ele>
        <time>2021-05-27T07:11:46.000Z</time>
      </trkpt>
      <trkpt lat="47.95834" lon="7.05158">
        <ele>887</ele>
        <time>2021-05-27T07:11:59.000Z</time>
      </trkpt>
      <trkpt lat="47.9583" lon="7.05146">
        <ele>889.9</ele>
        <time>2021-05-27T07:12:11.000Z</time>
      </trkpt>
      <trkpt lat="47.95823" lon="7.05137">
        <ele>892.3</ele>
        <time>2021-05-27T07:12:19.000Z</time>
      </trkpt>
      <trkpt lat="47.95818" lon="7.05125">
        <ele>894.8</ele>
        <time>2021-05-27T07:12:28.000Z</time>
      </trkpt>
      <trkpt lat="47.95812" lon="7.05114">
        <ele>897.3</ele>
        <time>2021-05-27T07:12:37.000Z</time>
      </trkpt>
      <trkpt lat="47.95805" lon="7.05104">
        <ele>899.1</ele>
        <time>2021-05-27T07:12:46.000Z</time>
      </trkpt>
      <trkpt lat="47.95797" lon="7.05096">
        <ele>900.4</ele>
        <time>2021-05-27T07:12:54.000Z</time>
      </trkpt>
      <trkpt lat="47.95791" lon="7.05086">
        <ele>902</ele>
        <time>2021-05-27T07:13:03.000Z</time>
      </trkpt>
      <trkpt lat="47.95788" lon="7.05073">
        <ele>904.6</ele>
        <time>2021-05-27T07:13:16.000Z</time>
      </trkpt>
      <trkpt lat="47.95779" lon="7.05066">
        <ele>905.5</ele>
        <time>2021-05-27T07:13:26.000Z</time>
      </trkpt>
      <trkpt lat="47.95771" lon="7.05059">
        <ele>906.1</ele>
        <time>2021-05-27T07:13:33.000Z</time>
      </trkpt>
      <trkpt lat="47.95765" lon="7.0505">
        <ele>907.1</ele>
        <time>2021-05-27T07:13:41.000Z</time>
      </trkpt>
      <trkpt lat="47.9576" lon="7.05038">
        <ele>908.6</ele>
        <time>2021-05-27T07:13:51.000Z</time>
      </trkpt>
      <trkpt lat="47.95756" lon="7.05027">
        <ele>909.9</ele>
        <time>2021-05-27T07:14:03.000Z</time>
      </trkpt>
      <trkpt lat="47.95846" lon="7.04971">
        <ele>939.3</ele>
        <time>2021-05-27T07:14:08.000Z</time>
      </trkpt>
      <trkpt lat="47.95785" lon="7.04977">
        <ele>925.2</ele>
        <time>2021-05-27T07:14:13.000Z</time>
      </trkpt>
      <trkpt lat="47.95758" lon="7.04986">
        <ele>917.6</ele>
        <time>2021-05-27T07:14:18.000Z</time>
      </trkpt>
      <trkpt lat="47.95748" lon="7.04987">
        <ele>915.7</ele>
        <time>2021-05-27T07:14:23.000Z</time>
      </trkpt>
      <trkpt lat="47.95738" lon="7.04994">
        <ele>913.7</ele>
        <time>2021-05-27T07:14:33.000Z</time>
      </trkpt>
      <trkpt lat="47.95717" lon="7.04979">
        <ele>915.9</ele>
        <time>2021-05-27T07:14:38.000Z</time>
      </trkpt>
      <trkpt lat="47.95711" lon="7.0499">
        <ele>913.5</ele>
        <time>2021-05-27T07:14:46.000Z</time>
      </trkpt>
      <trkpt lat="47.95704" lon="7.05001">
        <ele>911.3</ele>
        <time>2021-05-27T07:14:55.000Z</time>
      </trkpt>
      <trkpt lat="47.95697" lon="7.05012">
        <ele>910.4</ele>
        <time>2021-05-27T07:15:00.000Z</time>
      </trkpt>
      <trkpt lat="47.95692" lon="7.05025">
        <ele>909.6</ele>
        <time>2021-05-27T07:15:06.000Z</time>
      </trkpt>
      <trkpt lat="47.95684" lon="7.05035">
        <ele>909.2</ele>
        <time>2021-05-27T07:15:12.000Z</time>
      </trkpt>
      <trkpt lat="47.95677" lon="7.05045">
        <ele>909.1</ele>
        <time>2021-05-27T07:15:18.000Z</time>
      </trkpt>
      <trkpt lat="47.95668" lon="7.05054">
        <ele>909.3</ele>
        <time>2021-05-27T07:15:26.000Z</time>
      </trkpt>
      <trkpt lat="47.95648" lon="7.05072">
        <ele>914.8</ele>
        <time>2021-05-27T07:15:31.000Z</time>
      </trkpt>
      <trkpt lat="47.95634" lon="7.05081">
        <ele>918.9</ele>
        <time>2021-05-27T07:15:36.000Z</time>
      </trkpt>
      <trkpt lat="47.95645" lon="7.05091">
        <ele>915.7</ele>
        <time>2021-05-27T07:15:41.000Z</time>
      </trkpt>
      <trkpt lat="47.95651" lon="7.05108">
        <ele>914.1</ele>
        <time>2021-05-27T07:15:50.000Z</time>
      </trkpt>
      <trkpt lat="47.95658" lon="7.05118">
        <ele>912.2</ele>
        <time>2021-05-27T07:15:55.000Z</time>
      </trkpt>
      <trkpt lat="47.95648" lon="7.05121">
        <ele>915.4</ele>
        <time>2021-05-27T07:16:01.000Z</time>
      </trkpt>
      <trkpt lat="47.9566" lon="7.05142">
        <ele>912</ele>
        <time>2021-05-27T07:16:06.000Z</time>
      </trkpt>
      <trkpt lat="47.95673" lon="7.05108">
        <ele>908.4</ele>
        <time>2021-05-27T07:16:11.000Z</time>
      </trkpt>
      <trkpt lat="47.95662" lon="7.05103">
        <ele>910.6</ele>
        <time>2021-05-27T07:16:16.000Z</time>
      </trkpt>
      <trkpt lat="47.95654" lon="7.05097">
        <ele>913.1</ele>
        <time>2021-05-27T07:16:43.000Z</time>
      </trkpt>
      <trkpt lat="47.95645" lon="7.05087">
        <ele>915.6</ele>
        <time>2021-05-27T07:16:57.000Z</time>
      </trkpt>
      <trkpt lat="47.95633" lon="7.05082">
        <ele>919.1</ele>
        <time>2021-05-27T07:17:16.000Z</time>
      </trkpt>
      <trkpt lat="47.9562" lon="7.05084">
        <ele>923.1</ele>
        <time>2021-05-27T07:17:26.000Z</time>
      </trkpt>
      <trkpt lat="47.95609" lon="7.0509">
        <ele>926.6</ele>
        <time>2021-05-27T07:17:39.000Z</time>
      </trkpt>
      <trkpt lat="47.95597" lon="7.05095">
        <ele>930.2</ele>
        <time>2021-05-27T07:17:51.000Z</time>
      </trkpt>
      <trkpt lat="47.95586" lon="7.05089">
        <ele>933.4</ele>
        <time>2021-05-27T07:18:09.000Z</time>
      </trkpt>
      <trkpt lat="47.95579" lon="7.05076">
        <ele>935.3</ele>
        <time>2021-05-27T07:18:24.000Z</time>
      </trkpt>
      <trkpt lat="47.95572" lon="7.05062">
        <ele>937.2</ele>
        <time>2021-05-27T07:18:38.000Z</time>
      </trkpt>
      <trkpt lat="47.95562" lon="7.05052">
        <ele>940.3</ele>
        <time>2021-05-27T07:18:55.000Z</time>
      </trkpt>
      <trkpt lat="47.95548" lon="7.05047">
        <ele>944.9</ele>
        <time>2021-05-27T07:19:06.000Z</time>
      </trkpt>
      <trkpt lat="47.95537" lon="7.05034">
        <ele>948.4</ele>
        <time>2021-05-27T07:19:17.000Z</time>
      </trkpt>
      <trkpt lat="47.95535" lon="7.05017">
        <ele>948.9</ele>
        <time>2021-05-27T07:19:35.000Z</time>
      </trkpt>
      <trkpt lat="47.9553" lon="7.05003">
        <ele>950.7</ele>
        <time>2021-05-27T07:19:52.000Z</time>
      </trkpt>
      <trkpt lat="47.95522" lon="7.04991">
        <ele>953.5</ele>
        <time>2021-05-27T07:20:08.000Z</time>
      </trkpt>
      <trkpt lat="47.95513" lon="7.0498">
        <ele>957.3</ele>
        <time>2021-05-27T07:20:22.000Z</time>
      </trkpt>
      <trkpt lat="47.95502" lon="7.04974">
        <ele>961.5</ele>
        <time>2021-05-27T07:20:41.000Z</time>
      </trkpt>
      <trkpt lat="47.95469" lon="7.0499">
        <ele>971.6</ele>
        <time>2021-05-27T07:20:46.000Z</time>
      </trkpt>
      <trkpt lat="47.95476" lon="7.04975">
        <ele>970.1</ele>
        <time>2021-05-27T07:20:51.000Z</time>
      </trkpt>
      <trkpt lat="47.95482" lon="7.04964">
        <ele>968.6</ele>
        <time>2021-05-27T07:20:56.000Z</time>
      </trkpt>
      <trkpt lat="47.95481" lon="7.04951">
        <ele>969.6</ele>
        <time>2021-05-27T07:21:10.000Z</time>
      </trkpt>
      <trkpt lat="47.95476" lon="7.04938">
        <ele>971.8</ele>
        <time>2021-05-27T07:22:28.000Z</time>
      </trkpt>
      <trkpt lat="47.95467" lon="7.04926">
        <ele>975.6</ele>
        <time>2021-05-27T07:22:41.000Z</time>
      </trkpt>
      <trkpt lat="47.95459" lon="7.04912">
        <ele>979.3</ele>
        <time>2021-05-27T07:22:56.000Z</time>
      </trkpt>
      <trkpt lat="47.95456" lon="7.04895">
        <ele>982.3</ele>
        <time>2021-05-27T07:23:09.000Z</time>
      </trkpt>
      <trkpt lat="47.95454" lon="7.04881">
        <ele>984.7</ele>
        <time>2021-05-27T07:23:26.000Z</time>
      </trkpt>
      <trkpt lat="47.95451" lon="7.04896">
        <ele>983.8</ele>
        <time>2021-05-27T07:23:35.000Z</time>
      </trkpt>
      <trkpt lat="47.9545" lon="7.0491">
        <ele>982.6</ele>
        <time>2021-05-27T07:23:43.000Z</time>
      </trkpt>
      <trkpt lat="47.95439" lon="7.04913">
        <ele>986.1</ele>
        <time>2021-05-27T07:23:49.000Z</time>
      </trkpt>
      <trkpt lat="47.95446" lon="7.04922">
        <ele>983</ele>
        <time>2021-05-27T07:23:54.000Z</time>
      </trkpt>
      <trkpt lat="47.95457" lon="7.04925">
        <ele>978.9</ele>
        <time>2021-05-27T07:23:59.000Z</time>
      </trkpt>
      <trkpt lat="47.95452" lon="7.04939">
        <ele>980</ele>
        <time>2021-05-27T07:24:09.000Z</time>
      </trkpt>
      <trkpt lat="47.95442" lon="7.04938">
        <ele>983.3</ele>
        <time>2021-05-27T07:24:30.000Z</time>
      </trkpt>
      <trkpt lat="47.95435" lon="7.0493">
        <ele>986.2</ele>
        <time>2021-05-27T07:24:40.000Z</time>
      </trkpt>
      <trkpt lat="47.95425" lon="7.0493">
        <ele>989.4</ele>
        <time>2021-05-27T07:25:03.000Z</time>
      </trkpt>
      <trkpt lat="47.95415" lon="7.04927">
        <ele>992.9</ele>
        <time>2021-05-27T07:25:20.000Z</time>
      </trkpt>
      <trkpt lat="47.95406" lon="7.04916">
        <ele>995.7</ele>
        <time>2021-05-27T07:25:37.000Z</time>
      </trkpt>
      <trkpt lat="47.95372" lon="7.04882">
        <ele>1008.8</ele>
        <time>2021-05-27T07:25:42.000Z</time>
      </trkpt>
      <trkpt lat="47.95351" lon="7.04885">
        <ele>1013.4</ele>
        <time>2021-05-27T07:25:47.000Z</time>
      </trkpt>
      <trkpt lat="47.95355" lon="7.04906">
        <ele>1008.9</ele>
        <time>2021-05-27T07:25:52.000Z</time>
      </trkpt>
      <trkpt lat="47.95358" lon="7.0489">
        <ele>1010.8</ele>
        <time>2021-05-27T07:25:58.000Z</time>
      </trkpt>
      <trkpt lat="47.95355" lon="7.04866">
        <ele>1015.6</ele>
        <time>2021-05-27T07:27:04.000Z</time>
      </trkpt>
      <trkpt lat="47.95353" lon="7.04838">
        <ele>1021.1</ele>
        <time>2021-05-27T07:27:09.000Z</time>
      </trkpt>
      <trkpt lat="47.95363" lon="7.04843">
        <ele>1017.7</ele>
        <time>2021-05-27T07:27:17.000Z</time>
      </trkpt>
      <trkpt lat="47.95377" lon="7.04838">
        <ele>1014.8</ele>
        <time>2021-05-27T07:27:37.000Z</time>
      </trkpt>
      <trkpt lat="47.95382" lon="7.04827">
        <ele>1015.3</ele>
        <time>2021-05-27T07:27:47.000Z</time>
      </trkpt>
      <trkpt lat="47.95388" lon="7.04808">
        <ele>1017.2</ele>
        <time>2021-05-27T07:28:04.000Z</time>
      </trkpt>
      <trkpt lat="47.9538" lon="7.04814">
        <ele>1018.4</ele>
        <time>2021-05-27T07:28:43.000Z</time>
      </trkpt>
      <trkpt lat="47.95369" lon="7.04816">
        <ele>1021</ele>
        <time>2021-05-27T07:28:58.000Z</time>
      </trkpt>
      <trkpt lat="47.95356" lon="7.04815">
        <ele>1024.5</ele>
        <time>2021-05-27T07:29:10.000Z</time>
      </trkpt>
      <trkpt lat="47.95344" lon="7.04813">
        <ele>1028</ele>
        <time>2021-05-27T07:29:20.000Z</time>
      </trkpt>
      <trkpt lat="47.9533" lon="7.04808">
        <ele>1032.7</ele>
        <time>2021-05-27T07:29:31.000Z</time>
      </trkpt>
      <trkpt lat="47.95317" lon="7.04806">
        <ele>1036.3</ele>
        <time>2021-05-27T07:29:48.000Z</time>
      </trkpt>
      <trkpt lat="47.95307" lon="7.04817">
        <ele>1036.9</ele>
        <time>2021-05-27T07:30:00.000Z</time>
      </trkpt>
      <trkpt lat="47.95294" lon="7.04822">
        <ele>1039.2</ele>
        <time>2021-05-27T07:30:12.000Z</time>
      </trkpt>
      <trkpt lat="47.95286" lon="7.04828">
        <ele>1040.5</ele>
        <time>2021-05-27T07:30:28.000Z</time>
      </trkpt>
      <trkpt lat="47.95279" lon="7.04841">
        <ele>1041</ele>
        <time>2021-05-27T07:30:50.000Z</time>
      </trkpt>
      <trkpt lat="47.95267" lon="7.04841">
        <ele>1044.2</ele>
        <time>2021-05-27T07:31:03.000Z</time>
      </trkpt>
      <trkpt lat="47.95255" lon="7.04837">
        <ele>1047.7</ele>
        <time>2021-05-27T07:31:16.000Z</time>
      </trkpt>
      <trkpt lat="47.95244" lon="7.04833">
        <ele>1049.8</ele>
        <time>2021-05-27T07:31:30.000Z</time>
      </trkpt>
      <trkpt lat="47.95232" lon="7.04826">
        <ele>1052.1</ele>
        <time>2021-05-27T07:31:42.000Z</time>
      </trkpt>
      <trkpt lat="47.9522" lon="7.04822">
        <ele>1053.8</ele>
        <time>2021-05-27T07:31:56.000Z</time>
      </trkpt>
      <trkpt lat="47.95207" lon="7.04825">
        <ele>1054.9</ele>
        <time>2021-05-27T07:32:07.000Z</time>
      </trkpt>
      <trkpt lat="47.95195" lon="7.04829">
        <ele>1055.9</ele>
        <time>2021-05-27T07:32:19.000Z</time>
      </trkpt>
      <trkpt lat="47.95182" lon="7.04831">
        <ele>1057.3</ele>
        <time>2021-05-27T07:32:32.000Z</time>
      </trkpt>
      <trkpt lat="47.95169" lon="7.04833">
        <ele>1058.7</ele>
        <time>2021-05-27T07:32:44.000Z</time>
      </trkpt>
      <trkpt lat="47.9516" lon="7.04821">
        <ele>1061.3</ele>
        <time>2021-05-27T07:33:04.000Z</time>
      </trkpt>
      <trkpt lat="47.95155" lon="7.04806">
        <ele>1063</ele>
        <time>2021-05-27T07:33:17.000Z</time>
      </trkpt>
      <trkpt lat="47.95148" lon="7.0479">
        <ele>1064.8</ele>
        <time>2021-05-27T07:33:29.000Z</time>
      </trkpt>
      <trkpt lat="47.95142" lon="7.04775">
        <ele>1066.2</ele>
        <time>2021-05-27T07:33:41.000Z</time>
      </trkpt>
      <trkpt lat="47.95133" lon="7.04762">
        <ele>1067.8</ele>
        <time>2021-05-27T07:33:53.000Z</time>
      </trkpt>
      <trkpt lat="47.95125" lon="7.04748">
        <ele>1069.2</ele>
        <time>2021-05-27T07:34:07.000Z</time>
      </trkpt>
      <trkpt lat="47.95116" lon="7.04737">
        <ele>1071.5</ele>
        <time>2021-05-27T07:34:37.000Z</time>
      </trkpt>
      <trkpt lat="47.95105" lon="7.04736">
        <ele>1073.5</ele>
        <time>2021-05-27T07:34:50.000Z</time>
      </trkpt>
      <trkpt lat="47.95092" lon="7.04737">
        <ele>1076.1</ele>
        <time>2021-05-27T07:35:14.000Z</time>
      </trkpt>
      <trkpt lat="47.95081" lon="7.04729">
        <ele>1078.4</ele>
        <time>2021-05-27T07:35:31.000Z</time>
      </trkpt>
      <trkpt lat="47.95072" lon="7.04718">
        <ele>1081.3</ele>
        <time>2021-05-27T07:35:51.000Z</time>
      </trkpt>
      <trkpt lat="47.95066" lon="7.04703">
        <ele>1082.9</ele>
        <time>2021-05-27T07:36:12.000Z</time>
      </trkpt>
      <trkpt lat="47.95059" lon="7.04692">
        <ele>1084.9</ele>
        <time>2021-05-27T07:36:35.000Z</time>
      </trkpt>
      <trkpt lat="47.95049" lon="7.04684">
        <ele>1087.9</ele>
        <time>2021-05-27T07:36:56.000Z</time>
      </trkpt>
      <trkpt lat="47.9504" lon="7.0468">
        <ele>1090.9</ele>
        <time>2021-05-27T07:37:10.000Z</time>
      </trkpt>
      <trkpt lat="47.95029" lon="7.04686">
        <ele>1095</ele>
        <time>2021-05-27T07:37:25.000Z</time>
      </trkpt>
      <trkpt lat="47.95018" lon="7.04696">
        <ele>1099.2</ele>
        <time>2021-05-27T07:37:46.000Z</time>
      </trkpt>
      <trkpt lat="47.95008" lon="7.04701">
        <ele>1103</ele>
        <time>2021-05-27T07:38:00.000Z</time>
      </trkpt>
      <trkpt lat="47.94999" lon="7.04692">
        <ele>1105.5</ele>
        <time>2021-05-27T07:38:24.000Z</time>
      </trkpt>
      <trkpt lat="47.94991" lon="7.04682">
        <ele>1109.9</ele>
        <time>2021-05-27T07:38:56.000Z</time>
      </trkpt>
      <trkpt lat="47.94986" lon="7.04667">
        <ele>1111.9</ele>
        <time>2021-05-27T07:39:14.000Z</time>
      </trkpt>
      <trkpt lat="47.94912" lon="7.04623">
        <ele>1157.8</ele>
        <time>2021-05-27T07:39:19.000Z</time>
      </trkpt>
      <trkpt lat="47.94909" lon="7.04677">
        <ele>1159.8</ele>
        <time>2021-05-27T07:39:24.000Z</time>
      </trkpt>
      <trkpt lat="47.94863" lon="7.04674">
        <ele>1187.9</ele>
        <time>2021-05-27T07:39:29.000Z</time>
      </trkpt>
      <trkpt lat="47.94873" lon="7.04664">
        <ele>1180.6</ele>
        <time>2021-05-27T07:39:34.000Z</time>
      </trkpt>
      <trkpt lat="47.94917" lon="7.04639">
        <ele>1154.5</ele>
        <time>2021-05-27T07:39:39.000Z</time>
      </trkpt>
      <trkpt lat="47.94907" lon="7.04646">
        <ele>1160.5</ele>
        <time>2021-05-27T07:40:23.000Z</time>
      </trkpt>
      <trkpt lat="47.94897" lon="7.04651">
        <ele>1166.5</ele>
        <time>2021-05-27T07:40:40.000Z</time>
      </trkpt>
      <trkpt lat="47.94886" lon="7.04648">
        <ele>1173.2</ele>
        <time>2021-05-27T07:41:01.000Z</time>
      </trkpt>
      <trkpt lat="47.94877" lon="7.04639">
        <ele>1178.6</ele>
        <time>2021-05-27T07:41:23.000Z</time>
      </trkpt>
      <trkpt lat="47.9487" lon="7.0465">
        <ele>1182.4</ele>
        <time>2021-05-27T07:42:02.000Z</time>
      </trkpt>
      <trkpt lat="47.94867" lon="7.04666">
        <ele>1184.7</ele>
        <time>2021-05-27T07:42:29.000Z</time>
      </trkpt>
      <trkpt lat="47.9487" lon="7.0468">
        <ele>1184.3</ele>
        <time>2021-05-27T07:42:44.000Z</time>
      </trkpt>
      <trkpt lat="47.94862" lon="7.04688">
        <ele>1189.6</ele>
        <time>2021-05-27T07:43:23.000Z</time>
      </trkpt>
      <trkpt lat="47.94854" lon="7.04679">
        <ele>1193.5</ele>
        <time>2021-05-27T07:43:39.000Z</time>
      </trkpt>
      <trkpt lat="47.94847" lon="7.04667">
        <ele>1196.8</ele>
        <time>2021-05-27T07:43:54.000Z</time>
      </trkpt>
      <trkpt lat="47.9484" lon="7.04652">
        <ele>1201</ele>
        <time>2021-05-27T07:44:08.000Z</time>
      </trkpt>
      <trkpt lat="47.94834" lon="7.04637">
        <ele>1204</ele>
        <time>2021-05-27T07:44:26.000Z</time>
      </trkpt>
      <trkpt lat="47.94835" lon="7.04621">
        <ele>1203.8</ele>
        <time>2021-05-27T07:44:41.000Z</time>
      </trkpt>
      <trkpt lat="47.94835" lon="7.04605">
        <ele>1203.1</ele>
        <time>2021-05-27T07:45:00.000Z</time>
      </trkpt>
      <trkpt lat="47.94841" lon="7.0463">
        <ele>1200</ele>
        <time>2021-05-27T07:46:25.000Z</time>
      </trkpt>
      <trkpt lat="47.94836" lon="7.04644">
        <ele>1202.9</ele>
        <time>2021-05-27T07:46:51.000Z</time>
      </trkpt>
      <trkpt lat="47.94827" lon="7.04646">
        <ele>1205.4</ele>
        <time>2021-05-27T07:47:35.000Z</time>
      </trkpt>
      <trkpt lat="47.94817" lon="7.04636">
        <ele>1206</ele>
        <time>2021-05-27T07:47:51.000Z</time>
      </trkpt>
      <trkpt lat="47.94803" lon="7.04637">
        <ele>1207.4</ele>
        <time>2021-05-27T07:47:59.000Z</time>
      </trkpt>
      <trkpt lat="47.948" lon="7.04621">
        <ele>1206.6</ele>
        <time>2021-05-27T07:48:14.000Z</time>
      </trkpt>
      <trkpt lat="47.94802" lon="7.04603">
        <ele>1205.5</ele>
        <time>2021-05-27T07:48:27.000Z</time>
      </trkpt>
      <trkpt lat="47.94798" lon="7.04617">
        <ele>1206.6</ele>
        <time>2021-05-27T07:49:25.000Z</time>
      </trkpt>
      <trkpt lat="47.94799" lon="7.04633">
        <ele>1207.5</ele>
        <time>2021-05-27T07:49:37.000Z</time>
      </trkpt>
      <trkpt lat="47.94804" lon="7.04653">
        <ele>1208.2</ele>
        <time>2021-05-27T07:49:51.000Z</time>
      </trkpt>
      <trkpt lat="47.94801" lon="7.04673">
        <ele>1210.2</ele>
        <time>2021-05-27T07:50:07.000Z</time>
      </trkpt>
      <trkpt lat="47.94798" lon="7.04691">
        <ele>1213.3</ele>
        <time>2021-05-27T07:50:24.000Z</time>
      </trkpt>
      <trkpt lat="47.94795" lon="7.04709">
        <ele>1216.4</ele>
        <time>2021-05-27T07:50:35.000Z</time>
      </trkpt>
      <trkpt lat="47.94791" lon="7.04725">
        <ele>1219.6</ele>
        <time>2021-05-27T07:52:29.000Z</time>
      </trkpt>
      <trkpt lat="47.9479" lon="7.04742">
        <ele>1222.7</ele>
        <time>2021-05-27T07:52:46.000Z</time>
      </trkpt>
      <trkpt lat="47.94793" lon="7.04758">
        <ele>1224.9</ele>
        <time>2021-05-27T07:53:01.000Z</time>
      </trkpt>
      <trkpt lat="47.94791" lon="7.04775">
        <ele>1228.7</ele>
        <time>2021-05-27T07:53:18.000Z</time>
      </trkpt>
      <trkpt lat="47.94795" lon="7.0479">
        <ele>1230.9</ele>
        <time>2021-05-27T07:53:39.000Z</time>
      </trkpt>
      <trkpt lat="47.94791" lon="7.04803">
        <ele>1234.4</ele>
        <time>2021-05-27T07:53:50.000Z</time>
      </trkpt>
      <trkpt lat="47.9478" lon="7.04827">
        <ele>1240.7</ele>
        <time>2021-05-27T07:53:55.000Z</time>
      </trkpt>
      <trkpt lat="47.94788" lon="7.04815">
        <ele>1237.3</ele>
        <time>2021-05-27T07:54:00.000Z</time>
      </trkpt>
      <trkpt lat="47.94798" lon="7.0482">
        <ele>1236.7</ele>
        <time>2021-05-27T07:54:09.000Z</time>
      </trkpt>
      <trkpt lat="47.94794" lon="7.0484">
        <ele>1241.8</ele>
        <time>2021-05-27T07:54:43.000Z</time>
      </trkpt>
      <trkpt lat="47.94795" lon="7.04857">
        <ele>1245.5</ele>
        <time>2021-05-27T07:54:57.000Z</time>
      </trkpt>
      <trkpt lat="47.94803" lon="7.0487">
        <ele>1247.8</ele>
        <time>2021-05-27T07:55:11.000Z</time>
      </trkpt>
      <trkpt lat="47.94809" lon="7.04885">
        <ele>1250.9</ele>
        <time>2021-05-27T07:55:24.000Z</time>
      </trkpt>
      <trkpt lat="47.94808" lon="7.04902">
        <ele>1255</ele>
        <time>2021-05-27T07:55:38.000Z</time>
      </trkpt>
      <trkpt lat="47.94805" lon="7.04918">
        <ele>1258.9</ele>
        <time>2021-05-27T07:55:52.000Z</time>
      </trkpt>
      <trkpt lat="47.948" lon="7.04934">
        <ele>1261</ele>
        <time>2021-05-27T07:56:05.000Z</time>
      </trkpt>
      <trkpt lat="47.94796" lon="7.0495">
        <ele>1263.1</ele>
        <time>2021-05-27T07:56:18.000Z</time>
      </trkpt>
      <trkpt lat="47.94793" lon="7.04969">
        <ele>1265.4</ele>
        <time>2021-05-27T07:56:32.000Z</time>
      </trkpt>
      <trkpt lat="47.9479" lon="7.04985">
        <ele>1267.4</ele>
        <time>2021-05-27T07:56:47.000Z</time>
      </trkpt>
      <trkpt lat="47.94787" lon="7.05004">
        <ele>1269.6</ele>
        <time>2021-05-27T07:56:59.000Z</time>
      </trkpt>
      <trkpt lat="47.94787" lon="7.05023">
        <ele>1271.2</ele>
        <time>2021-05-27T07:57:10.000Z</time>
      </trkpt>
      <trkpt lat="47.94787" lon="7.05042">
        <ele>1273</ele>
        <time>2021-05-27T07:57:21.000Z</time>
      </trkpt>
      <trkpt lat="47.94786" lon="7.05061">
        <ele>1274.7</ele>
        <time>2021-05-27T07:57:33.000Z</time>
      </trkpt>
      <trkpt lat="47.94785" lon="7.0508">
        <ele>1276.4</ele>
        <time>2021-05-27T07:57:44.000Z</time>
      </trkpt>
      <trkpt lat="47.94786" lon="7.05098">
        <ele>1278.2</ele>
        <time>2021-05-27T07:57:55.000Z</time>
      </trkpt>
      <trkpt lat="47.94786" lon="7.05118">
        <ele>1280.4</ele>
        <time>2021-05-27T07:58:06.000Z</time>
      </trkpt>
      <trkpt lat="47.94784" lon="7.05136">
        <ele>1282.3</ele>
        <time>2021-05-27T07:58:20.000Z</time>
      </trkpt>
      <trkpt lat="47.94785" lon="7.05154">
        <ele>1284.2</ele>
        <time>2021-05-27T07:58:31.000Z</time>
      </trkpt>
      <trkpt lat="47.94785" lon="7.05172">
        <ele>1286</ele>
        <time>2021-05-27T07:58:42.000Z</time>
      </trkpt>
      <trkpt lat="47.94784" lon="7.05186">
        <ele>1287.2</ele>
        <time>2021-05-27T07:58:55.000Z</time>
      </trkpt>
      <trkpt lat="47.94784" lon="7.052">
        <ele>1288.4</ele>
        <time>2021-05-27T07:59:07.000Z</time>
      </trkpt>
      <trkpt lat="47.94774" lon="7.05204">
        <ele>1288.9</ele>
        <time>2021-05-27T07:59:18.000Z</time>
      </trkpt>
      <trkpt lat="47.94766" lon="7.05194">
        <ele>1288.1</ele>
        <time>2021-05-27T07:59:23.000Z</time>
      </trkpt>
      <trkpt lat="47.94767" lon="7.05209">
        <ele>1289.4</ele>
        <time>2021-05-27T07:59:38.000Z</time>
      </trkpt>
      <trkpt lat="47.94775" lon="7.05233">
        <ele>1291.3</ele>
        <time>2021-05-27T07:59:57.000Z</time>
      </trkpt>
      <trkpt lat="47.9478" lon="7.0525">
        <ele>1292.6</ele>
        <time>2021-05-27T08:00:10.000Z</time>
      </trkpt>
      <trkpt lat="47.94782" lon="7.05268">
        <ele>1294.1</ele>
        <time>2021-05-27T08:00:22.000Z</time>
      </trkpt>
      <trkpt lat="47.94785" lon="7.05285">
        <ele>1295.5</ele>
        <time>2021-05-27T08:00:38.000Z</time>
      </trkpt>
      <trkpt lat="47.94787" lon="7.05301">
        <ele>1296.8</ele>
        <time>2021-05-27T08:00:49.000Z</time>
      </trkpt>
      <trkpt lat="47.94793" lon="7.05313">
        <ele>1297.8</ele>
        <time>2021-05-27T08:00:56.000Z</time>
      </trkpt>
      <trkpt lat="47.94799" lon="7.05323">
        <ele>1298.7</ele>
        <time>2021-05-27T08:01:04.000Z</time>
      </trkpt>
      <trkpt lat="47.94804" lon="7.05336">
        <ele>1299.7</ele>
        <time>2021-05-27T08:01:10.000Z</time>
      </trkpt>
      <trkpt lat="47.94809" lon="7.05349">
        <ele>1300.1</ele>
        <time>2021-05-27T08:01:19.000Z</time>
      </trkpt>
      <trkpt lat="47.94817" lon="7.05359">
        <ele>1300.6</ele>
        <time>2021-05-27T08:01:29.000Z</time>
      </trkpt>
      <trkpt lat="47.94818" lon="7.05379">
        <ele>1301.3</ele>
        <time>2021-05-27T08:01:34.000Z</time>
      </trkpt>
      <trkpt lat="47.94825" lon="7.05389">
        <ele>1301.8</ele>
        <time>2021-05-27T08:01:43.000Z</time>
      </trkpt>
      <trkpt lat="47.94833" lon="7.05396">
        <ele>1302.2</ele>
        <time>2021-05-27T08:01:53.000Z</time>
      </trkpt>
      <trkpt lat="47.9484" lon="7.05405">
        <ele>1302.4</ele>
        <time>2021-05-27T08:02:01.000Z</time>
      </trkpt>
      <trkpt lat="47.94847" lon="7.05414">
        <ele>1302.7</ele>
        <time>2021-05-27T08:02:09.000Z</time>
      </trkpt>
      <trkpt lat="47.94854" lon="7.05424">
        <ele>1302.6</ele>
        <time>2021-05-27T08:02:18.000Z</time>
      </trkpt>
      <trkpt lat="47.9486" lon="7.05435">
        <ele>1302.5</ele>
        <time>2021-05-27T08:02:27.000Z</time>
      </trkpt>
      <trkpt lat="47.94868" lon="7.05444">
        <ele>1302.7</ele>
        <time>2021-05-27T08:02:36.000Z</time>
      </trkpt>
      <trkpt lat="47.94875" lon="7.05455">
        <ele>1303.2</ele>
        <time>2021-05-27T08:02:55.000Z</time>
      </trkpt>
      <trkpt lat="47.94882" lon="7.05465">
        <ele>1303.9</ele>
        <time>2021-05-27T08:03:03.000Z</time>
      </trkpt>
      <trkpt lat="47.94888" lon="7.05476">
        <ele>1304.9</ele>
        <time>2021-05-27T08:03:10.000Z</time>
      </trkpt>
      <trkpt lat="47.94894" lon="7.05486">
        <ele>1306</ele>
        <time>2021-05-27T08:03:18.000Z</time>
      </trkpt>
      <trkpt lat="47.94902" lon="7.05498">
        <ele>1307.7</ele>
        <time>2021-05-27T08:03:26.000Z</time>
      </trkpt>
      <trkpt lat="47.94909" lon="7.05506">
        <ele>1309</ele>
        <time>2021-05-27T08:03:34.000Z</time>
      </trkpt>
      <trkpt lat="47.94916" lon="7.05516">
        <ele>1310.4</ele>
        <time>2021-05-27T08:03:41.000Z</time>
      </trkpt>
      <trkpt lat="47.94921" lon="7.05527">
        <ele>1310.8</ele>
        <time>2021-05-27T08:03:50.000Z</time>
      </trkpt>
      <trkpt lat="47.9493" lon="7.05544">
        <ele>1311.3</ele>
        <time>2021-05-27T08:04:07.000Z</time>
      </trkpt>
      <trkpt lat="47.94937" lon="7.05556">
        <ele>1311.9</ele>
        <time>2021-05-27T08:04:21.000Z</time>
      </trkpt>
      <trkpt lat="47.94942" lon="7.05571">
        <ele>1312.6</ele>
        <time>2021-05-27T08:04:38.000Z</time>
      </trkpt>
      <trkpt lat="47.94942" lon="7.05588">
        <ele>1313</ele>
        <time>2021-05-27T08:04:56.000Z</time>
      </trkpt>
      <trkpt lat="47.9495" lon="7.05593">
        <ele>1312.7</ele>
        <time>2021-05-27T08:06:04.000Z</time>
      </trkpt>
      <trkpt lat="47.9496" lon="7.05594">
        <ele>1312.9</ele>
        <time>2021-05-27T08:06:12.000Z</time>
      </trkpt>
      <trkpt lat="47.94968" lon="7.05588">
        <ele>1313.4</ele>
        <time>2021-05-27T08:06:19.000Z</time>
      </trkpt>
      <trkpt lat="47.94958" lon="7.05591">
        <ele>1313</ele>
        <time>2021-05-27T08:08:37.000Z</time>
      </trkpt>
      <trkpt lat="47.94956" lon="7.05605">
        <ele>1312.1</ele>
        <time>2021-05-27T08:08:59.000Z</time>
      </trkpt>
      <trkpt lat="47.94958" lon="7.05618">
        <ele>1311.4</ele>
        <time>2021-05-27T08:09:06.000Z</time>
      </trkpt>
      <trkpt lat="47.94958" lon="7.05632">
        <ele>1310.5</ele>
        <time>2021-05-27T08:09:13.000Z</time>
      </trkpt>
      <trkpt lat="47.94959" lon="7.05646">
        <ele>1309.8</ele>
        <time>2021-05-27T08:09:24.000Z</time>
      </trkpt>
      <trkpt lat="47.94964" lon="7.05659">
        <ele>1309.5</ele>
        <time>2021-05-27T08:09:31.000Z</time>
      </trkpt>
      <trkpt lat="47.94968" lon="7.05673">
        <ele>1309.3</ele>
        <time>2021-05-27T08:09:42.000Z</time>
      </trkpt>
      <trkpt lat="47.94974" lon="7.05685">
        <ele>1309.7</ele>
        <time>2021-05-27T08:09:48.000Z</time>
      </trkpt>
      <trkpt lat="47.94977" lon="7.05698">
        <ele>1309.8</ele>
        <time>2021-05-27T08:09:53.000Z</time>
      </trkpt>
      <trkpt lat="47.94984" lon="7.0572">
        <ele>1310.7</ele>
        <time>2021-05-27T08:10:07.000Z</time>
      </trkpt>
      <trkpt lat="47.94988" lon="7.05734">
        <ele>1311.2</ele>
        <time>2021-05-27T08:10:12.000Z</time>
      </trkpt>
      <trkpt lat="47.94994" lon="7.05746">
        <ele>1312.7</ele>
        <time>2021-05-27T08:10:18.000Z</time>
      </trkpt>
      <trkpt lat="47.94998" lon="7.05759">
        <ele>1313.1</ele>
        <time>2021-05-27T08:10:25.000Z</time>
      </trkpt>
      <trkpt lat="47.95001" lon="7.05772">
        <ele>1313</ele>
        <time>2021-05-27T08:10:34.000Z</time>
      </trkpt>
      <trkpt lat="47.95005" lon="7.05789">
        <ele>1311.7</ele>
        <time>2021-05-27T08:10:46.000Z</time>
      </trkpt>
      <trkpt lat="47.95008" lon="7.05806">
        <ele>1310.4</ele>
        <time>2021-05-27T08:10:58.000Z</time>
      </trkpt>
      <trkpt lat="47.95008" lon="7.05827">
        <ele>1309.4</ele>
        <time>2021-05-27T08:11:08.000Z</time>
      </trkpt>
      <trkpt lat="47.95011" lon="7.0585">
        <ele>1306.1</ele>
        <time>2021-05-27T08:11:22.000Z</time>
      </trkpt>
      <trkpt lat="47.95012" lon="7.05868">
        <ele>1302.8</ele>
        <time>2021-05-27T08:11:36.000Z</time>
      </trkpt>
      <trkpt lat="47.95012" lon="7.05889">
        <ele>1299.6</ele>
        <time>2021-05-27T08:11:47.000Z</time>
      </trkpt>
      <trkpt lat="47.95013" lon="7.05911">
        <ele>1295.9</ele>
        <time>2021-05-27T08:11:57.000Z</time>
      </trkpt>
      <trkpt lat="47.95011" lon="7.05927">
        <ele>1293.9</ele>
        <time>2021-05-27T08:12:03.000Z</time>
      </trkpt>
      <trkpt lat="47.95005" lon="7.05948">
        <ele>1293.6</ele>
        <time>2021-05-27T08:12:17.000Z</time>
      </trkpt>
      <trkpt lat="47.95" lon="7.05968">
        <ele>1293.1</ele>
        <time>2021-05-27T08:12:32.000Z</time>
      </trkpt>
      <trkpt lat="47.94999" lon="7.05986">
        <ele>1290.7</ele>
        <time>2021-05-27T08:12:43.000Z</time>
      </trkpt>
      <trkpt lat="47.95004" lon="7.06">
        <ele>1287.3</ele>
        <time>2021-05-27T08:12:50.000Z</time>
      </trkpt>
      <trkpt lat="47.95008" lon="7.06018">
        <ele>1281.9</ele>
        <time>2021-05-27T08:13:02.000Z</time>
      </trkpt>
      <trkpt lat="47.95011" lon="7.06036">
        <ele>1277.5</ele>
        <time>2021-05-27T08:13:13.000Z</time>
      </trkpt>
      <trkpt lat="47.95014" lon="7.06053">
        <ele>1273.4</ele>
        <time>2021-05-27T08:13:24.000Z</time>
      </trkpt>
      <trkpt lat="47.95015" lon="7.0607">
        <ele>1269.7</ele>
        <time>2021-05-27T08:13:38.000Z</time>
      </trkpt>
      <trkpt lat="47.95012" lon="7.06088">
        <ele>1268.4</ele>
        <time>2021-05-27T08:14:11.000Z</time>
      </trkpt>
      <trkpt lat="47.9501" lon="7.06105">
        <ele>1267.2</ele>
        <time>2021-05-27T08:14:24.000Z</time>
      </trkpt>
      <trkpt lat="47.95016" lon="7.06125">
        <ele>1262.2</ele>
        <time>2021-05-27T08:14:37.000Z</time>
      </trkpt>
      <trkpt lat="47.95018" lon="7.06142">
        <ele>1258.8</ele>
        <time>2021-05-27T08:14:49.000Z</time>
      </trkpt>
      <trkpt lat="47.9502" lon="7.0616">
        <ele>1256</ele>
        <time>2021-05-27T08:15:02.000Z</time>
      </trkpt>
      <trkpt lat="47.95022" lon="7.06178">
        <ele>1252.2</ele>
        <time>2021-05-27T08:15:15.000Z</time>
      </trkpt>
      <trkpt lat="47.95026" lon="7.06197">
        <ele>1246.9</ele>
        <time>2021-05-27T08:15:27.000Z</time>
      </trkpt>
      <trkpt lat="47.95028" lon="7.06215">
        <ele>1242.7</ele>
        <time>2021-05-27T08:15:38.000Z</time>
      </trkpt>
      <trkpt lat="47.95033" lon="7.06232">
        <ele>1237.7</ele>
        <time>2021-05-27T08:16:02.000Z</time>
      </trkpt>
      <trkpt lat="47.95035" lon="7.06249">
        <ele>1234</ele>
        <time>2021-05-27T08:16:13.000Z</time>
      </trkpt>
      <trkpt lat="47.95036" lon="7.06269">
        <ele>1229.3</ele>
        <time>2021-05-27T08:16:29.000Z</time>
      </trkpt>
      <trkpt lat="47.9504" lon="7.06284">
        <ele>1224.8</ele>
        <time>2021-05-27T08:16:44.000Z</time>
      </trkpt>
      <trkpt lat="47.9504" lon="7.06302">
        <ele>1221.2</ele>
        <time>2021-05-27T08:17:01.000Z</time>
      </trkpt>
      <trkpt lat="47.9504" lon="7.06328">
        <ele>1215.7</ele>
        <time>2021-05-27T08:17:15.000Z</time>
      </trkpt>
      <trkpt lat="47.95037" lon="7.06346">
        <ele>1212.6</ele>
        <time>2021-05-27T08:17:28.000Z</time>
      </trkpt>
      <trkpt lat="47.95036" lon="7.06365">
        <ele>1209.2</ele>
        <time>2021-05-27T08:17:38.000Z</time>
      </trkpt>
      <trkpt lat="47.95039" lon="7.06386">
        <ele>1204.5</ele>
        <time>2021-05-27T08:17:49.000Z</time>
      </trkpt>
      <trkpt lat="47.95042" lon="7.06404">
        <ele>1200.4</ele>
        <time>2021-05-27T08:18:01.000Z</time>
      </trkpt>
      <trkpt lat="47.95047" lon="7.0642">
        <ele>1196.6</ele>
        <time>2021-05-27T08:18:11.000Z</time>
      </trkpt>
      <trkpt lat="47.95048" lon="7.0644">
        <ele>1194.4</ele>
        <time>2021-05-27T08:18:24.000Z</time>
      </trkpt>
      <trkpt lat="47.95046" lon="7.06458">
        <ele>1192.7</ele>
        <time>2021-05-27T08:18:32.000Z</time>
      </trkpt>
      <trkpt lat="47.95042" lon="7.06471">
        <ele>1192</ele>
        <time>2021-05-27T08:18:38.000Z</time>
      </trkpt>
      <trkpt lat="47.95037" lon="7.0649">
        <ele>1191</ele>
        <time>2021-05-27T08:19:26.000Z</time>
      </trkpt>
      <trkpt lat="47.95045" lon="7.06482">
        <ele>1190.4</ele>
        <time>2021-05-27T08:19:46.000Z</time>
      </trkpt>
      <trkpt lat="47.9504" lon="7.06494">
        <ele>1189.9</ele>
        <time>2021-05-27T08:20:13.000Z</time>
      </trkpt>
      <trkpt lat="47.95025" lon="7.06489">
        <ele>1193</ele>
        <time>2021-05-27T08:20:18.000Z</time>
      </trkpt>
      <trkpt lat="47.95033" lon="7.06499">
        <ele>1190.6</ele>
        <time>2021-05-27T08:21:24.000Z</time>
      </trkpt>
      <trkpt lat="47.95041" lon="7.06506">
        <ele>1189.5</ele>
        <time>2021-05-27T08:21:32.000Z</time>
      </trkpt>
      <trkpt lat="47.9505" lon="7.06509">
        <ele>1188.1</ele>
        <time>2021-05-27T08:21:40.000Z</time>
      </trkpt>
      <trkpt lat="47.9506" lon="7.06507">
        <ele>1186.4</ele>
        <time>2021-05-27T08:21:47.000Z</time>
      </trkpt>
      <trkpt lat="47.95058" lon="7.06488">
        <ele>1187.4</ele>
        <time>2021-05-27T08:21:58.000Z</time>
      </trkpt>
      <trkpt lat="47.95062" lon="7.06511">
        <ele>1186.4</ele>
        <time>2021-05-27T08:22:03.000Z</time>
      </trkpt>
      <trkpt lat="47.95063" lon="7.06528">
        <ele>1187.4</ele>
        <time>2021-05-27T08:22:08.000Z</time>
      </trkpt>
      <trkpt lat="47.95068" lon="7.06515">
        <ele>1185.7</ele>
        <time>2021-05-27T08:22:27.000Z</time>
      </trkpt>
      <trkpt lat="47.95066" lon="7.06501">
        <ele>1185</ele>
        <time>2021-05-27T08:22:34.000Z</time>
      </trkpt>
      <trkpt lat="47.95057" lon="7.06494">
        <ele>1187</ele>
        <time>2021-05-27T08:22:41.000Z</time>
      </trkpt>
      <trkpt lat="47.95052" lon="7.0651">
        <ele>1187.9</ele>
        <time>2021-05-27T08:22:56.000Z</time>
      </trkpt>
      <trkpt lat="47.95049" lon="7.06523">
        <ele>1189.1</ele>
        <time>2021-05-27T08:23:02.000Z</time>
      </trkpt>
      <trkpt lat="47.95049" lon="7.06539">
        <ele>1189.9</ele>
        <time>2021-05-27T08:23:13.000Z</time>
      </trkpt>
      <trkpt lat="47.95048" lon="7.06557">
        <ele>1191</ele>
        <time>2021-05-27T08:23:26.000Z</time>
      </trkpt>
      <trkpt lat="47.9505" lon="7.06574">
        <ele>1191.7</ele>
        <time>2021-05-27T08:23:39.000Z</time>
      </trkpt>
      <trkpt lat="47.95056" lon="7.06591">
        <ele>1192.6</ele>
        <time>2021-05-27T08:23:51.000Z</time>
      </trkpt>
      <trkpt lat="47.95058" lon="7.06608">
        <ele>1194.5</ele>
        <time>2021-05-27T08:24:09.000Z</time>
      </trkpt>
      <trkpt lat="47.9506" lon="7.06627">
        <ele>1196.8</ele>
        <time>2021-05-27T08:24:22.000Z</time>
      </trkpt>
      <trkpt lat="47.95064" lon="7.06646">
        <ele>1199.2</ele>
        <time>2021-05-27T08:24:34.000Z</time>
      </trkpt>
      <trkpt lat="47.95069" lon="7.06658">
        <ele>1200.8</ele>
        <time>2021-05-27T08:24:42.000Z</time>
      </trkpt>
      <trkpt lat="47.9507" lon="7.06673">
        <ele>1202.8</ele>
        <time>2021-05-27T08:24:54.000Z</time>
      </trkpt>
      <trkpt lat="47.9507" lon="7.0669">
        <ele>1205</ele>
        <time>2021-05-27T08:25:06.000Z</time>
      </trkpt>
      <trkpt lat="47.95069" lon="7.06709">
        <ele>1207.5</ele>
        <time>2021-05-27T08:25:22.000Z</time>
      </trkpt>
      <trkpt lat="47.95068" lon="7.06727">
        <ele>1209.6</ele>
        <time>2021-05-27T08:25:36.000Z</time>
      </trkpt>
      <trkpt lat="47.95072" lon="7.06744">
        <ele>1211.9</ele>
        <time>2021-05-27T08:25:50.000Z</time>
      </trkpt>
      <trkpt lat="47.95075" lon="7.0676">
        <ele>1215.3</ele>
        <time>2021-05-27T08:26:08.000Z</time>
      </trkpt>
      <trkpt lat="47.9507" lon="7.06779">
        <ele>1219.5</ele>
        <time>2021-05-27T08:26:24.000Z</time>
      </trkpt>
      <trkpt lat="47.95074" lon="7.06797">
        <ele>1224</ele>
        <time>2021-05-27T08:26:40.000Z</time>
      </trkpt>
      <trkpt lat="47.95076" lon="7.06813">
        <ele>1228.2</ele>
        <time>2021-05-27T08:27:00.000Z</time>
      </trkpt>
      <trkpt lat="47.9508" lon="7.06827">
        <ele>1231.9</ele>
        <time>2021-05-27T08:27:17.000Z</time>
      </trkpt>
      <trkpt lat="47.95085" lon="7.06842">
        <ele>1234.9</ele>
        <time>2021-05-27T08:27:28.000Z</time>
      </trkpt>
      <trkpt lat="47.95088" lon="7.0686">
        <ele>1237.2</ele>
        <time>2021-05-27T08:27:43.000Z</time>
      </trkpt>
      <trkpt lat="47.95088" lon="7.06878">
        <ele>1240.6</ele>
        <time>2021-05-27T08:27:58.000Z</time>
      </trkpt>
      <trkpt lat="47.95094" lon="7.06894">
        <ele>1242</ele>
        <time>2021-05-27T08:28:12.000Z</time>
      </trkpt>
      <trkpt lat="47.95096" lon="7.06911">
        <ele>1245.2</ele>
        <time>2021-05-27T08:28:28.000Z</time>
      </trkpt>
      <trkpt lat="47.95101" lon="7.06927">
        <ele>1247.7</ele>
        <time>2021-05-27T08:28:41.000Z</time>
      </trkpt>
      <trkpt lat="47.95107" lon="7.06943">
        <ele>1250.3</ele>
        <time>2021-05-27T08:28:56.000Z</time>
      </trkpt>
      <trkpt lat="47.95115" lon="7.06955">
        <ele>1252.1</ele>
        <time>2021-05-27T08:29:10.000Z</time>
      </trkpt>
      <trkpt lat="47.9512" lon="7.06971">
        <ele>1255.5</ele>
        <time>2021-05-27T08:29:27.000Z</time>
      </trkpt>
      <trkpt lat="47.95125" lon="7.06986">
        <ele>1258.9</ele>
        <time>2021-05-27T08:29:44.000Z</time>
      </trkpt>
      <trkpt lat="47.95131" lon="7.07001">
        <ele>1262.1</ele>
        <time>2021-05-27T08:30:02.000Z</time>
      </trkpt>
      <trkpt lat="47.95137" lon="7.07016">
        <ele>1263.5</ele>
        <time>2021-05-27T08:30:14.000Z</time>
      </trkpt>
      <trkpt lat="47.95135" lon="7.07034">
        <ele>1266</ele>
        <time>2021-05-27T08:30:29.000Z</time>
      </trkpt>
      <trkpt lat="47.95138" lon="7.07049">
        <ele>1267.6</ele>
        <time>2021-05-27T08:30:46.000Z</time>
      </trkpt>
      <trkpt lat="47.95144" lon="7.07066">
        <ele>1269.5</ele>
        <time>2021-05-27T08:31:08.000Z</time>
      </trkpt>
      <trkpt lat="47.95139" lon="7.0708">
        <ele>1271.5</ele>
        <time>2021-05-27T08:31:35.000Z</time>
      </trkpt>
      <trkpt lat="47.95144" lon="7.07092">
        <ele>1271.6</ele>
        <time>2021-05-27T08:32:04.000Z</time>
      </trkpt>
      <trkpt lat="47.95153" lon="7.07104">
        <ele>1271</ele>
        <time>2021-05-27T08:32:19.000Z</time>
      </trkpt>
      <trkpt lat="47.95161" lon="7.07117">
        <ele>1270.7</ele>
        <time>2021-05-27T08:32:32.000Z</time>
      </trkpt>
      <trkpt lat="47.9517" lon="7.07129">
        <ele>1268.8</ele>
        <time>2021-05-27T08:33:11.000Z</time>
      </trkpt>
      <trkpt lat="47.95176" lon="7.07143">
        <ele>1266.2</ele>
        <time>2021-05-27T08:33:28.000Z</time>
      </trkpt>
      <trkpt lat="47.95186" lon="7.07155">
        <ele>1262.2</ele>
        <time>2021-05-27T08:33:37.000Z</time>
      </trkpt>
      <trkpt lat="47.95191" lon="7.07171">
        <ele>1259.8</ele>
        <time>2021-05-27T08:33:51.000Z</time>
      </trkpt>
      <trkpt lat="47.95197" lon="7.0719">
        <ele>1257</ele>
        <time>2021-05-27T08:34:04.000Z</time>
      </trkpt>
      <trkpt lat="47.952" lon="7.07207">
        <ele>1255.5</ele>
        <time>2021-05-27T08:34:11.000Z</time>
      </trkpt>
      <trkpt lat="47.95209" lon="7.07222">
        <ele>1252.9</ele>
        <time>2021-05-27T08:34:23.000Z</time>
      </trkpt>
      <trkpt lat="47.95224" lon="7.07237">
        <ele>1249.2</ele>
        <time>2021-05-27T08:34:35.000Z</time>
      </trkpt>
      <trkpt lat="47.952" lon="7.07246">
        <ele>1255</ele>
        <time>2021-05-27T08:34:40.000Z</time>
      </trkpt>
      <trkpt lat="47.95211" lon="7.0725">
        <ele>1252.4</ele>
        <time>2021-05-27T08:34:46.000Z</time>
      </trkpt>
      <trkpt lat="47.95193" lon="7.07261">
        <ele>1254.9</ele>
        <time>2021-05-27T08:34:51.000Z</time>
      </trkpt>
      <trkpt lat="47.952" lon="7.07271">
        <ele>1252.7</ele>
        <time>2021-05-27T08:35:07.000Z</time>
      </trkpt>
      <trkpt lat="47.952" lon="7.07291">
        <ele>1250.7</ele>
        <time>2021-05-27T08:35:42.000Z</time>
      </trkpt>
      <trkpt lat="47.95211" lon="7.07313">
        <ele>1248</ele>
        <time>2021-05-27T08:35:47.000Z</time>
      </trkpt>
      <trkpt lat="47.95219" lon="7.07319">
        <ele>1247.3</ele>
        <time>2021-05-27T08:36:15.000Z</time>
      </trkpt>
      <trkpt lat="47.95229" lon="7.07324">
        <ele>1247</ele>
        <time>2021-05-27T08:36:22.000Z</time>
      </trkpt>
      <trkpt lat="47.95238" lon="7.0733">
        <ele>1246.8</ele>
        <time>2021-05-27T08:36:28.000Z</time>
      </trkpt>
      <trkpt lat="47.95246" lon="7.07338">
        <ele>1246.8</ele>
        <time>2021-05-27T08:36:34.000Z</time>
      </trkpt>
      <trkpt lat="47.9525" lon="7.07349">
        <ele>1246.5</ele>
        <time>2021-05-27T08:36:42.000Z</time>
      </trkpt>
      <trkpt lat="47.95256" lon="7.07362">
        <ele>1245.1</ele>
        <time>2021-05-27T08:36:48.000Z</time>
      </trkpt>
      <trkpt lat="47.95259" lon="7.07374">
        <ele>1244.2</ele>
        <time>2021-05-27T08:36:54.000Z</time>
      </trkpt>
      <trkpt lat="47.95263" lon="7.07387">
        <ele>1243.3</ele>
        <time>2021-05-27T08:37:01.000Z</time>
      </trkpt>
      <trkpt lat="47.95263" lon="7.07407">
        <ele>1243</ele>
        <time>2021-05-27T08:37:15.000Z</time>
      </trkpt>
      <trkpt lat="47.9527" lon="7.07421">
        <ele>1241.6</ele>
        <time>2021-05-27T08:37:36.000Z</time>
      </trkpt>
      <trkpt lat="47.95275" lon="7.0744">
        <ele>1240.3</ele>
        <time>2021-05-27T08:37:48.000Z</time>
      </trkpt>
      <trkpt lat="47.95271" lon="7.07459">
        <ele>1240.5</ele>
        <time>2021-05-27T08:38:01.000Z</time>
      </trkpt>
      <trkpt lat="47.95275" lon="7.07473">
        <ele>1239.7</ele>
        <time>2021-05-27T08:38:13.000Z</time>
      </trkpt>
      <trkpt lat="47.95282" lon="7.07491">
        <ele>1238.8</ele>
        <time>2021-05-27T08:38:24.000Z</time>
      </trkpt>
      <trkpt lat="47.95281" lon="7.07508">
        <ele>1239</ele>
        <time>2021-05-27T08:38:36.000Z</time>
      </trkpt>
      <trkpt lat="47.95288" lon="7.07521">
        <ele>1238.9</ele>
        <time>2021-05-27T08:38:44.000Z</time>
      </trkpt>
      <trkpt lat="47.95293" lon="7.07535">
        <ele>1239</ele>
        <time>2021-05-27T08:38:56.000Z</time>
      </trkpt>
      <trkpt lat="47.95298" lon="7.07551">
        <ele>1239.3</ele>
        <time>2021-05-27T08:39:08.000Z</time>
      </trkpt>
      <trkpt lat="47.95299" lon="7.0757">
        <ele>1239.9</ele>
        <time>2021-05-27T08:39:19.000Z</time>
      </trkpt>
      <trkpt lat="47.95304" lon="7.07586">
        <ele>1240.5</ele>
        <time>2021-05-27T08:39:30.000Z</time>
      </trkpt>
      <trkpt lat="47.95309" lon="7.07603">
        <ele>1241.3</ele>
        <time>2021-05-27T08:39:41.000Z</time>
      </trkpt>
      <trkpt lat="47.95312" lon="7.07619">
        <ele>1242.3</ele>
        <time>2021-05-27T08:39:56.000Z</time>
      </trkpt>
      <trkpt lat="47.95319" lon="7.07636">
        <ele>1243.6</ele>
        <time>2021-05-27T08:40:08.000Z</time>
      </trkpt>
      <trkpt lat="47.95322" lon="7.07653">
        <ele>1245</ele>
        <time>2021-05-27T08:40:23.000Z</time>
      </trkpt>
      <trkpt lat="47.95327" lon="7.0767">
        <ele>1246.5</ele>
        <time>2021-05-27T08:40:33.000Z</time>
      </trkpt>
      <trkpt lat="47.95329" lon="7.07689">
        <ele>1247.5</ele>
        <time>2021-05-27T08:40:47.000Z</time>
      </trkpt>
      <trkpt lat="47.95335" lon="7.07704">
        <ele>1248.5</ele>
        <time>2021-05-27T08:40:58.000Z</time>
      </trkpt>
      <trkpt lat="47.95337" lon="7.07722">
        <ele>1249</ele>
        <time>2021-05-27T08:41:10.000Z</time>
      </trkpt>
      <trkpt lat="47.95335" lon="7.07741">
        <ele>1250.3</ele>
        <time>2021-05-27T08:41:16.000Z</time>
      </trkpt>
      <trkpt lat="47.95339" lon="7.0776">
        <ele>1250.2</ele>
        <time>2021-05-27T08:41:28.000Z</time>
      </trkpt>
      <trkpt lat="47.95348" lon="7.07772">
        <ele>1249</ele>
        <time>2021-05-27T08:41:34.000Z</time>
      </trkpt>
      <trkpt lat="47.95355" lon="7.07781">
        <ele>1248.1</ele>
        <time>2021-05-27T08:41:39.000Z</time>
      </trkpt>
      <trkpt lat="47.95356" lon="7.07798">
        <ele>1248.5</ele>
        <time>2021-05-27T08:41:50.000Z</time>
      </trkpt>
      <trkpt lat="47.95362" lon="7.07812">
        <ele>1248.2</ele>
        <time>2021-05-27T08:42:06.000Z</time>
      </trkpt>
      <trkpt lat="47.95369" lon="7.07825">
        <ele>1248.1</ele>
        <time>2021-05-27T08:42:14.000Z</time>
      </trkpt>
      <trkpt lat="47.9538" lon="7.07835">
        <ele>1247.7</ele>
        <time>2021-05-27T08:42:21.000Z</time>
      </trkpt>
      <trkpt lat="47.95383" lon="7.0785">
        <ele>1248</ele>
        <time>2021-05-27T08:42:28.000Z</time>
      </trkpt>
      <trkpt lat="47.95392" lon="7.07862">
        <ele>1248.4</ele>
        <time>2021-05-27T08:42:43.000Z</time>
      </trkpt>
      <trkpt lat="47.95401" lon="7.07874">
        <ele>1249.2</ele>
        <time>2021-05-27T08:42:55.000Z</time>
      </trkpt>
      <trkpt lat="47.95413" lon="7.07884">
        <ele>1250.4</ele>
        <time>2021-05-27T08:43:06.000Z</time>
      </trkpt>
      <trkpt lat="47.95422" lon="7.07898">
        <ele>1252.3</ele>
        <time>2021-05-27T08:43:16.000Z</time>
      </trkpt>
      <trkpt lat="47.95433" lon="7.0791">
        <ele>1254.1</ele>
        <time>2021-05-27T08:43:27.000Z</time>
      </trkpt>
      <trkpt lat="47.95441" lon="7.07923">
        <ele>1256</ele>
        <time>2021-05-27T08:43:50.000Z</time>
      </trkpt>
      <trkpt lat="47.9545" lon="7.07932">
        <ele>1257.4</ele>
        <time>2021-05-27T08:44:07.000Z</time>
      </trkpt>
      <trkpt lat="47.95458" lon="7.07942">
        <ele>1259.1</ele>
        <time>2021-05-27T08:44:21.000Z</time>
      </trkpt>
      <trkpt lat="47.95466" lon="7.07955">
        <ele>1260.9</ele>
        <time>2021-05-27T08:44:35.000Z</time>
      </trkpt>
      <trkpt lat="47.95474" lon="7.07966">
        <ele>1262.8</ele>
        <time>2021-05-27T08:44:49.000Z</time>
      </trkpt>
      <trkpt lat="47.95475" lon="7.07988">
        <ele>1265.3</ele>
        <time>2021-05-27T08:45:02.000Z</time>
      </trkpt>
      <trkpt lat="47.95484" lon="7.08">
        <ele>1267.4</ele>
        <time>2021-05-27T08:45:15.000Z</time>
      </trkpt>
      <trkpt lat="47.95491" lon="7.08014">
        <ele>1269.7</ele>
        <time>2021-05-27T08:45:27.000Z</time>
      </trkpt>
      <trkpt lat="47.95499" lon="7.08021">
        <ele>1271.5</ele>
        <time>2021-05-27T08:45:52.000Z</time>
      </trkpt>
      <trkpt lat="47.9551" lon="7.0803">
        <ele>1273</ele>
        <time>2021-05-27T08:46:17.000Z</time>
      </trkpt>
      <trkpt lat="47.95525" lon="7.08035">
        <ele>1274</ele>
        <time>2021-05-27T08:46:29.000Z</time>
      </trkpt>
      <trkpt lat="47.95537" lon="7.0804">
        <ele>1274.9</ele>
        <time>2021-05-27T08:46:45.000Z</time>
      </trkpt>
      <trkpt lat="47.95543" lon="7.08054">
        <ele>1276.7</ele>
        <time>2021-05-27T08:47:00.000Z</time>
      </trkpt>
      <trkpt lat="47.95553" lon="7.08061">
        <ele>1277.8</ele>
        <time>2021-05-27T08:47:21.000Z</time>
      </trkpt>
      <trkpt lat="47.95563" lon="7.08073">
        <ele>1279.4</ele>
        <time>2021-05-27T08:47:42.000Z</time>
      </trkpt>
      <trkpt lat="47.9557" lon="7.08102">
        <ele>1281</ele>
        <time>2021-05-27T08:47:47.000Z</time>
      </trkpt>
      <trkpt lat="47.9556" lon="7.08126">
        <ele>1281.2</ele>
        <time>2021-05-27T08:48:08.000Z</time>
      </trkpt>
      <trkpt lat="47.9555" lon="7.08144">
        <ele>1281.5</ele>
        <time>2021-05-27T08:48:23.000Z</time>
      </trkpt>
      <trkpt lat="47.95543" lon="7.08157">
        <ele>1281.8</ele>
        <time>2021-05-27T08:48:28.000Z</time>
      </trkpt>
      <trkpt lat="47.95528" lon="7.08178">
        <ele>1281</ele>
        <time>2021-05-27T08:48:33.000Z</time>
      </trkpt>
      <trkpt lat="47.95522" lon="7.08199">
        <ele>1279.4</ele>
        <time>2021-05-27T08:48:38.000Z</time>
      </trkpt>
      <trkpt lat="47.95529" lon="7.0821">
        <ele>1278.3</ele>
        <time>2021-05-27T08:48:46.000Z</time>
      </trkpt>
      <trkpt lat="47.95538" lon="7.08217">
        <ele>1277.4</ele>
        <time>2021-05-27T08:48:55.000Z</time>
      </trkpt>
      <trkpt lat="47.95546" lon="7.08224">
        <ele>1276.3</ele>
        <time>2021-05-27T08:49:03.000Z</time>
      </trkpt>
      <trkpt lat="47.95556" lon="7.08227">
        <ele>1275.5</ele>
        <time>2021-05-27T08:49:09.000Z</time>
      </trkpt>
      <trkpt lat="47.95564" lon="7.08235">
        <ele>1274.1</ele>
        <time>2021-05-27T08:49:15.000Z</time>
      </trkpt>
      <trkpt lat="47.95573" lon="7.08245">
        <ele>1272.5</ele>
        <time>2021-05-27T08:49:20.000Z</time>
      </trkpt>
      <trkpt lat="47.95579" lon="7.08255">
        <ele>1270.7</ele>
        <time>2021-05-27T08:49:26.000Z</time>
      </trkpt>
      <trkpt lat="47.95581" lon="7.08271">
        <ele>1268.5</ele>
        <time>2021-05-27T08:49:37.000Z</time>
      </trkpt>
      <trkpt lat="47.95584" lon="7.08283">
        <ele>1266.6</ele>
        <time>2021-05-27T08:49:42.000Z</time>
      </trkpt>
      <trkpt lat="47.95588" lon="7.08299">
        <ele>1264.3</ele>
        <time>2021-05-27T08:50:02.000Z</time>
      </trkpt>
      <trkpt lat="47.95579" lon="7.08297">
        <ele>1265.1</ele>
        <time>2021-05-27T08:50:15.000Z</time>
      </trkpt>
      <trkpt lat="47.95588" lon="7.08298">
        <ele>1264.5</ele>
        <time>2021-05-27T08:50:33.000Z</time>
      </trkpt>
      <trkpt lat="47.95596" lon="7.0829">
        <ele>1265.2</ele>
        <time>2021-05-27T08:50:45.000Z</time>
      </trkpt>
      <trkpt lat="47.95605" lon="7.08282">
        <ele>1265.9</ele>
        <time>2021-05-27T08:50:51.000Z</time>
      </trkpt>
      <trkpt lat="47.95614" lon="7.08279">
        <ele>1265.9</ele>
        <time>2021-05-27T08:50:57.000Z</time>
      </trkpt>
      <trkpt lat="47.95623" lon="7.0828">
        <ele>1265.4</ele>
        <time>2021-05-27T08:51:04.000Z</time>
      </trkpt>
      <trkpt lat="47.95632" lon="7.08273">
        <ele>1266</ele>
        <time>2021-05-27T08:51:10.000Z</time>
      </trkpt>
      <trkpt lat="47.95642" lon="7.0827">
        <ele>1266.1</ele>
        <time>2021-05-27T08:51:19.000Z</time>
      </trkpt>
      <trkpt lat="47.95652" lon="7.08267">
        <ele>1266.1</ele>
        <time>2021-05-27T08:51:25.000Z</time>
      </trkpt>
      <trkpt lat="47.95661" lon="7.08271">
        <ele>1265.2</ele>
        <time>2021-05-27T08:51:31.000Z</time>
      </trkpt>
      <trkpt lat="47.95671" lon="7.08271">
        <ele>1264.8</ele>
        <time>2021-05-27T08:51:36.000Z</time>
      </trkpt>
      <trkpt lat="47.95681" lon="7.08269">
        <ele>1264.9</ele>
        <time>2021-05-27T08:51:41.000Z</time>
      </trkpt>
      <trkpt lat="47.9569" lon="7.08267">
        <ele>1264.9</ele>
        <time>2021-05-27T08:51:48.000Z</time>
      </trkpt>
      <trkpt lat="47.95699" lon="7.08266">
        <ele>1264.7</ele>
        <time>2021-05-27T08:51:55.000Z</time>
      </trkpt>
      <trkpt lat="47.95708" lon="7.08267">
        <ele>1264.2</ele>
        <time>2021-05-27T08:52:03.000Z</time>
      </trkpt>
      <trkpt lat="47.95717" lon="7.0827">
        <ele>1263.6</ele>
        <time>2021-05-27T08:52:12.000Z</time>
      </trkpt>
      <trkpt lat="47.95728" lon="7.08272">
        <ele>1263</ele>
        <time>2021-05-27T08:52:20.000Z</time>
      </trkpt>
      <trkpt lat="47.9574" lon="7.08269">
        <ele>1263.1</ele>
        <time>2021-05-27T08:52:31.000Z</time>
      </trkpt>
      <trkpt lat="47.95749" lon="7.08265">
        <ele>1263.3</ele>
        <time>2021-05-27T08:52:39.000Z</time>
      </trkpt>
      <trkpt lat="47.95753" lon="7.08252">
        <ele>1264.6</ele>
        <time>2021-05-27T08:53:03.000Z</time>
      </trkpt>
      <trkpt lat="47.95756" lon="7.08265">
        <ele>1262.9</ele>
        <time>2021-05-27T08:53:16.000Z</time>
      </trkpt>
      <trkpt lat="47.95766" lon="7.08266">
        <ele>1262.4</ele>
        <time>2021-05-27T08:53:30.000Z</time>
      </trkpt>
      <trkpt lat="47.95775" lon="7.08267">
        <ele>1261.9</ele>
        <time>2021-05-27T08:53:35.000Z</time>
      </trkpt>
      <trkpt lat="47.95784" lon="7.08268">
        <ele>1261.4</ele>
        <time>2021-05-27T08:53:41.000Z</time>
      </trkpt>
      <trkpt lat="47.95794" lon="7.08267">
        <ele>1261</ele>
        <time>2021-05-27T08:53:48.000Z</time>
      </trkpt>
      <trkpt lat="47.95804" lon="7.08267">
        <ele>1260.7</ele>
        <time>2021-05-27T08:53:54.000Z</time>
      </trkpt>
      <trkpt lat="47.95814" lon="7.08266">
        <ele>1260.3</ele>
        <time>2021-05-27T08:54:01.000Z</time>
      </trkpt>
      <trkpt lat="47.95823" lon="7.08269">
        <ele>1259.6</ele>
        <time>2021-05-27T08:54:08.000Z</time>
      </trkpt>
      <trkpt lat="47.95832" lon="7.08272">
        <ele>1259</ele>
        <time>2021-05-27T08:54:16.000Z</time>
      </trkpt>
      <trkpt lat="47.95841" lon="7.0827">
        <ele>1258.7</ele>
        <time>2021-05-27T08:54:23.000Z</time>
      </trkpt>
      <trkpt lat="47.9585" lon="7.08268">
        <ele>1258.3</ele>
        <time>2021-05-27T08:54:30.000Z</time>
      </trkpt>
      <trkpt lat="47.9586" lon="7.08274">
        <ele>1257.3</ele>
        <time>2021-05-27T08:54:40.000Z</time>
      </trkpt>
      <trkpt lat="47.9587" lon="7.08279">
        <ele>1256.1</ele>
        <time>2021-05-27T08:54:46.000Z</time>
      </trkpt>
      <trkpt lat="47.95879" lon="7.08285">
        <ele>1255</ele>
        <time>2021-05-27T08:54:52.000Z</time>
      </trkpt>
      <trkpt lat="47.95887" lon="7.08291">
        <ele>1253.8</ele>
        <time>2021-05-27T08:54:58.000Z</time>
      </trkpt>
      <trkpt lat="47.95898" lon="7.08292">
        <ele>1253.1</ele>
        <time>2021-05-27T08:55:06.000Z</time>
      </trkpt>
      <trkpt lat="47.95907" lon="7.08296">
        <ele>1252.1</ele>
        <time>2021-05-27T08:55:13.000Z</time>
      </trkpt>
      <trkpt lat="47.95916" lon="7.08301">
        <ele>1250.9</ele>
        <time>2021-05-27T08:55:19.000Z</time>
      </trkpt>
      <trkpt lat="47.95926" lon="7.08301">
        <ele>1250.7</ele>
        <time>2021-05-27T08:55:26.000Z</time>
      </trkpt>
      <trkpt lat="47.95939" lon="7.08306">
        <ele>1249.9</ele>
        <time>2021-05-27T08:55:38.000Z</time>
      </trkpt>
      <trkpt lat="47.9595" lon="7.08306">
        <ele>1249.8</ele>
        <time>2021-05-27T08:55:46.000Z</time>
      </trkpt>
      <trkpt lat="47.95959" lon="7.08307">
        <ele>1249.5</ele>
        <time>2021-05-27T08:55:53.000Z</time>
      </trkpt>
      <trkpt lat="47.95968" lon="7.08313">
        <ele>1249</ele>
        <time>2021-05-27T08:55:59.000Z</time>
      </trkpt>
      <trkpt lat="47.95978" lon="7.08318">
        <ele>1248.7</ele>
        <time>2021-05-27T08:56:05.000Z</time>
      </trkpt>
      <trkpt lat="47.95988" lon="7.08321">
        <ele>1248.5</ele>
        <time>2021-05-27T08:56:14.000Z</time>
      </trkpt>
      <trkpt lat="47.95997" lon="7.08322">
        <ele>1248.4</ele>
        <time>2021-05-27T08:56:20.000Z</time>
      </trkpt>
      <trkpt lat="47.96006" lon="7.08325">
        <ele>1248.4</ele>
        <time>2021-05-27T08:56:26.000Z</time>
      </trkpt>
      <trkpt lat="47.96016" lon="7.08329">
        <ele>1248.5</ele>
        <time>2021-05-27T08:56:35.000Z</time>
      </trkpt>
      <trkpt lat="47.96026" lon="7.08331">
        <ele>1248.6</ele>
        <time>2021-05-27T08:56:43.000Z</time>
      </trkpt>
      <trkpt lat="47.96036" lon="7.08333">
        <ele>1248.9</ele>
        <time>2021-05-27T08:56:50.000Z</time>
      </trkpt>
      <trkpt lat="47.96047" lon="7.08337">
        <ele>1248.8</ele>
        <time>2021-05-27T08:57:01.000Z</time>
      </trkpt>
      <trkpt lat="47.96057" lon="7.08343">
        <ele>1248.4</ele>
        <time>2021-05-27T08:57:10.000Z</time>
      </trkpt>
      <trkpt lat="47.96067" lon="7.08344">
        <ele>1248.6</ele>
        <time>2021-05-27T08:57:17.000Z</time>
      </trkpt>
      <trkpt lat="47.96077" lon="7.08346">
        <ele>1248.6</ele>
        <time>2021-05-27T08:57:23.000Z</time>
      </trkpt>
      <trkpt lat="47.96086" lon="7.08347">
        <ele>1248.6</ele>
        <time>2021-05-27T08:57:30.000Z</time>
      </trkpt>
      <trkpt lat="47.96096" lon="7.08347">
        <ele>1247.9</ele>
        <time>2021-05-27T08:57:37.000Z</time>
      </trkpt>
      <trkpt lat="47.96106" lon="7.08352">
        <ele>1246.9</ele>
        <time>2021-05-27T08:57:45.000Z</time>
      </trkpt>
      <trkpt lat="47.96116" lon="7.08353">
        <ele>1246.3</ele>
        <time>2021-05-27T08:58:15.000Z</time>
      </trkpt>
      <trkpt lat="47.96124" lon="7.0836">
        <ele>1245.6</ele>
        <time>2021-05-27T08:58:29.000Z</time>
      </trkpt>
      <trkpt lat="47.96132" lon="7.08367">
        <ele>1245</ele>
        <time>2021-05-27T08:58:36.000Z</time>
      </trkpt>
      <trkpt lat="47.9614" lon="7.08374">
        <ele>1244.7</ele>
        <time>2021-05-27T08:58:43.000Z</time>
      </trkpt>
      <trkpt lat="47.96148" lon="7.08382">
        <ele>1244.4</ele>
        <time>2021-05-27T08:58:48.000Z</time>
      </trkpt>
      <trkpt lat="47.96156" lon="7.08391">
        <ele>1244.4</ele>
        <time>2021-05-27T08:58:55.000Z</time>
      </trkpt>
      <trkpt lat="47.96164" lon="7.08402">
        <ele>1244.6</ele>
        <time>2021-05-27T08:59:03.000Z</time>
      </trkpt>
      <trkpt lat="47.96173" lon="7.08409">
        <ele>1245.2</ele>
        <time>2021-05-27T08:59:11.000Z</time>
      </trkpt>
      <trkpt lat="47.96181" lon="7.08418">
        <ele>1245.8</ele>
        <time>2021-05-27T08:59:18.000Z</time>
      </trkpt>
      <trkpt lat="47.96188" lon="7.08426">
        <ele>1245.9</ele>
        <time>2021-05-27T08:59:24.000Z</time>
      </trkpt>
      <trkpt lat="47.96194" lon="7.08436">
        <ele>1245.9</ele>
        <time>2021-05-27T08:59:30.000Z</time>
      </trkpt>
      <trkpt lat="47.96201" lon="7.08447">
        <ele>1246.1</ele>
        <time>2021-05-27T08:59:37.000Z</time>
      </trkpt>
      <trkpt lat="47.9621" lon="7.0846">
        <ele>1246.6</ele>
        <time>2021-05-27T08:59:49.000Z</time>
      </trkpt>
      <trkpt lat="47.96217" lon="7.08473">
        <ele>1247.1</ele>
        <time>2021-05-27T08:59:56.000Z</time>
      </trkpt>
      <trkpt lat="47.96224" lon="7.08482">
        <ele>1247.8</ele>
        <time>2021-05-27T09:00:04.000Z</time>
      </trkpt>
      <trkpt lat="47.96231" lon="7.08493">
        <ele>1248.5</ele>
        <time>2021-05-27T09:00:12.000Z</time>
      </trkpt>
      <trkpt lat="47.96236" lon="7.08504">
        <ele>1249</ele>
        <time>2021-05-27T09:00:20.000Z</time>
      </trkpt>
      <trkpt lat="47.96242" lon="7.0852">
        <ele>1249.3</ele>
        <time>2021-05-27T09:00:33.000Z</time>
      </trkpt>
      <trkpt lat="47.96246" lon="7.08533">
        <ele>1249.5</ele>
        <time>2021-05-27T09:00:41.000Z</time>
      </trkpt>
      <trkpt lat="47.96249" lon="7.08546">
        <ele>1249.7</ele>
        <time>2021-05-27T09:00:47.000Z</time>
      </trkpt>
      <trkpt lat="47.96254" lon="7.08557">
        <ele>1250.2</ele>
        <time>2021-05-27T09:00:53.000Z</time>
      </trkpt>
      <trkpt lat="47.96258" lon="7.0857">
        <ele>1250.4</ele>
        <time>2021-05-27T09:01:00.000Z</time>
      </trkpt>
      <trkpt lat="47.96262" lon="7.08582">
        <ele>1250.6</ele>
        <time>2021-05-27T09:01:07.000Z</time>
      </trkpt>
      <trkpt lat="47.96266" lon="7.08595">
        <ele>1249.7</ele>
        <time>2021-05-27T09:01:15.000Z</time>
      </trkpt>
      <trkpt lat="47.96273" lon="7.08606">
        <ele>1249.4</ele>
        <time>2021-05-27T09:01:23.000Z</time>
      </trkpt>
      <trkpt lat="47.96281" lon="7.08617">
        <ele>1249.2</ele>
        <time>2021-05-27T09:01:30.000Z</time>
      </trkpt>
      <trkpt lat="47.96287" lon="7.08628">
        <ele>1248.8</ele>
        <time>2021-05-27T09:01:38.000Z</time>
      </trkpt>
      <trkpt lat="47.96295" lon="7.08638">
        <ele>1248.7</ele>
        <time>2021-05-27T09:01:46.000Z</time>
      </trkpt>
      <trkpt lat="47.96302" lon="7.08649">
        <ele>1248.5</ele>
        <time>2021-05-27T09:01:53.000Z</time>
      </trkpt>
      <trkpt lat="47.96309" lon="7.08659">
        <ele>1248.3</ele>
        <time>2021-05-27T09:02:01.000Z</time>
      </trkpt>
      <trkpt lat="47.96319" lon="7.0867">
        <ele>1248.4</ele>
        <time>2021-05-27T09:02:11.000Z</time>
      </trkpt>
      <trkpt lat="47.96329" lon="7.08682">
        <ele>1247.9</ele>
        <time>2021-05-27T09:02:20.000Z</time>
      </trkpt>
      <trkpt lat="47.96335" lon="7.08691">
        <ele>1247.5</ele>
        <time>2021-05-27T09:02:27.000Z</time>
      </trkpt>
      <trkpt lat="47.96343" lon="7.08699">
        <ele>1247.4</ele>
        <time>2021-05-27T09:02:34.000Z</time>
      </trkpt>
      <trkpt lat="47.96352" lon="7.08711">
        <ele>1246.8</ele>
        <time>2021-05-27T09:02:43.000Z</time>
      </trkpt>
      <trkpt lat="47.96357" lon="7.08722">
        <ele>1245.9</ele>
        <time>2021-05-27T09:02:50.000Z</time>
      </trkpt>
      <trkpt lat="47.96362" lon="7.08734">
        <ele>1244.8</ele>
        <time>2021-05-27T09:02:56.000Z</time>
      </trkpt>
      <trkpt lat="47.96371" lon="7.08743">
        <ele>1244.9</ele>
        <time>2021-05-27T09:03:05.000Z</time>
      </trkpt>
      <trkpt lat="47.96379" lon="7.08753">
        <ele>1244.7</ele>
        <time>2021-05-27T09:03:13.000Z</time>
      </trkpt>
      <trkpt lat="47.96386" lon="7.08762">
        <ele>1244.3</ele>
        <time>2021-05-27T09:03:21.000Z</time>
      </trkpt>
      <trkpt lat="47.96393" lon="7.08773">
        <ele>1243.7</ele>
        <time>2021-05-27T09:03:29.000Z</time>
      </trkpt>
      <trkpt lat="47.96399" lon="7.08784">
        <ele>1242.9</ele>
        <time>2021-05-27T09:03:35.000Z</time>
      </trkpt>
      <trkpt lat="47.96406" lon="7.08795">
        <ele>1242.2</ele>
        <time>2021-05-27T09:03:43.000Z</time>
      </trkpt>
      <trkpt lat="47.96414" lon="7.08806">
        <ele>1241.9</ele>
        <time>2021-05-27T09:03:52.000Z</time>
      </trkpt>
      <trkpt lat="47.96422" lon="7.08817">
        <ele>1240.8</ele>
        <time>2021-05-27T09:04:07.000Z</time>
      </trkpt>
      <trkpt lat="47.96429" lon="7.08826">
        <ele>1239.6</ele>
        <time>2021-05-27T09:04:14.000Z</time>
      </trkpt>
      <trkpt lat="47.96435" lon="7.08836">
        <ele>1238.1</ele>
        <time>2021-05-27T09:04:25.000Z</time>
      </trkpt>
      <trkpt lat="47.96442" lon="7.08852">
        <ele>1235.3</ele>
        <time>2021-05-27T09:04:37.000Z</time>
      </trkpt>
      <trkpt lat="47.96447" lon="7.08865">
        <ele>1233</ele>
        <time>2021-05-27T09:04:46.000Z</time>
      </trkpt>
      <trkpt lat="47.96457" lon="7.08879">
        <ele>1230.7</ele>
        <time>2021-05-27T09:04:59.000Z</time>
      </trkpt>
      <trkpt lat="47.96468" lon="7.08885">
        <ele>1230</ele>
        <time>2021-05-27T09:05:07.000Z</time>
      </trkpt>
      <trkpt lat="47.96476" lon="7.0889">
        <ele>1229.5</ele>
        <time>2021-05-27T09:05:14.000Z</time>
      </trkpt>
      <trkpt lat="47.96485" lon="7.08895">
        <ele>1229.1</ele>
        <time>2021-05-27T09:05:22.000Z</time>
      </trkpt>
      <trkpt lat="47.96493" lon="7.08901">
        <ele>1228.5</ele>
        <time>2021-05-27T09:05:31.000Z</time>
      </trkpt>
      <trkpt lat="47.96502" lon="7.08904">
        <ele>1228.1</ele>
        <time>2021-05-27T09:05:39.000Z</time>
      </trkpt>
      <trkpt lat="47.96512" lon="7.08907">
        <ele>1226.7</ele>
        <time>2021-05-27T09:05:47.000Z</time>
      </trkpt>
      <trkpt lat="47.96525" lon="7.08916">
        <ele>1224</ele>
        <time>2021-05-27T09:06:00.000Z</time>
      </trkpt>
      <trkpt lat="47.96532" lon="7.08927">
        <ele>1222.3</ele>
        <time>2021-05-27T09:06:06.000Z</time>
      </trkpt>
      <trkpt lat="47.96538" lon="7.08938">
        <ele>1220.9</ele>
        <time>2021-05-27T09:06:13.000Z</time>
      </trkpt>
      <trkpt lat="47.96546" lon="7.08944">
        <ele>1219.8</ele>
        <time>2021-05-27T09:06:21.000Z</time>
      </trkpt>
      <trkpt lat="47.96552" lon="7.08959">
        <ele>1218.2</ele>
        <time>2021-05-27T09:06:31.000Z</time>
      </trkpt>
      <trkpt lat="47.96557" lon="7.0897">
        <ele>1217</ele>
        <time>2021-05-27T09:06:37.000Z</time>
      </trkpt>
      <trkpt lat="47.96561" lon="7.08982">
        <ele>1215.9</ele>
        <time>2021-05-27T09:06:45.000Z</time>
      </trkpt>
      <trkpt lat="47.96565" lon="7.08997">
        <ele>1214.7</ele>
        <time>2021-05-27T09:06:54.000Z</time>
      </trkpt>
      <trkpt lat="47.96569" lon="7.0901">
        <ele>1213.2</ele>
        <time>2021-05-27T09:07:02.000Z</time>
      </trkpt>
      <trkpt lat="47.96576" lon="7.09021">
        <ele>1211.9</ele>
        <time>2021-05-27T09:07:11.000Z</time>
      </trkpt>
      <trkpt lat="47.9658" lon="7.09035">
        <ele>1210.5</ele>
        <time>2021-05-27T09:07:17.000Z</time>
      </trkpt>
      <trkpt lat="47.96584" lon="7.09059">
        <ele>1208.2</ele>
        <time>2021-05-27T09:07:32.000Z</time>
      </trkpt>
      <trkpt lat="47.9659" lon="7.09071">
        <ele>1206.2</ele>
        <time>2021-05-27T09:07:39.000Z</time>
      </trkpt>
      <trkpt lat="47.96592" lon="7.09085">
        <ele>1204.6</ele>
        <time>2021-05-27T09:07:45.000Z</time>
      </trkpt>
      <trkpt lat="47.96597" lon="7.09096">
        <ele>1202.5</ele>
        <time>2021-05-27T09:07:53.000Z</time>
      </trkpt>
      <trkpt lat="47.96601" lon="7.0912">
        <ele>1198.8</ele>
        <time>2021-05-27T09:08:12.000Z</time>
      </trkpt>
      <trkpt lat="47.96605" lon="7.09134">
        <ele>1196.5</ele>
        <time>2021-05-27T09:08:19.000Z</time>
      </trkpt>
      <trkpt lat="47.96611" lon="7.09146">
        <ele>1194.3</ele>
        <time>2021-05-27T09:08:26.000Z</time>
      </trkpt>
      <trkpt lat="47.96617" lon="7.09156">
        <ele>1192.3</ele>
        <time>2021-05-27T09:08:35.000Z</time>
      </trkpt>
      <trkpt lat="47.96622" lon="7.0917">
        <ele>1189.9</ele>
        <time>2021-05-27T09:08:48.000Z</time>
      </trkpt>
      <trkpt lat="47.96628" lon="7.09184">
        <ele>1187.5</ele>
        <time>2021-05-27T09:08:55.000Z</time>
      </trkpt>
      <trkpt lat="47.96634" lon="7.09196">
        <ele>1185.3</ele>
        <time>2021-05-27T09:09:04.000Z</time>
      </trkpt>
      <trkpt lat="47.96645" lon="7.09217">
        <ele>1181.8</ele>
        <time>2021-05-27T09:09:20.000Z</time>
      </trkpt>
      <trkpt lat="47.96651" lon="7.09239">
        <ele>1178.9</ele>
        <time>2021-05-27T09:09:34.000Z</time>
      </trkpt>
      <trkpt lat="47.96657" lon="7.09263">
        <ele>1176.5</ele>
        <time>2021-05-27T09:09:48.000Z</time>
      </trkpt>
      <trkpt lat="47.96661" lon="7.09276">
        <ele>1175.4</ele>
        <time>2021-05-27T09:09:55.000Z</time>
      </trkpt>
      <trkpt lat="47.96664" lon="7.0929">
        <ele>1174.6</ele>
        <time>2021-05-27T09:10:02.000Z</time>
      </trkpt>
      <trkpt lat="47.96665" lon="7.09305">
        <ele>1173.6</ele>
        <time>2021-05-27T09:10:11.000Z</time>
      </trkpt>
      <trkpt lat="47.96672" lon="7.09314">
        <ele>1172.5</ele>
        <time>2021-05-27T09:10:21.000Z</time>
      </trkpt>
      <trkpt lat="47.96676" lon="7.09326">
        <ele>1171.4</ele>
        <time>2021-05-27T09:10:29.000Z</time>
      </trkpt>
      <trkpt lat="47.96687" lon="7.09363">
        <ele>1166.8</ele>
        <time>2021-05-27T09:10:34.000Z</time>
      </trkpt>
      <trkpt lat="47.96678" lon="7.09337">
        <ele>1170.5</ele>
        <time>2021-05-27T09:10:39.000Z</time>
      </trkpt>
      <trkpt lat="47.96689" lon="7.09348">
        <ele>1168.2</ele>
        <time>2021-05-27T09:10:44.000Z</time>
      </trkpt>
      <trkpt lat="47.96692" lon="7.09362">
        <ele>1166.6</ele>
        <time>2021-05-27T09:10:50.000Z</time>
      </trkpt>
      <trkpt lat="47.96703" lon="7.09368">
        <ele>1165.2</ele>
        <time>2021-05-27T09:10:59.000Z</time>
      </trkpt>
      <trkpt lat="47.96707" lon="7.0938">
        <ele>1163.9</ele>
        <time>2021-05-27T09:11:04.000Z</time>
      </trkpt>
      <trkpt lat="47.96708" lon="7.09366">
        <ele>1165.1</ele>
        <time>2021-05-27T09:11:27.000Z</time>
      </trkpt>
      <trkpt lat="47.96714" lon="7.09395">
        <ele>1162.3</ele>
        <time>2021-05-27T09:11:32.000Z</time>
      </trkpt>
      <trkpt lat="47.96718" lon="7.09406">
        <ele>1161.2</ele>
        <time>2021-05-27T09:11:37.000Z</time>
      </trkpt>
      <trkpt lat="47.96729" lon="7.09412">
        <ele>1160.6</ele>
        <time>2021-05-27T09:11:48.000Z</time>
      </trkpt>
      <trkpt lat="47.96734" lon="7.09425">
        <ele>1159.4</ele>
        <time>2021-05-27T09:11:56.000Z</time>
      </trkpt>
      <trkpt lat="47.96741" lon="7.09434">
        <ele>1158.4</ele>
        <time>2021-05-27T09:12:04.000Z</time>
      </trkpt>
      <trkpt lat="47.96749" lon="7.09442">
        <ele>1157.9</ele>
        <time>2021-05-27T09:12:10.000Z</time>
      </trkpt>
      <trkpt lat="47.96756" lon="7.09452">
        <ele>1156.6</ele>
        <time>2021-05-27T09:12:19.000Z</time>
      </trkpt>
      <trkpt lat="47.96762" lon="7.09462">
        <ele>1155.5</ele>
        <time>2021-05-27T09:12:26.000Z</time>
      </trkpt>
      <trkpt lat="47.96769" lon="7.09472">
        <ele>1154.5</ele>
        <time>2021-05-27T09:12:32.000Z</time>
      </trkpt>
      <trkpt lat="47.96776" lon="7.0948">
        <ele>1153.6</ele>
        <time>2021-05-27T09:12:39.000Z</time>
      </trkpt>
      <trkpt lat="47.96784" lon="7.09489">
        <ele>1152.8</ele>
        <time>2021-05-27T09:12:47.000Z</time>
      </trkpt>
      <trkpt lat="47.96791" lon="7.09498">
        <ele>1152.1</ele>
        <time>2021-05-27T09:12:55.000Z</time>
      </trkpt>
      <trkpt lat="47.96798" lon="7.09508">
        <ele>1150.6</ele>
        <time>2021-05-27T09:13:03.000Z</time>
      </trkpt>
      <trkpt lat="47.96805" lon="7.09517">
        <ele>1149.2</ele>
        <time>2021-05-27T09:13:08.000Z</time>
      </trkpt>
      <trkpt lat="47.96809" lon="7.09529">
        <ele>1147.4</ele>
        <time>2021-05-27T09:13:15.000Z</time>
      </trkpt>
      <trkpt lat="47.96817" lon="7.09539">
        <ele>1146</ele>
        <time>2021-05-27T09:13:24.000Z</time>
      </trkpt>
      <trkpt lat="47.96823" lon="7.0955">
        <ele>1144.7</ele>
        <time>2021-05-27T09:13:32.000Z</time>
      </trkpt>
      <trkpt lat="47.96828" lon="7.09564">
        <ele>1143.2</ele>
        <time>2021-05-27T09:13:39.000Z</time>
      </trkpt>
      <trkpt lat="47.96834" lon="7.09576">
        <ele>1141.8</ele>
        <time>2021-05-27T09:13:48.000Z</time>
      </trkpt>
      <trkpt lat="47.96843" lon="7.09589">
        <ele>1139.2</ele>
        <time>2021-05-27T09:14:04.000Z</time>
      </trkpt>
      <trkpt lat="47.9685" lon="7.096">
        <ele>1137.2</ele>
        <time>2021-05-27T09:14:11.000Z</time>
      </trkpt>
      <trkpt lat="47.96856" lon="7.09614">
        <ele>1135.1</ele>
        <time>2021-05-27T09:14:21.000Z</time>
      </trkpt>
      <trkpt lat="47.96863" lon="7.09625">
        <ele>1133.3</ele>
        <time>2021-05-27T09:14:28.000Z</time>
      </trkpt>
      <trkpt lat="47.96868" lon="7.09636">
        <ele>1131.8</ele>
        <time>2021-05-27T09:14:36.000Z</time>
      </trkpt>
      <trkpt lat="47.96874" lon="7.09652">
        <ele>1129.8</ele>
        <time>2021-05-27T09:14:45.000Z</time>
      </trkpt>
      <trkpt lat="47.96882" lon="7.09667">
        <ele>1127.9</ele>
        <time>2021-05-27T09:14:55.000Z</time>
      </trkpt>
      <trkpt lat="47.96887" lon="7.09679">
        <ele>1126.5</ele>
        <time>2021-05-27T09:15:02.000Z</time>
      </trkpt>
      <trkpt lat="47.96894" lon="7.0969">
        <ele>1125.4</ele>
        <time>2021-05-27T09:15:10.000Z</time>
      </trkpt>
      <trkpt lat="47.969" lon="7.09702">
        <ele>1124.4</ele>
        <time>2021-05-27T09:15:17.000Z</time>
      </trkpt>
      <trkpt lat="47.96907" lon="7.09713">
        <ele>1123.6</ele>
        <time>2021-05-27T09:15:25.000Z</time>
      </trkpt>
      <trkpt lat="47.96912" lon="7.09725">
        <ele>1122.9</ele>
        <time>2021-05-27T09:15:33.000Z</time>
      </trkpt>
      <trkpt lat="47.96918" lon="7.09739">
        <ele>1122.3</ele>
        <time>2021-05-27T09:15:42.000Z</time>
      </trkpt>
      <trkpt lat="47.96924" lon="7.09758">
        <ele>1121.4</ele>
        <time>2021-05-27T09:15:58.000Z</time>
      </trkpt>
      <trkpt lat="47.96927" lon="7.09771">
        <ele>1121</ele>
        <time>2021-05-27T09:16:05.000Z</time>
      </trkpt>
      <trkpt lat="47.96928" lon="7.09785">
        <ele>1120.8</ele>
        <time>2021-05-27T09:16:12.000Z</time>
      </trkpt>
      <trkpt lat="47.96924" lon="7.09798">
        <ele>1120.7</ele>
        <time>2021-05-27T09:16:19.000Z</time>
      </trkpt>
      <trkpt lat="47.96919" lon="7.0981">
        <ele>1120.5</ele>
        <time>2021-05-27T09:16:28.000Z</time>
      </trkpt>
      <trkpt lat="47.96913" lon="7.09822">
        <ele>1119.7</ele>
        <time>2021-05-27T09:16:43.000Z</time>
      </trkpt>
      <trkpt lat="47.96922" lon="7.09827">
        <ele>1120.1</ele>
        <time>2021-05-27T09:17:59.000Z</time>
      </trkpt>
      <trkpt lat="47.96916" lon="7.09812">
        <ele>1120.4</ele>
        <time>2021-05-27T09:18:04.000Z</time>
      </trkpt>
      <trkpt lat="47.96919" lon="7.09825">
        <ele>1120.2</ele>
        <time>2021-05-27T09:20:41.000Z</time>
      </trkpt>
      <trkpt lat="47.96925" lon="7.09835">
        <ele>1119.9</ele>
        <time>2021-05-27T09:20:49.000Z</time>
      </trkpt>
      <trkpt lat="47.96928" lon="7.0985">
        <ele>1119.2</ele>
        <time>2021-05-27T09:20:58.000Z</time>
      </trkpt>
      <trkpt lat="47.96932" lon="7.09863">
        <ele>1118.7</ele>
        <time>2021-05-27T09:21:07.000Z</time>
      </trkpt>
      <trkpt lat="47.96941" lon="7.0988">
        <ele>1118.5</ele>
        <time>2021-05-27T09:22:44.000Z</time>
      </trkpt>
      <trkpt lat="47.96929" lon="7.09875">
        <ele>1118.1</ele>
        <time>2021-05-27T09:23:15.000Z</time>
      </trkpt>
      <trkpt lat="47.96935" lon="7.09892">
        <ele>1117.7</ele>
        <time>2021-05-27T09:29:09.000Z</time>
      </trkpt>
      <trkpt lat="47.96931" lon="7.09914">
        <ele>1116.5</ele>
        <time>2021-05-27T09:29:14.000Z</time>
      </trkpt>
      <trkpt lat="47.96933" lon="7.09895">
        <ele>1117.5</ele>
        <time>2021-05-27T09:32:22.000Z</time>
      </trkpt>
      <trkpt lat="47.96935" lon="7.09881">
        <ele>1118.1</ele>
        <time>2021-05-27T09:32:27.000Z</time>
      </trkpt>
      <trkpt lat="47.96935" lon="7.09866">
        <ele>1118.7</ele>
        <time>2021-05-27T09:43:18.000Z</time>
      </trkpt>
      <trkpt lat="47.96934" lon="7.09852">
        <ele>1119.2</ele>
        <time>2021-05-27T09:43:26.000Z</time>
      </trkpt>
      <trkpt lat="47.96934" lon="7.09838">
        <ele>1119.8</ele>
        <time>2021-05-27T09:43:35.000Z</time>
      </trkpt>
      <trkpt lat="47.96938" lon="7.09824">
        <ele>1120.1</ele>
        <time>2021-05-27T09:43:42.000Z</time>
      </trkpt>
      <trkpt lat="47.96943" lon="7.09811">
        <ele>1120.1</ele>
        <time>2021-05-27T09:43:49.000Z</time>
      </trkpt>
      <trkpt lat="47.96944" lon="7.09797">
        <ele>1120.2</ele>
        <time>2021-05-27T09:43:57.000Z</time>
      </trkpt>
      <trkpt lat="47.9695" lon="7.09786">
        <ele>1120</ele>
        <time>2021-05-27T09:44:10.000Z</time>
      </trkpt>
      <trkpt lat="47.96953" lon="7.09772">
        <ele>1119.9</ele>
        <time>2021-05-27T09:44:17.000Z</time>
      </trkpt>
      <trkpt lat="47.96953" lon="7.09757">
        <ele>1119.8</ele>
        <time>2021-05-27T09:44:24.000Z</time>
      </trkpt>
      <trkpt lat="47.96951" lon="7.09741">
        <ele>1119.8</ele>
        <time>2021-05-27T09:44:33.000Z</time>
      </trkpt>
      <trkpt lat="47.96952" lon="7.09727">
        <ele>1119.5</ele>
        <time>2021-05-27T09:44:39.000Z</time>
      </trkpt>
      <trkpt lat="47.96953" lon="7.09712">
        <ele>1119.2</ele>
        <time>2021-05-27T09:44:47.000Z</time>
      </trkpt>
      <trkpt lat="47.96952" lon="7.09698">
        <ele>1119.1</ele>
        <time>2021-05-27T09:44:55.000Z</time>
      </trkpt>
      <trkpt lat="47.96954" lon="7.09684">
        <ele>1118.7</ele>
        <time>2021-05-27T09:45:01.000Z</time>
      </trkpt>
      <trkpt lat="47.96955" lon="7.09667">
        <ele>1118</ele>
        <time>2021-05-27T09:45:17.000Z</time>
      </trkpt>
      <trkpt lat="47.96956" lon="7.09646">
        <ele>1117.7</ele>
        <time>2021-05-27T09:45:29.000Z</time>
      </trkpt>
      <trkpt lat="47.96956" lon="7.09625">
        <ele>1117.5</ele>
        <time>2021-05-27T09:45:42.000Z</time>
      </trkpt>
      <trkpt lat="47.96957" lon="7.09605">
        <ele>1116.9</ele>
        <time>2021-05-27T09:45:56.000Z</time>
      </trkpt>
      <trkpt lat="47.96956" lon="7.09584">
        <ele>1116.8</ele>
        <time>2021-05-27T09:46:07.000Z</time>
      </trkpt>
      <trkpt lat="47.96958" lon="7.09568">
        <ele>1115.6</ele>
        <time>2021-05-27T09:46:12.000Z</time>
      </trkpt>
      <trkpt lat="47.96958" lon="7.09553">
        <ele>1115</ele>
        <time>2021-05-27T09:46:17.000Z</time>
      </trkpt>
      <trkpt lat="47.96953" lon="7.09537">
        <ele>1116.1</ele>
        <time>2021-05-27T09:46:22.000Z</time>
      </trkpt>
      <trkpt lat="47.96952" lon="7.09523">
        <ele>1116.1</ele>
        <time>2021-05-27T09:46:28.000Z</time>
      </trkpt>
      <trkpt lat="47.9695" lon="7.09509">
        <ele>1116.4</ele>
        <time>2021-05-27T09:46:37.000Z</time>
      </trkpt>
      <trkpt lat="47.96949" lon="7.09494">
        <ele>1116</ele>
        <time>2021-05-27T09:46:46.000Z</time>
      </trkpt>
      <trkpt lat="47.96946" lon="7.09478">
        <ele>1116.5</ele>
        <time>2021-05-27T09:47:00.000Z</time>
      </trkpt>
      <trkpt lat="47.96938" lon="7.09465">
        <ele>1119.4</ele>
        <time>2021-05-27T09:47:10.000Z</time>
      </trkpt>
      <trkpt lat="47.96934" lon="7.09452">
        <ele>1120.9</ele>
        <time>2021-05-27T09:47:17.000Z</time>
      </trkpt>
      <trkpt lat="47.96932" lon="7.09437">
        <ele>1121.5</ele>
        <time>2021-05-27T09:47:29.000Z</time>
      </trkpt>
      <trkpt lat="47.96922" lon="7.09426">
        <ele>1125.6</ele>
        <time>2021-05-27T09:47:41.000Z</time>
      </trkpt>
      <trkpt lat="47.96911" lon="7.09412">
        <ele>1128.8</ele>
        <time>2021-05-27T09:47:52.000Z</time>
      </trkpt>
      <trkpt lat="47.96899" lon="7.09397">
        <ele>1130</ele>
        <time>2021-05-27T09:48:00.000Z</time>
      </trkpt>
      <trkpt lat="47.9689" lon="7.09382">
        <ele>1130.5</ele>
        <time>2021-05-27T09:48:11.000Z</time>
      </trkpt>
      <trkpt lat="47.96885" lon="7.09369">
        <ele>1130.4</ele>
        <time>2021-05-27T09:48:17.000Z</time>
      </trkpt>
      <trkpt lat="47.96881" lon="7.09348">
        <ele>1128.6</ele>
        <time>2021-05-27T09:48:25.000Z</time>
      </trkpt>
      <trkpt lat="47.96872" lon="7.09329">
        <ele>1129.5</ele>
        <time>2021-05-27T09:48:34.000Z</time>
      </trkpt>
      <trkpt lat="47.96863" lon="7.09324">
        <ele>1132.1</ele>
        <time>2021-05-27T09:50:56.000Z</time>
      </trkpt>
      <trkpt lat="47.96854" lon="7.09313">
        <ele>1133.9</ele>
        <time>2021-05-27T09:51:06.000Z</time>
      </trkpt>
      <trkpt lat="47.96843" lon="7.09295">
        <ele>1135.2</ele>
        <time>2021-05-27T09:51:11.000Z</time>
      </trkpt>
      <trkpt lat="47.96852" lon="7.09279">
        <ele>1129.3</ele>
        <time>2021-05-27T09:51:52.000Z</time>
      </trkpt>
      <trkpt lat="47.96857" lon="7.0929">
        <ele>1129.2</ele>
        <time>2021-05-27T09:52:07.000Z</time>
      </trkpt>
      <trkpt lat="47.96864" lon="7.09299">
        <ele>1127.6</ele>
        <time>2021-05-27T09:53:17.000Z</time>
      </trkpt>
      <trkpt lat="47.96855" lon="7.09305">
        <ele>1132.1</ele>
        <time>2021-05-27T09:54:12.000Z</time>
      </trkpt>
      <trkpt lat="47.96857" lon="7.09291">
        <ele>1129.1</ele>
        <time>2021-05-27T09:54:46.000Z</time>
      </trkpt>
      <trkpt lat="47.96852" lon="7.09279">
        <ele>1129</ele>
        <time>2021-05-27T09:54:51.000Z</time>
      </trkpt>
      <trkpt lat="47.96848" lon="7.09263">
        <ele>1128.2</ele>
        <time>2021-05-27T09:55:01.000Z</time>
      </trkpt>
      <trkpt lat="47.96848" lon="7.09245">
        <ele>1125.8</ele>
        <time>2021-05-27T09:55:06.000Z</time>
      </trkpt>
      <trkpt lat="47.96848" lon="7.09216">
        <ele>1124.2</ele>
        <time>2021-05-27T09:55:11.000Z</time>
      </trkpt>
      <trkpt lat="47.96841" lon="7.09197">
        <ele>1125.5</ele>
        <time>2021-05-27T09:55:32.000Z</time>
      </trkpt>
      <trkpt lat="47.96838" lon="7.09184">
        <ele>1126</ele>
        <time>2021-05-27T09:55:37.000Z</time>
      </trkpt>
      <trkpt lat="47.96836" lon="7.09171">
        <ele>1126</ele>
        <time>2021-05-27T09:55:43.000Z</time>
      </trkpt>
      <trkpt lat="47.96833" lon="7.09158">
        <ele>1126.5</ele>
        <time>2021-05-27T09:55:50.000Z</time>
      </trkpt>
      <trkpt lat="47.96829" lon="7.09145">
        <ele>1127.4</ele>
        <time>2021-05-27T09:55:56.000Z</time>
      </trkpt>
      <trkpt lat="47.9683" lon="7.09129">
        <ele>1126.1</ele>
        <time>2021-05-27T09:56:02.000Z</time>
      </trkpt>
      <trkpt lat="47.96829" lon="7.09114">
        <ele>1125.6</ele>
        <time>2021-05-27T09:56:08.000Z</time>
      </trkpt>
      <trkpt lat="47.9683" lon="7.091">
        <ele>1124.6</ele>
        <time>2021-05-27T09:56:16.000Z</time>
      </trkpt>
      <trkpt lat="47.9683" lon="7.09086">
        <ele>1123.6</ele>
        <time>2021-05-27T09:56:23.000Z</time>
      </trkpt>
      <trkpt lat="47.96829" lon="7.09071">
        <ele>1123.7</ele>
        <time>2021-05-27T09:56:29.000Z</time>
      </trkpt>
      <trkpt lat="47.9683" lon="7.09058">
        <ele>1123.1</ele>
        <time>2021-05-27T09:56:34.000Z</time>
      </trkpt>
      <trkpt lat="47.96832" lon="7.09042">
        <ele>1122</ele>
        <time>2021-05-27T09:56:41.000Z</time>
      </trkpt>
      <trkpt lat="47.96834" lon="7.09028">
        <ele>1120.9</ele>
        <time>2021-05-27T09:56:46.000Z</time>
      </trkpt>
      <trkpt lat="47.96833" lon="7.09014">
        <ele>1121.4</ele>
        <time>2021-05-27T09:56:53.000Z</time>
      </trkpt>
      <trkpt lat="47.96832" lon="7.09">
        <ele>1121.6</ele>
        <time>2021-05-27T09:57:00.000Z</time>
      </trkpt>
      <trkpt lat="47.96834" lon="7.08987">
        <ele>1120.7</ele>
        <time>2021-05-27T09:57:06.000Z</time>
      </trkpt>
      <trkpt lat="47.96836" lon="7.08971">
        <ele>1119.8</ele>
        <time>2021-05-27T09:57:14.000Z</time>
      </trkpt>
      <trkpt lat="47.96838" lon="7.08957">
        <ele>1118.7</ele>
        <time>2021-05-27T09:57:21.000Z</time>
      </trkpt>
      <trkpt lat="47.9684" lon="7.08943">
        <ele>1117.8</ele>
        <time>2021-05-27T09:57:28.000Z</time>
      </trkpt>
      <trkpt lat="47.96839" lon="7.08928">
        <ele>1118.4</ele>
        <time>2021-05-27T09:57:34.000Z</time>
      </trkpt>
      <trkpt lat="47.96842" lon="7.08913">
        <ele>1117</ele>
        <time>2021-05-27T09:57:41.000Z</time>
      </trkpt>
      <trkpt lat="47.96844" lon="7.08899">
        <ele>1115.9</ele>
        <time>2021-05-27T09:57:47.000Z</time>
      </trkpt>
      <trkpt lat="47.96846" lon="7.08884">
        <ele>1115</ele>
        <time>2021-05-27T09:57:56.000Z</time>
      </trkpt>
      <trkpt lat="47.96849" lon="7.08871">
        <ele>1113.6</ele>
        <time>2021-05-27T09:58:02.000Z</time>
      </trkpt>
      <trkpt lat="47.96853" lon="7.08857">
        <ele>1111.9</ele>
        <time>2021-05-27T09:58:08.000Z</time>
      </trkpt>
      <trkpt lat="47.96856" lon="7.08844">
        <ele>1110.6</ele>
        <time>2021-05-27T09:58:14.000Z</time>
      </trkpt>
      <trkpt lat="47.96861" lon="7.0883">
        <ele>1108.7</ele>
        <time>2021-05-27T09:58:21.000Z</time>
      </trkpt>
      <trkpt lat="47.96865" lon="7.08818">
        <ele>1107.5</ele>
        <time>2021-05-27T09:58:27.000Z</time>
      </trkpt>
      <trkpt lat="47.96869" lon="7.08805">
        <ele>1106.4</ele>
        <time>2021-05-27T09:58:33.000Z</time>
      </trkpt>
      <trkpt lat="47.96873" lon="7.08792">
        <ele>1105.3</ele>
        <time>2021-05-27T09:58:40.000Z</time>
      </trkpt>
      <trkpt lat="47.96881" lon="7.08782">
        <ele>1102.1</ele>
        <time>2021-05-27T09:58:46.000Z</time>
      </trkpt>
      <trkpt lat="47.96887" lon="7.08771">
        <ele>1099.8</ele>
        <time>2021-05-27T09:58:52.000Z</time>
      </trkpt>
      <trkpt lat="47.96892" lon="7.08758">
        <ele>1098.3</ele>
        <time>2021-05-27T09:58:59.000Z</time>
      </trkpt>
      <trkpt lat="47.96895" lon="7.08743">
        <ele>1098.1</ele>
        <time>2021-05-27T09:59:06.000Z</time>
      </trkpt>
      <trkpt lat="47.96898" lon="7.08729">
        <ele>1098</ele>
        <time>2021-05-27T09:59:13.000Z</time>
      </trkpt>
      <trkpt lat="47.96903" lon="7.08717">
        <ele>1097.2</ele>
        <time>2021-05-27T09:59:20.000Z</time>
      </trkpt>
      <trkpt lat="47.96911" lon="7.08706">
        <ele>1094.3</ele>
        <time>2021-05-27T09:59:27.000Z</time>
      </trkpt>
      <trkpt lat="47.96917" lon="7.08695">
        <ele>1092.2</ele>
        <time>2021-05-27T09:59:34.000Z</time>
      </trkpt>
      <trkpt lat="47.96924" lon="7.08683">
        <ele>1090.7</ele>
        <time>2021-05-27T09:59:41.000Z</time>
      </trkpt>
      <trkpt lat="47.9693" lon="7.08672">
        <ele>1089</ele>
        <time>2021-05-27T09:59:55.000Z</time>
      </trkpt>
      <trkpt lat="47.96939" lon="7.08651">
        <ele>1088.6</ele>
        <time>2021-05-27T10:00:13.000Z</time>
      </trkpt>
      <trkpt lat="47.96946" lon="7.08642">
        <ele>1086.9</ele>
        <time>2021-05-27T10:00:19.000Z</time>
      </trkpt>
      <trkpt lat="47.96955" lon="7.08635">
        <ele>1084.9</ele>
        <time>2021-05-27T10:00:25.000Z</time>
      </trkpt>
      <trkpt lat="47.96962" lon="7.08626">
        <ele>1083.7</ele>
        <time>2021-05-27T10:00:32.000Z</time>
      </trkpt>
      <trkpt lat="47.96966" lon="7.08614">
        <ele>1084</ele>
        <time>2021-05-27T10:00:40.000Z</time>
      </trkpt>
      <trkpt lat="47.96971" lon="7.08602">
        <ele>1084.1</ele>
        <time>2021-05-27T10:00:48.000Z</time>
      </trkpt>
      <trkpt lat="47.96978" lon="7.08591">
        <ele>1083.5</ele>
        <time>2021-05-27T10:00:54.000Z</time>
      </trkpt>
      <trkpt lat="47.96983" lon="7.08579">
        <ele>1083.9</ele>
        <time>2021-05-27T10:01:02.000Z</time>
      </trkpt>
      <trkpt lat="47.96986" lon="7.08565">
        <ele>1085.7</ele>
        <time>2021-05-27T10:01:10.000Z</time>
      </trkpt>
      <trkpt lat="47.96992" lon="7.08553">
        <ele>1085.4</ele>
        <time>2021-05-27T10:01:18.000Z</time>
      </trkpt>
      <trkpt lat="47.97" lon="7.08546">
        <ele>1083.6</ele>
        <time>2021-05-27T10:01:25.000Z</time>
      </trkpt>
      <trkpt lat="47.97008" lon="7.08538">
        <ele>1083.4</ele>
        <time>2021-05-27T10:01:34.000Z</time>
      </trkpt>
      <trkpt lat="47.97008" lon="7.0852">
        <ele>1086.7</ele>
        <time>2021-05-27T10:01:55.000Z</time>
      </trkpt>
      <trkpt lat="47.97006" lon="7.08534">
        <ele>1084.6</ele>
        <time>2021-05-27T10:02:07.000Z</time>
      </trkpt>
      <trkpt lat="47.97016" lon="7.08525">
        <ele>1083.8</ele>
        <time>2021-05-27T10:02:28.000Z</time>
      </trkpt>
      <trkpt lat="47.97029" lon="7.08519">
        <ele>1082.1</ele>
        <time>2021-05-27T10:02:33.000Z</time>
      </trkpt>
      <trkpt lat="47.97037" lon="7.08511">
        <ele>1082.1</ele>
        <time>2021-05-27T10:02:42.000Z</time>
      </trkpt>
      <trkpt lat="47.97045" lon="7.08504">
        <ele>1082</ele>
        <time>2021-05-27T10:02:48.000Z</time>
      </trkpt>
      <trkpt lat="47.97071" lon="7.08526">
        <ele>1071.1</ele>
        <time>2021-05-27T10:02:53.000Z</time>
      </trkpt>
      <trkpt lat="47.97081" lon="7.08539">
        <ele>1065.4</ele>
        <time>2021-05-27T10:02:58.000Z</time>
      </trkpt>
      <trkpt lat="47.97074" lon="7.08508">
        <ele>1075</ele>
        <time>2021-05-27T10:03:03.000Z</time>
      </trkpt>
      <trkpt lat="47.97076" lon="7.08493">
        <ele>1079</ele>
        <time>2021-05-27T10:03:08.000Z</time>
      </trkpt>
      <trkpt lat="47.97083" lon="7.08485">
        <ele>1080.3</ele>
        <time>2021-05-27T10:03:17.000Z</time>
      </trkpt>
      <trkpt lat="47.97092" lon="7.0848">
        <ele>1081.6</ele>
        <time>2021-05-27T10:03:25.000Z</time>
      </trkpt>
      <trkpt lat="47.97101" lon="7.08476">
        <ele>1081.8</ele>
        <time>2021-05-27T10:03:33.000Z</time>
      </trkpt>
      <trkpt lat="47.97111" lon="7.08474">
        <ele>1081.7</ele>
        <time>2021-05-27T10:03:40.000Z</time>
      </trkpt>
      <trkpt lat="47.97124" lon="7.08468">
        <ele>1082.5</ele>
        <time>2021-05-27T10:03:55.000Z</time>
      </trkpt>
      <trkpt lat="47.97134" lon="7.08464">
        <ele>1083</ele>
        <time>2021-05-27T10:04:03.000Z</time>
      </trkpt>
      <trkpt lat="47.97144" lon="7.08463">
        <ele>1082.2</ele>
        <time>2021-05-27T10:04:10.000Z</time>
      </trkpt>
      <trkpt lat="47.97153" lon="7.08463">
        <ele>1081.6</ele>
        <time>2021-05-27T10:04:17.000Z</time>
      </trkpt>
      <trkpt lat="47.97161" lon="7.08456">
        <ele>1082.9</ele>
        <time>2021-05-27T10:04:23.000Z</time>
      </trkpt>
      <trkpt lat="47.97171" lon="7.08459">
        <ele>1081</ele>
        <time>2021-05-27T10:04:30.000Z</time>
      </trkpt>
      <trkpt lat="47.97187" lon="7.08458">
        <ele>1080.6</ele>
        <time>2021-05-27T10:04:44.000Z</time>
      </trkpt>
      <trkpt lat="47.97197" lon="7.08459">
        <ele>1079.8</ele>
        <time>2021-05-27T10:04:49.000Z</time>
      </trkpt>
      <trkpt lat="47.97206" lon="7.08462">
        <ele>1078.8</ele>
        <time>2021-05-27T10:04:54.000Z</time>
      </trkpt>
      <trkpt lat="47.97216" lon="7.08463">
        <ele>1078.1</ele>
        <time>2021-05-27T10:05:00.000Z</time>
      </trkpt>
      <trkpt lat="47.97226" lon="7.08459">
        <ele>1078.6</ele>
        <time>2021-05-27T10:05:07.000Z</time>
      </trkpt>
      <trkpt lat="47.97235" lon="7.08459">
        <ele>1078.2</ele>
        <time>2021-05-27T10:05:15.000Z</time>
      </trkpt>
      <trkpt lat="47.97245" lon="7.08459">
        <ele>1077.6</ele>
        <time>2021-05-27T10:05:22.000Z</time>
      </trkpt>
      <trkpt lat="47.97255" lon="7.08458">
        <ele>1076.5</ele>
        <time>2021-05-27T10:05:30.000Z</time>
      </trkpt>
      <trkpt lat="47.9726" lon="7.08443">
        <ele>1078.2</ele>
        <time>2021-05-27T10:05:38.000Z</time>
      </trkpt>
      <trkpt lat="47.97271" lon="7.08442">
        <ele>1075.5</ele>
        <time>2021-05-27T10:05:53.000Z</time>
      </trkpt>
      <trkpt lat="47.97274" lon="7.08427">
        <ele>1077.2</ele>
        <time>2021-05-27T10:05:58.000Z</time>
      </trkpt>
      <trkpt lat="47.97279" lon="7.08415">
        <ele>1078.1</ele>
        <time>2021-05-27T10:06:04.000Z</time>
      </trkpt>
      <trkpt lat="47.97283" lon="7.08402">
        <ele>1078.5</ele>
        <time>2021-05-27T10:06:11.000Z</time>
      </trkpt>
      <trkpt lat="47.97285" lon="7.08387">
        <ele>1079.9</ele>
        <time>2021-05-27T10:06:20.000Z</time>
      </trkpt>
      <trkpt lat="47.97289" lon="7.08373">
        <ele>1080.7</ele>
        <time>2021-05-27T10:06:27.000Z</time>
      </trkpt>
      <trkpt lat="47.9729" lon="7.0836">
        <ele>1082</ele>
        <time>2021-05-27T10:06:32.000Z</time>
      </trkpt>
      <trkpt lat="47.97291" lon="7.08345">
        <ele>1083.6</ele>
        <time>2021-05-27T10:06:39.000Z</time>
      </trkpt>
      <trkpt lat="47.97295" lon="7.08332">
        <ele>1084</ele>
        <time>2021-05-27T10:06:46.000Z</time>
      </trkpt>
      <trkpt lat="47.97299" lon="7.08319">
        <ele>1083.4</ele>
        <time>2021-05-27T10:06:52.000Z</time>
      </trkpt>
      <trkpt lat="47.97304" lon="7.08307">
        <ele>1082.6</ele>
        <time>2021-05-27T10:06:58.000Z</time>
      </trkpt>
      <trkpt lat="47.97309" lon="7.08293">
        <ele>1081.4</ele>
        <time>2021-05-27T10:07:06.000Z</time>
      </trkpt>
      <trkpt lat="47.97315" lon="7.08282">
        <ele>1080</ele>
        <time>2021-05-27T10:07:13.000Z</time>
      </trkpt>
      <trkpt lat="47.97319" lon="7.08269">
        <ele>1078.9</ele>
        <time>2021-05-27T10:07:21.000Z</time>
      </trkpt>
      <trkpt lat="47.97324" lon="7.08257">
        <ele>1077.6</ele>
        <time>2021-05-27T10:07:28.000Z</time>
      </trkpt>
      <trkpt lat="47.97329" lon="7.08245">
        <ele>1076.2</ele>
        <time>2021-05-27T10:07:33.000Z</time>
      </trkpt>
      <trkpt lat="47.97333" lon="7.0823">
        <ele>1075.7</ele>
        <time>2021-05-27T10:07:41.000Z</time>
      </trkpt>
      <trkpt lat="47.97336" lon="7.08216">
        <ele>1075.6</ele>
        <time>2021-05-27T10:07:48.000Z</time>
      </trkpt>
      <trkpt lat="47.97339" lon="7.08204">
        <ele>1075.2</ele>
        <time>2021-05-27T10:07:54.000Z</time>
      </trkpt>
      <trkpt lat="47.97342" lon="7.0819">
        <ele>1075.3</ele>
        <time>2021-05-27T10:08:02.000Z</time>
      </trkpt>
      <trkpt lat="47.97345" lon="7.08175">
        <ele>1075.2</ele>
        <time>2021-05-27T10:08:09.000Z</time>
      </trkpt>
      <trkpt lat="47.97347" lon="7.08161">
        <ele>1075.4</ele>
        <time>2021-05-27T10:08:16.000Z</time>
      </trkpt>
      <trkpt lat="47.97347" lon="7.08145">
        <ele>1075.7</ele>
        <time>2021-05-27T10:08:23.000Z</time>
      </trkpt>
      <trkpt lat="47.97347" lon="7.08131">
        <ele>1075.6</ele>
        <time>2021-05-27T10:08:31.000Z</time>
      </trkpt>
      <trkpt lat="47.97345" lon="7.08116">
        <ele>1076.5</ele>
        <time>2021-05-27T10:08:43.000Z</time>
      </trkpt>
      <trkpt lat="47.9734" lon="7.08099">
        <ele>1078.6</ele>
        <time>2021-05-27T10:08:55.000Z</time>
      </trkpt>
      <trkpt lat="47.97333" lon="7.08083">
        <ele>1081.3</ele>
        <time>2021-05-27T10:09:07.000Z</time>
      </trkpt>
      <trkpt lat="47.97325" lon="7.08069">
        <ele>1084</ele>
        <time>2021-05-27T10:09:16.000Z</time>
      </trkpt>
      <trkpt lat="47.9732" lon="7.08057">
        <ele>1085.8</ele>
        <time>2021-05-27T10:09:22.000Z</time>
      </trkpt>
      <trkpt lat="47.97316" lon="7.08044">
        <ele>1087.2</ele>
        <time>2021-05-27T10:09:31.000Z</time>
      </trkpt>
      <trkpt lat="47.97313" lon="7.0803">
        <ele>1088.3</ele>
        <time>2021-05-27T10:09:38.000Z</time>
      </trkpt>
      <trkpt lat="47.97309" lon="7.08018">
        <ele>1089.5</ele>
        <time>2021-05-27T10:09:46.000Z</time>
      </trkpt>
      <trkpt lat="47.97303" lon="7.08008">
        <ele>1091.7</ele>
        <time>2021-05-27T10:09:53.000Z</time>
      </trkpt>
      <trkpt lat="47.97295" lon="7.07994">
        <ele>1094.1</ele>
        <time>2021-05-27T10:10:04.000Z</time>
      </trkpt>
      <trkpt lat="47.9729" lon="7.07983">
        <ele>1095.6</ele>
        <time>2021-05-27T10:10:12.000Z</time>
      </trkpt>
      <trkpt lat="47.97279" lon="7.07966">
        <ele>1098.6</ele>
        <time>2021-05-27T10:10:30.000Z</time>
      </trkpt>
      <trkpt lat="47.97274" lon="7.07953">
        <ele>1099.6</ele>
        <time>2021-05-27T10:10:37.000Z</time>
      </trkpt>
      <trkpt lat="47.97275" lon="7.07938">
        <ele>1098.9</ele>
        <time>2021-05-27T10:10:48.000Z</time>
      </trkpt>
      <trkpt lat="47.97274" lon="7.07922">
        <ele>1098.4</ele>
        <time>2021-05-27T10:10:58.000Z</time>
      </trkpt>
      <trkpt lat="47.97276" lon="7.07908">
        <ele>1097.1</ele>
        <time>2021-05-27T10:11:05.000Z</time>
      </trkpt>
      <trkpt lat="47.97281" lon="7.07895">
        <ele>1094.7</ele>
        <time>2021-05-27T10:11:12.000Z</time>
      </trkpt>
      <trkpt lat="47.97277" lon="7.07881">
        <ele>1094.9</ele>
        <time>2021-05-27T10:11:20.000Z</time>
      </trkpt>
      <trkpt lat="47.97271" lon="7.07869">
        <ele>1096.1</ele>
        <time>2021-05-27T10:11:27.000Z</time>
      </trkpt>
      <trkpt lat="47.97266" lon="7.07857">
        <ele>1097.2</ele>
        <time>2021-05-27T10:11:33.000Z</time>
      </trkpt>
      <trkpt lat="47.9726" lon="7.07845">
        <ele>1098.2</ele>
        <time>2021-05-27T10:11:40.000Z</time>
      </trkpt>
      <trkpt lat="47.97254" lon="7.07833">
        <ele>1099.7</ele>
        <time>2021-05-27T10:11:48.000Z</time>
      </trkpt>
      <trkpt lat="47.9725" lon="7.0782">
        <ele>1099.6</ele>
        <time>2021-05-27T10:11:56.000Z</time>
      </trkpt>
      <trkpt lat="47.97243" lon="7.07809">
        <ele>1099.9</ele>
        <time>2021-05-27T10:12:04.000Z</time>
      </trkpt>
      <trkpt lat="47.97237" lon="7.07798">
        <ele>1099.9</ele>
        <time>2021-05-27T10:12:12.000Z</time>
      </trkpt>
      <trkpt lat="47.97231" lon="7.07787">
        <ele>1099.9</ele>
        <time>2021-05-27T10:12:19.000Z</time>
      </trkpt>
      <trkpt lat="47.97225" lon="7.07775">
        <ele>1099.5</ele>
        <time>2021-05-27T10:12:27.000Z</time>
      </trkpt>
      <trkpt lat="47.97218" lon="7.07766">
        <ele>1099.5</ele>
        <time>2021-05-27T10:12:36.000Z</time>
      </trkpt>
      <trkpt lat="47.97211" lon="7.07757">
        <ele>1099.7</ele>
        <time>2021-05-27T10:12:44.000Z</time>
      </trkpt>
      <trkpt lat="47.972" lon="7.0775">
        <ele>1100.6</ele>
        <time>2021-05-27T10:12:59.000Z</time>
      </trkpt>
      <trkpt lat="47.97183" lon="7.07742">
        <ele>1102.1</ele>
        <time>2021-05-27T10:13:20.000Z</time>
      </trkpt>
      <trkpt lat="47.97171" lon="7.07737">
        <ele>1103.4</ele>
        <time>2021-05-27T10:13:33.000Z</time>
      </trkpt>
      <trkpt lat="47.97158" lon="7.07735">
        <ele>1105</ele>
        <time>2021-05-27T10:13:44.000Z</time>
      </trkpt>
      <trkpt lat="47.97145" lon="7.07733">
        <ele>1106.1</ele>
        <time>2021-05-27T10:13:58.000Z</time>
      </trkpt>
      <trkpt lat="47.97132" lon="7.07728">
        <ele>1106.6</ele>
        <time>2021-05-27T10:14:08.000Z</time>
      </trkpt>
      <trkpt lat="47.97117" lon="7.07723">
        <ele>1107.3</ele>
        <time>2021-05-27T10:14:18.000Z</time>
      </trkpt>
      <trkpt lat="47.97104" lon="7.07717">
        <ele>1107.3</ele>
        <time>2021-05-27T10:14:28.000Z</time>
      </trkpt>
      <trkpt lat="47.97094" lon="7.07714">
        <ele>1107.8</ele>
        <time>2021-05-27T10:14:35.000Z</time>
      </trkpt>
      <trkpt lat="47.97085" lon="7.07714">
        <ele>1108.9</ele>
        <time>2021-05-27T10:14:45.000Z</time>
      </trkpt>
      <trkpt lat="47.97071" lon="7.07717">
        <ele>1111</ele>
        <time>2021-05-27T10:14:57.000Z</time>
      </trkpt>
      <trkpt lat="47.97058" lon="7.07718">
        <ele>1112.7</ele>
        <time>2021-05-27T10:15:08.000Z</time>
      </trkpt>
      <trkpt lat="47.97045" lon="7.07716">
        <ele>1113.5</ele>
        <time>2021-05-27T10:15:24.000Z</time>
      </trkpt>
      <trkpt lat="47.97033" lon="7.07717">
        <ele>1114.9</ele>
        <time>2021-05-27T10:15:42.000Z</time>
      </trkpt>
      <trkpt lat="47.9702" lon="7.07723">
        <ele>1117.9</ele>
        <time>2021-05-27T10:15:54.000Z</time>
      </trkpt>
      <trkpt lat="47.97003" lon="7.07726">
        <ele>1120.6</ele>
        <time>2021-05-27T10:16:15.000Z</time>
      </trkpt>
      <trkpt lat="47.96991" lon="7.07732">
        <ele>1123.1</ele>
        <time>2021-05-27T10:16:28.000Z</time>
      </trkpt>
      <trkpt lat="47.96982" lon="7.07744">
        <ele>1127.4</ele>
        <time>2021-05-27T10:16:44.000Z</time>
      </trkpt>
      <trkpt lat="47.96973" lon="7.07754">
        <ele>1130.6</ele>
        <time>2021-05-27T10:16:59.000Z</time>
      </trkpt>
      <trkpt lat="47.96974" lon="7.07771">
        <ele>1135</ele>
        <time>2021-05-27T10:17:15.000Z</time>
      </trkpt>
      <trkpt lat="47.96974" lon="7.07789">
        <ele>1139.6</ele>
        <time>2021-05-27T10:17:36.000Z</time>
      </trkpt>
      <trkpt lat="47.96963" lon="7.07792">
        <ele>1141</ele>
        <time>2021-05-27T10:17:54.000Z</time>
      </trkpt>
      <trkpt lat="47.96953" lon="7.07799">
        <ele>1143.4</ele>
        <time>2021-05-27T10:18:13.000Z</time>
      </trkpt>
      <trkpt lat="47.96954" lon="7.07813">
        <ele>1147</ele>
        <time>2021-05-27T10:18:31.000Z</time>
      </trkpt>
      <trkpt lat="47.96962" lon="7.07826">
        <ele>1150</ele>
        <time>2021-05-27T10:18:48.000Z</time>
      </trkpt>
      <trkpt lat="47.96973" lon="7.07839">
        <ele>1152.5</ele>
        <time>2021-05-27T10:19:03.000Z</time>
      </trkpt>
      <trkpt lat="47.96981" lon="7.07854">
        <ele>1155.4</ele>
        <time>2021-05-27T10:19:41.000Z</time>
      </trkpt>
      <trkpt lat="47.96978" lon="7.07872">
        <ele>1159.6</ele>
        <time>2021-05-27T10:20:21.000Z</time>
      </trkpt>
      <trkpt lat="47.96974" lon="7.07859">
        <ele>1156.9</ele>
        <time>2021-05-27T10:20:29.000Z</time>
      </trkpt>
      <trkpt lat="47.96971" lon="7.07844">
        <ele>1153.7</ele>
        <time>2021-05-27T10:20:45.000Z</time>
      </trkpt>
      <trkpt lat="47.9696" lon="7.07805">
        <ele>1144.6</ele>
        <time>2021-05-27T10:20:50.000Z</time>
      </trkpt>
      <trkpt lat="47.97006" lon="7.07948">
        <ele>1174.1</ele>
        <time>2021-05-27T10:20:55.000Z</time>
      </trkpt>
      <trkpt lat="47.96965" lon="7.07848">
        <ele>1155</ele>
        <time>2021-05-27T10:21:00.000Z</time>
      </trkpt>
      <trkpt lat="47.9697" lon="7.07835">
        <ele>1151.8</ele>
        <time>2021-05-27T10:21:07.000Z</time>
      </trkpt>
      <trkpt lat="47.96977" lon="7.07847">
        <ele>1154.1</ele>
        <time>2021-05-27T10:21:13.000Z</time>
      </trkpt>
      <trkpt lat="47.96985" lon="7.0784">
        <ele>1152.1</ele>
        <time>2021-05-27T10:21:55.000Z</time>
      </trkpt>
      <trkpt lat="47.96978" lon="7.07829">
        <ele>1150</ele>
        <time>2021-05-27T10:22:14.000Z</time>
      </trkpt>
      <trkpt lat="47.96969" lon="7.0782">
        <ele>1148.1</ele>
        <time>2021-05-27T10:22:21.000Z</time>
      </trkpt>
      <trkpt lat="47.96952" lon="7.0781">
        <ele>1146.3</ele>
        <time>2021-05-27T10:22:40.000Z</time>
      </trkpt>
      <trkpt lat="47.96941" lon="7.07806">
        <ele>1145.8</ele>
        <time>2021-05-27T10:23:01.000Z</time>
      </trkpt>
      <trkpt lat="47.96933" lon="7.07794">
        <ele>1143.2</ele>
        <time>2021-05-27T10:23:25.000Z</time>
      </trkpt>
      <trkpt lat="47.96923" lon="7.07788">
        <ele>1142.3</ele>
        <time>2021-05-27T10:23:39.000Z</time>
      </trkpt>
      <trkpt lat="47.96913" lon="7.07785">
        <ele>1141.6</ele>
        <time>2021-05-27T10:23:45.000Z</time>
      </trkpt>
      <trkpt lat="47.96897" lon="7.07781">
        <ele>1140.4</ele>
        <time>2021-05-27T10:23:56.000Z</time>
      </trkpt>
      <trkpt lat="47.96884" lon="7.07779">
        <ele>1139.6</ele>
        <time>2021-05-27T10:24:06.000Z</time>
      </trkpt>
      <trkpt lat="47.96872" lon="7.07789">
        <ele>1142</ele>
        <time>2021-05-27T10:24:11.000Z</time>
      </trkpt>
      <trkpt lat="47.96829" lon="7.07815">
        <ele>1148.1</ele>
        <time>2021-05-27T10:24:16.000Z</time>
      </trkpt>
      <trkpt lat="47.96776" lon="7.07791">
        <ele>1141.4</ele>
        <time>2021-05-27T10:24:21.000Z</time>
      </trkpt>
      <trkpt lat="47.96848" lon="7.07808">
        <ele>1146.5</ele>
        <time>2021-05-27T10:24:26.000Z</time>
      </trkpt>
      <trkpt lat="47.96853" lon="7.07792">
        <ele>1142.3</ele>
        <time>2021-05-27T10:24:31.000Z</time>
      </trkpt>
      <trkpt lat="47.9686" lon="7.07782">
        <ele>1140</ele>
        <time>2021-05-27T10:24:36.000Z</time>
      </trkpt>
      <trkpt lat="47.9687" lon="7.07782">
        <ele>1140.2</ele>
        <time>2021-05-27T10:24:46.000Z</time>
      </trkpt>
      <trkpt lat="47.96881" lon="7.07782">
        <ele>1140.3</ele>
        <time>2021-05-27T10:24:51.000Z</time>
      </trkpt>
      <trkpt lat="47.96896" lon="7.07788">
        <ele>1142.2</ele>
        <time>2021-05-27T10:24:56.000Z</time>
      </trkpt>
      <trkpt lat="47.96905" lon="7.07782">
        <ele>1140.7</ele>
        <time>2021-05-27T10:25:01.000Z</time>
      </trkpt>
      <trkpt lat="47.9692" lon="7.07769">
        <ele>1137.7</ele>
        <time>2021-05-27T10:25:20.000Z</time>
      </trkpt>
      <trkpt lat="47.96929" lon="7.07768">
        <ele>1136.7</ele>
        <time>2021-05-27T10:25:27.000Z</time>
      </trkpt>
      <trkpt lat="47.96939" lon="7.07764">
        <ele>1135.2</ele>
        <time>2021-05-27T10:25:32.000Z</time>
      </trkpt>
      <trkpt lat="47.9695" lon="7.07762">
        <ele>1134</ele>
        <time>2021-05-27T10:25:38.000Z</time>
      </trkpt>
      <trkpt lat="47.9696" lon="7.07758">
        <ele>1132.5</ele>
        <time>2021-05-27T10:25:44.000Z</time>
      </trkpt>
      <trkpt lat="47.96967" lon="7.07748">
        <ele>1129.3</ele>
        <time>2021-05-27T10:25:50.000Z</time>
      </trkpt>
      <trkpt lat="47.96976" lon="7.07743">
        <ele>1127.4</ele>
        <time>2021-05-27T10:25:58.000Z</time>
      </trkpt>
      <trkpt lat="47.96973" lon="7.07725">
        <ele>1122.2</ele>
        <time>2021-05-27T10:26:40.000Z</time>
      </trkpt>
      <trkpt lat="47.96968" lon="7.07707">
        <ele>1116.9</ele>
        <time>2021-05-27T10:26:51.000Z</time>
      </trkpt>
      <trkpt lat="47.96966" lon="7.07693">
        <ele>1113.1</ele>
        <time>2021-05-27T10:27:02.000Z</time>
      </trkpt>
      <trkpt lat="47.96969" lon="7.0768">
        <ele>1108.9</ele>
        <time>2021-05-27T10:27:11.000Z</time>
      </trkpt>
      <trkpt lat="47.96968" lon="7.07665">
        <ele>1104.5</ele>
        <time>2021-05-27T10:27:19.000Z</time>
      </trkpt>
      <trkpt lat="47.96958" lon="7.07658">
        <ele>1102.6</ele>
        <time>2021-05-27T10:27:35.000Z</time>
      </trkpt>
      <trkpt lat="47.96949" lon="7.07657">
        <ele>1102.9</ele>
        <time>2021-05-27T10:27:41.000Z</time>
      </trkpt>
      <trkpt lat="47.96939" lon="7.07659">
        <ele>1103.9</ele>
        <time>2021-05-27T10:27:54.000Z</time>
      </trkpt>
      <trkpt lat="47.96929" lon="7.07661">
        <ele>1105.2</ele>
        <time>2021-05-27T10:27:59.000Z</time>
      </trkpt>
      <trkpt lat="47.9692" lon="7.07659">
        <ele>1104.8</ele>
        <time>2021-05-27T10:28:04.000Z</time>
      </trkpt>
      <trkpt lat="47.9691" lon="7.07657">
        <ele>1104.5</ele>
        <time>2021-05-27T10:28:11.000Z</time>
      </trkpt>
      <trkpt lat="47.96902" lon="7.07661">
        <ele>1106</ele>
        <time>2021-05-27T10:28:19.000Z</time>
      </trkpt>
      <trkpt lat="47.96892" lon="7.07664">
        <ele>1106.9</ele>
        <time>2021-05-27T10:28:27.000Z</time>
      </trkpt>
      <trkpt lat="47.96882" lon="7.0766">
        <ele>1105.6</ele>
        <time>2021-05-27T10:28:33.000Z</time>
      </trkpt>
      <trkpt lat="47.96869" lon="7.07662">
        <ele>1106.1</ele>
        <time>2021-05-27T10:28:50.000Z</time>
      </trkpt>
      <trkpt lat="47.96851" lon="7.07664">
        <ele>1107.1</ele>
        <time>2021-05-27T10:29:01.000Z</time>
      </trkpt>
      <trkpt lat="47.96835" lon="7.07669">
        <ele>1108.5</ele>
        <time>2021-05-27T10:29:06.000Z</time>
      </trkpt>
      <trkpt lat="47.96823" lon="7.07667">
        <ele>1107.5</ele>
        <time>2021-05-27T10:29:21.000Z</time>
      </trkpt>
      <trkpt lat="47.96816" lon="7.07659">
        <ele>1104</ele>
        <time>2021-05-27T10:29:30.000Z</time>
      </trkpt>
      <trkpt lat="47.96811" lon="7.07647">
        <ele>1099.3</ele>
        <time>2021-05-27T10:30:00.000Z</time>
      </trkpt>
      <trkpt lat="47.96824" lon="7.07649">
        <ele>1100.9</ele>
        <time>2021-05-27T10:30:07.000Z</time>
      </trkpt>
      <trkpt lat="47.96833" lon="7.07645">
        <ele>1100</ele>
        <time>2021-05-27T10:30:16.000Z</time>
      </trkpt>
      <trkpt lat="47.96842" lon="7.07633">
        <ele>1095.3</ele>
        <time>2021-05-27T10:30:36.000Z</time>
      </trkpt>
      <trkpt lat="47.96852" lon="7.07633">
        <ele>1095.4</ele>
        <time>2021-05-27T10:30:50.000Z</time>
      </trkpt>
      <trkpt lat="47.96851" lon="7.07616">
        <ele>1089.1</ele>
        <time>2021-05-27T10:31:03.000Z</time>
      </trkpt>
      <trkpt lat="47.96857" lon="7.07602">
        <ele>1083.8</ele>
        <time>2021-05-27T10:31:22.000Z</time>
      </trkpt>
      <trkpt lat="47.96853" lon="7.07587">
        <ele>1078.4</ele>
        <time>2021-05-27T10:31:27.000Z</time>
      </trkpt>
      <trkpt lat="47.96862" lon="7.07591">
        <ele>1079.9</ele>
        <time>2021-05-27T10:32:37.000Z</time>
      </trkpt>
      <trkpt lat="47.96871" lon="7.07603">
        <ele>1084.3</ele>
        <time>2021-05-27T10:32:54.000Z</time>
      </trkpt>
      <trkpt lat="47.96882" lon="7.07609">
        <ele>1086.7</ele>
        <time>2021-05-27T10:33:08.000Z</time>
      </trkpt>
      <trkpt lat="47.96894" lon="7.07607">
        <ele>1085.9</ele>
        <time>2021-05-27T10:33:16.000Z</time>
      </trkpt>
      <trkpt lat="47.96904" lon="7.07609">
        <ele>1086.4</ele>
        <time>2021-05-27T10:33:21.000Z</time>
      </trkpt>
      <trkpt lat="47.96906" lon="7.07592">
        <ele>1080</ele>
        <time>2021-05-27T10:33:58.000Z</time>
      </trkpt>
      <trkpt lat="47.96915" lon="7.07582">
        <ele>1076.5</ele>
        <time>2021-05-27T10:34:06.000Z</time>
      </trkpt>
      <trkpt lat="47.96909" lon="7.0757">
        <ele>1071.7</ele>
        <time>2021-05-27T10:34:19.000Z</time>
      </trkpt>
      <trkpt lat="47.96912" lon="7.07556">
        <ele>1066.1</ele>
        <time>2021-05-27T10:34:44.000Z</time>
      </trkpt>
      <trkpt lat="47.96924" lon="7.07546">
        <ele>1062.5</ele>
        <time>2021-05-27T10:34:55.000Z</time>
      </trkpt>
      <trkpt lat="47.96933" lon="7.07539">
        <ele>1060.7</ele>
        <time>2021-05-27T10:35:02.000Z</time>
      </trkpt>
      <trkpt lat="47.96941" lon="7.07532">
        <ele>1058.6</ele>
        <time>2021-05-27T10:35:07.000Z</time>
      </trkpt>
      <trkpt lat="47.96949" lon="7.07526">
        <ele>1057</ele>
        <time>2021-05-27T10:35:14.000Z</time>
      </trkpt>
      <trkpt lat="47.96957" lon="7.07519">
        <ele>1055</ele>
        <time>2021-05-27T10:35:23.000Z</time>
      </trkpt>
      <trkpt lat="47.96968" lon="7.07515">
        <ele>1054.8</ele>
        <time>2021-05-27T10:35:34.000Z</time>
      </trkpt>
      <trkpt lat="47.96979" lon="7.0751">
        <ele>1054.2</ele>
        <time>2021-05-27T10:35:39.000Z</time>
      </trkpt>
      <trkpt lat="47.96985" lon="7.07499">
        <ele>1051.2</ele>
        <time>2021-05-27T10:35:45.000Z</time>
      </trkpt>
      <trkpt lat="47.96987" lon="7.07486">
        <ele>1047.2</ele>
        <time>2021-05-27T10:35:54.000Z</time>
      </trkpt>
      <trkpt lat="47.96995" lon="7.07476">
        <ele>1045</ele>
        <time>2021-05-27T10:36:01.000Z</time>
      </trkpt>
      <trkpt lat="47.97002" lon="7.07465">
        <ele>1042.6</ele>
        <time>2021-05-27T10:36:06.000Z</time>
      </trkpt>
      <trkpt lat="47.96993" lon="7.07457">
        <ele>1038.9</ele>
        <time>2021-05-27T10:36:18.000Z</time>
      </trkpt>
      <trkpt lat="47.96985" lon="7.07442">
        <ele>1033.2</ele>
        <time>2021-05-27T10:36:23.000Z</time>
      </trkpt>
      <trkpt lat="47.96977" lon="7.07452">
        <ele>1035.1</ele>
        <time>2021-05-27T10:36:37.000Z</time>
      </trkpt>
      <trkpt lat="47.96967" lon="7.07454">
        <ele>1034.1</ele>
        <time>2021-05-27T10:36:42.000Z</time>
      </trkpt>
      <trkpt lat="47.96957" lon="7.07449">
        <ele>1030.9</ele>
        <time>2021-05-27T10:37:21.000Z</time>
      </trkpt>
      <trkpt lat="47.96947" lon="7.07448">
        <ele>1029.5</ele>
        <time>2021-05-27T10:37:30.000Z</time>
      </trkpt>
      <trkpt lat="47.96938" lon="7.07444">
        <ele>1026.6</ele>
        <time>2021-05-27T10:37:36.000Z</time>
      </trkpt>
      <trkpt lat="47.96925" lon="7.07442">
        <ele>1023.7</ele>
        <time>2021-05-27T10:37:50.000Z</time>
      </trkpt>
      <trkpt lat="47.96914" lon="7.07447">
        <ele>1024.5</ele>
        <time>2021-05-27T10:38:08.000Z</time>
      </trkpt>
      <trkpt lat="47.96903" lon="7.07449">
        <ele>1025.4</ele>
        <time>2021-05-27T10:38:22.000Z</time>
      </trkpt>
      <trkpt lat="47.9689" lon="7.0745">
        <ele>1026.2</ele>
        <time>2021-05-27T10:38:35.000Z</time>
      </trkpt>
      <trkpt lat="47.96876" lon="7.0745">
        <ele>1026.4</ele>
        <time>2021-05-27T10:38:44.000Z</time>
      </trkpt>
      <trkpt lat="47.9687" lon="7.07434">
        <ele>1021.2</ele>
        <time>2021-05-27T10:39:08.000Z</time>
      </trkpt>
      <trkpt lat="47.96862" lon="7.0742">
        <ele>1016.9</ele>
        <time>2021-05-27T10:39:13.000Z</time>
      </trkpt>
      <trkpt lat="47.96856" lon="7.07409">
        <ele>1014.2</ele>
        <time>2021-05-27T10:39:19.000Z</time>
      </trkpt>
      <trkpt lat="47.96855" lon="7.07394">
        <ele>1011.4</ele>
        <time>2021-05-27T10:39:28.000Z</time>
      </trkpt>
      <trkpt lat="47.96852" lon="7.07381">
        <ele>1009.1</ele>
        <time>2021-05-27T10:39:44.000Z</time>
      </trkpt>
      <trkpt lat="47.96852" lon="7.07367">
        <ele>1006.3</ele>
        <time>2021-05-27T10:39:52.000Z</time>
      </trkpt>
      <trkpt lat="47.96855" lon="7.07354">
        <ele>1003.1</ele>
        <time>2021-05-27T10:40:02.000Z</time>
      </trkpt>
      <trkpt lat="47.96858" lon="7.0734">
        <ele>999.4</ele>
        <time>2021-05-27T10:40:09.000Z</time>
      </trkpt>
      <trkpt lat="47.96859" lon="7.07326">
        <ele>995.9</ele>
        <time>2021-05-27T10:40:15.000Z</time>
      </trkpt>
      <trkpt lat="47.96853" lon="7.07313">
        <ele>994.5</ele>
        <time>2021-05-27T10:40:23.000Z</time>
      </trkpt>
      <trkpt lat="47.96847" lon="7.07302">
        <ele>993.9</ele>
        <time>2021-05-27T10:40:29.000Z</time>
      </trkpt>
      <trkpt lat="47.9684" lon="7.07293">
        <ele>993.8</ele>
        <time>2021-05-27T10:40:35.000Z</time>
      </trkpt>
      <trkpt lat="47.96832" lon="7.07285">
        <ele>994.4</ele>
        <time>2021-05-27T10:40:42.000Z</time>
      </trkpt>
      <trkpt lat="47.96825" lon="7.07276">
        <ele>994.2</ele>
        <time>2021-05-27T10:40:49.000Z</time>
      </trkpt>
      <trkpt lat="47.96815" lon="7.07274">
        <ele>995.9</ele>
        <time>2021-05-27T10:40:56.000Z</time>
      </trkpt>
      <trkpt lat="47.96809" lon="7.07285">
        <ele>1000.4</ele>
        <time>2021-05-27T10:41:01.000Z</time>
      </trkpt>
      <trkpt lat="47.96798" lon="7.07266">
        <ele>998.3</ele>
        <time>2021-05-27T10:41:06.000Z</time>
      </trkpt>
      <trkpt lat="47.96789" lon="7.07266">
        <ele>1000.4</ele>
        <time>2021-05-27T10:41:20.000Z</time>
      </trkpt>
      <trkpt lat="47.96777" lon="7.07269">
        <ele>1004.4</ele>
        <time>2021-05-27T10:41:26.000Z</time>
      </trkpt>
      <trkpt lat="47.96766" lon="7.07263">
        <ele>1004.9</ele>
        <time>2021-05-27T10:41:34.000Z</time>
      </trkpt>
      <trkpt lat="47.96751" lon="7.07254">
        <ele>1005.2</ele>
        <time>2021-05-27T10:41:42.000Z</time>
      </trkpt>
      <trkpt lat="47.96734" lon="7.07212">
        <ele>999.7</ele>
        <time>2021-05-27T10:41:47.000Z</time>
      </trkpt>
      <trkpt lat="47.96726" lon="7.07187">
        <ele>997.7</ele>
        <time>2021-05-27T10:41:52.000Z</time>
      </trkpt>
      <trkpt lat="47.96718" lon="7.07196">
        <ele>1003.2</ele>
        <time>2021-05-27T10:42:00.000Z</time>
      </trkpt>
      <trkpt lat="47.96712" lon="7.0721">
        <ele>1008.2</ele>
        <time>2021-05-27T10:42:05.000Z</time>
      </trkpt>
      <trkpt lat="47.96711" lon="7.07196">
        <ele>1006.1</ele>
        <time>2021-05-27T10:42:26.000Z</time>
      </trkpt>
      <trkpt lat="47.96711" lon="7.07182">
        <ele>1003.5</ele>
        <time>2021-05-27T10:42:55.000Z</time>
      </trkpt>
      <trkpt lat="47.9671" lon="7.07164">
        <ele>1001.2</ele>
        <time>2021-05-27T10:43:06.000Z</time>
      </trkpt>
      <trkpt lat="47.96712" lon="7.07145">
        <ele>997.7</ele>
        <time>2021-05-27T10:43:17.000Z</time>
      </trkpt>
      <trkpt lat="47.96711" lon="7.07125">
        <ele>995.6</ele>
        <time>2021-05-27T10:43:28.000Z</time>
      </trkpt>
      <trkpt lat="47.96707" lon="7.07105">
        <ele>995.2</ele>
        <time>2021-05-27T10:43:39.000Z</time>
      </trkpt>
      <trkpt lat="47.96702" lon="7.07088">
        <ele>995.7</ele>
        <time>2021-05-27T10:43:44.000Z</time>
      </trkpt>
      <trkpt lat="47.96697" lon="7.07076">
        <ele>996.8</ele>
        <time>2021-05-27T10:43:50.000Z</time>
      </trkpt>
      <trkpt lat="47.96694" lon="7.07063">
        <ele>996.2</ele>
        <time>2021-05-27T10:43:56.000Z</time>
      </trkpt>
      <trkpt lat="47.96689" lon="7.07051">
        <ele>997</ele>
        <time>2021-05-27T10:44:01.000Z</time>
      </trkpt>
      <trkpt lat="47.96687" lon="7.07038">
        <ele>996.4</ele>
        <time>2021-05-27T10:44:07.000Z</time>
      </trkpt>
      <trkpt lat="47.96685" lon="7.07025">
        <ele>995.5</ele>
        <time>2021-05-27T10:44:14.000Z</time>
      </trkpt>
      <trkpt lat="47.96681" lon="7.07012">
        <ele>995.5</ele>
        <time>2021-05-27T10:44:19.000Z</time>
      </trkpt>
      <trkpt lat="47.96677" lon="7.06998">
        <ele>995.5</ele>
        <time>2021-05-27T10:44:28.000Z</time>
      </trkpt>
      <trkpt lat="47.96677" lon="7.06971">
        <ele>993.9</ele>
        <time>2021-05-27T10:44:45.000Z</time>
      </trkpt>
      <trkpt lat="47.96676" lon="7.06955">
        <ele>993</ele>
        <time>2021-05-27T10:44:50.000Z</time>
      </trkpt>
      <trkpt lat="47.96675" lon="7.06939">
        <ele>992.1</ele>
        <time>2021-05-27T10:44:56.000Z</time>
      </trkpt>
      <trkpt lat="47.96672" lon="7.06923">
        <ele>992.9</ele>
        <time>2021-05-27T10:45:10.000Z</time>
      </trkpt>
      <trkpt lat="47.96673" lon="7.0691">
        <ele>992.3</ele>
        <time>2021-05-27T10:45:16.000Z</time>
      </trkpt>
      <trkpt lat="47.96678" lon="7.06898">
        <ele>990.8</ele>
        <time>2021-05-27T10:45:21.000Z</time>
      </trkpt>
      <trkpt lat="47.96684" lon="7.06888">
        <ele>988.1</ele>
        <time>2021-05-27T10:45:28.000Z</time>
      </trkpt>
      <trkpt lat="47.9669" lon="7.06877">
        <ele>985.4</ele>
        <time>2021-05-27T10:45:35.000Z</time>
      </trkpt>
      <trkpt lat="47.96692" lon="7.06862">
        <ele>985.4</ele>
        <time>2021-05-27T10:45:42.000Z</time>
      </trkpt>
      <trkpt lat="47.96692" lon="7.06847">
        <ele>986.6</ele>
        <time>2021-05-27T10:45:48.000Z</time>
      </trkpt>
      <trkpt lat="47.96696" lon="7.06835">
        <ele>985.2</ele>
        <time>2021-05-27T10:45:58.000Z</time>
      </trkpt>
      <trkpt lat="47.96699" lon="7.06822">
        <ele>985</ele>
        <time>2021-05-27T10:46:04.000Z</time>
      </trkpt>
      <trkpt lat="47.967" lon="7.06808">
        <ele>986.3</ele>
        <time>2021-05-27T10:46:11.000Z</time>
      </trkpt>
      <trkpt lat="47.967" lon="7.06794">
        <ele>988.2</ele>
        <time>2021-05-27T10:46:19.000Z</time>
      </trkpt>
      <trkpt lat="47.96705" lon="7.06779">
        <ele>987.5</ele>
        <time>2021-05-27T10:46:27.000Z</time>
      </trkpt>
      <trkpt lat="47.96707" lon="7.06766">
        <ele>987.5</ele>
        <time>2021-05-27T10:46:34.000Z</time>
      </trkpt>
      <trkpt lat="47.96711" lon="7.06753">
        <ele>986.6</ele>
        <time>2021-05-27T10:46:40.000Z</time>
      </trkpt>
      <trkpt lat="47.96718" lon="7.06742">
        <ele>983.6</ele>
        <time>2021-05-27T10:46:46.000Z</time>
      </trkpt>
      <trkpt lat="47.96719" lon="7.06728">
        <ele>984.3</ele>
        <time>2021-05-27T10:46:55.000Z</time>
      </trkpt>
      <trkpt lat="47.96724" lon="7.06716">
        <ele>981.9</ele>
        <time>2021-05-27T10:47:01.000Z</time>
      </trkpt>
      <trkpt lat="47.96723" lon="7.06701">
        <ele>984.3</ele>
        <time>2021-05-27T10:47:10.000Z</time>
      </trkpt>
      <trkpt lat="47.96722" lon="7.06688">
        <ele>986.8</ele>
        <time>2021-05-27T10:47:16.000Z</time>
      </trkpt>
      <trkpt lat="47.96725" lon="7.06675">
        <ele>985.5</ele>
        <time>2021-05-27T10:47:23.000Z</time>
      </trkpt>
      <trkpt lat="47.96729" lon="7.06661">
        <ele>984.6</ele>
        <time>2021-05-27T10:47:31.000Z</time>
      </trkpt>
      <trkpt lat="47.96734" lon="7.06648">
        <ele>983.6</ele>
        <time>2021-05-27T10:47:38.000Z</time>
      </trkpt>
      <trkpt lat="47.96739" lon="7.06637">
        <ele>981.5</ele>
        <time>2021-05-27T10:47:45.000Z</time>
      </trkpt>
      <trkpt lat="47.96744" lon="7.06625">
        <ele>981.1</ele>
        <time>2021-05-27T10:47:53.000Z</time>
      </trkpt>
      <trkpt lat="47.96753" lon="7.06617">
        <ele>976.8</ele>
        <time>2021-05-27T10:47:58.000Z</time>
      </trkpt>
      <trkpt lat="47.96758" lon="7.06605">
        <ele>976.3</ele>
        <time>2021-05-27T10:48:05.000Z</time>
      </trkpt>
      <trkpt lat="47.96765" lon="7.06597">
        <ele>973.1</ele>
        <time>2021-05-27T10:48:12.000Z</time>
      </trkpt>
      <trkpt lat="47.96771" lon="7.06585">
        <ele>971.5</ele>
        <time>2021-05-27T10:48:17.000Z</time>
      </trkpt>
      <trkpt lat="47.96778" lon="7.06575">
        <ele>967.8</ele>
        <time>2021-05-27T10:48:23.000Z</time>
      </trkpt>
      <trkpt lat="47.96781" lon="7.06561">
        <ele>967.2</ele>
        <time>2021-05-27T10:48:34.000Z</time>
      </trkpt>
      <trkpt lat="47.96792" lon="7.06557">
        <ele>960</ele>
        <time>2021-05-27T10:48:40.000Z</time>
      </trkpt>
      <trkpt lat="47.96801" lon="7.06555">
        <ele>954.3</ele>
        <time>2021-05-27T10:48:46.000Z</time>
      </trkpt>
      <trkpt lat="47.96807" lon="7.06543">
        <ele>951.3</ele>
        <time>2021-05-27T10:48:57.000Z</time>
      </trkpt>
      <trkpt lat="47.96818" lon="7.06537">
        <ele>945</ele>
        <time>2021-05-27T10:49:02.000Z</time>
      </trkpt>
      <trkpt lat="47.96831" lon="7.06528">
        <ele>937.6</ele>
        <time>2021-05-27T10:49:47.000Z</time>
      </trkpt>
      <trkpt lat="47.96841" lon="7.06525">
        <ele>932.9</ele>
        <time>2021-05-27T10:50:09.000Z</time>
      </trkpt>
      <trkpt lat="47.96851" lon="7.06527">
        <ele>927.4</ele>
        <time>2021-05-27T10:50:31.000Z</time>
      </trkpt>
      <trkpt lat="47.96859" lon="7.06514">
        <ele>924.8</ele>
        <time>2021-05-27T10:50:46.000Z</time>
      </trkpt>
      <trkpt lat="47.9687" lon="7.06511">
        <ele>919.8</ele>
        <time>2021-05-27T10:51:07.000Z</time>
      </trkpt>
      <trkpt lat="47.96872" lon="7.06526">
        <ele>917</ele>
        <time>2021-05-27T10:51:38.000Z</time>
      </trkpt>
      <trkpt lat="47.96871" lon="7.06542">
        <ele>915.8</ele>
        <time>2021-05-27T10:52:03.000Z</time>
      </trkpt>
      <trkpt lat="47.96877" lon="7.06558">
        <ele>911.2</ele>
        <time>2021-05-27T10:52:08.000Z</time>
      </trkpt>
      <trkpt lat="47.96877" lon="7.06507">
        <ele>916.6</ele>
        <time>2021-05-27T10:52:13.000Z</time>
      </trkpt>
      <trkpt lat="47.96873" lon="7.06491">
        <ele>917.9</ele>
        <time>2021-05-27T10:52:26.000Z</time>
      </trkpt>
      <trkpt lat="47.96867" lon="7.06502">
        <ele>922.5</ele>
        <time>2021-05-27T10:52:31.000Z</time>
      </trkpt>
      <trkpt lat="47.9686" lon="7.06512">
        <ele>924.8</ele>
        <time>2021-05-27T10:52:36.000Z</time>
      </trkpt>
      <trkpt lat="47.96863" lon="7.06497">
        <ele>923.6</ele>
        <time>2021-05-27T10:53:35.000Z</time>
      </trkpt>
      <trkpt lat="47.9688" lon="7.06458">
        <ele>908.8</ele>
        <time>2021-05-27T10:53:40.000Z</time>
      </trkpt>
      <trkpt lat="47.96876" lon="7.06442">
        <ele>908</ele>
        <time>2021-05-27T10:53:57.000Z</time>
      </trkpt>
      <trkpt lat="47.96872" lon="7.06428">
        <ele>907.6</ele>
        <time>2021-05-27T10:54:03.000Z</time>
      </trkpt>
      <trkpt lat="47.96869" lon="7.06412">
        <ele>905</ele>
        <time>2021-05-27T10:54:08.000Z</time>
      </trkpt>
      <trkpt lat="47.96864" lon="7.06399">
        <ele>902.9</ele>
        <time>2021-05-27T10:54:16.000Z</time>
      </trkpt>
      <trkpt lat="47.96856" lon="7.06389">
        <ele>903.2</ele>
        <time>2021-05-27T10:54:23.000Z</time>
      </trkpt>
      <trkpt lat="47.96846" lon="7.06378">
        <ele>904</ele>
        <time>2021-05-27T10:54:34.000Z</time>
      </trkpt>
      <trkpt lat="47.96838" lon="7.06371">
        <ele>905.4</ele>
        <time>2021-05-27T10:54:40.000Z</time>
      </trkpt>
      <trkpt lat="47.9683" lon="7.06363">
        <ele>906</ele>
        <time>2021-05-27T10:54:46.000Z</time>
      </trkpt>
      <trkpt lat="47.96824" lon="7.06353">
        <ele>904.6</ele>
        <time>2021-05-27T10:54:52.000Z</time>
      </trkpt>
      <trkpt lat="47.96815" lon="7.06347">
        <ele>905</ele>
        <time>2021-05-27T10:54:58.000Z</time>
      </trkpt>
      <trkpt lat="47.96807" lon="7.06344">
        <ele>906.4</ele>
        <time>2021-05-27T10:55:06.000Z</time>
      </trkpt>
      <trkpt lat="47.96798" lon="7.06337">
        <ele>905.8</ele>
        <time>2021-05-27T10:55:12.000Z</time>
      </trkpt>
      <trkpt lat="47.96788" lon="7.06333">
        <ele>906.7</ele>
        <time>2021-05-27T10:55:19.000Z</time>
      </trkpt>
      <trkpt lat="47.96779" lon="7.06328">
        <ele>906.6</ele>
        <time>2021-05-27T10:55:28.000Z</time>
      </trkpt>
      <trkpt lat="47.96769" lon="7.06322">
        <ele>906.7</ele>
        <time>2021-05-27T10:55:38.000Z</time>
      </trkpt>
      <trkpt lat="47.9676" lon="7.06316">
        <ele>906.7</ele>
        <time>2021-05-27T10:55:43.000Z</time>
      </trkpt>
      <trkpt lat="47.96752" lon="7.0632">
        <ele>910.8</ele>
        <time>2021-05-27T10:55:53.000Z</time>
      </trkpt>
      <trkpt lat="47.96742" lon="7.06317">
        <ele>911.2</ele>
        <time>2021-05-27T10:56:42.000Z</time>
      </trkpt>
      <trkpt lat="47.96732" lon="7.0631">
        <ele>910.3</ele>
        <time>2021-05-27T10:56:55.000Z</time>
      </trkpt>
      <trkpt lat="47.96723" lon="7.06304">
        <ele>909.1</ele>
        <time>2021-05-27T10:57:03.000Z</time>
      </trkpt>
      <trkpt lat="47.96714" lon="7.063">
        <ele>909.4</ele>
        <time>2021-05-27T10:57:12.000Z</time>
      </trkpt>
      <trkpt lat="47.96698" lon="7.06293">
        <ele>909.2</ele>
        <time>2021-05-27T10:57:24.000Z</time>
      </trkpt>
      <trkpt lat="47.9669" lon="7.06286">
        <ele>907.7</ele>
        <time>2021-05-27T10:57:30.000Z</time>
      </trkpt>
      <trkpt lat="47.96682" lon="7.06281">
        <ele>907</ele>
        <time>2021-05-27T10:57:36.000Z</time>
      </trkpt>
      <trkpt lat="47.96666" lon="7.06284">
        <ele>911.6</ele>
        <time>2021-05-27T10:57:51.000Z</time>
      </trkpt>
      <trkpt lat="47.96652" lon="7.06286">
        <ele>914</ele>
        <time>2021-05-27T10:58:02.000Z</time>
      </trkpt>
      <trkpt lat="47.9664" lon="7.06284">
        <ele>914.9</ele>
        <time>2021-05-27T10:58:09.000Z</time>
      </trkpt>
      <trkpt lat="47.96621" lon="7.06284">
        <ele>917.2</ele>
        <time>2021-05-27T10:58:22.000Z</time>
      </trkpt>
      <trkpt lat="47.96611" lon="7.06284">
        <ele>918.5</ele>
        <time>2021-05-27T10:58:27.000Z</time>
      </trkpt>
      <trkpt lat="47.96599" lon="7.06283">
        <ele>919.1</ele>
        <time>2021-05-27T10:58:37.000Z</time>
      </trkpt>
      <trkpt lat="47.96584" lon="7.06279">
        <ele>919.1</ele>
        <time>2021-05-27T10:58:49.000Z</time>
      </trkpt>
      <trkpt lat="47.96575" lon="7.06274">
        <ele>916.7</ele>
        <time>2021-05-27T10:58:55.000Z</time>
      </trkpt>
      <trkpt lat="47.96565" lon="7.06272">
        <ele>916</ele>
        <time>2021-05-27T10:59:02.000Z</time>
      </trkpt>
      <trkpt lat="47.96556" lon="7.06273">
        <ele>916.3</ele>
        <time>2021-05-27T10:59:10.000Z</time>
      </trkpt>
      <trkpt lat="47.96545" lon="7.06276">
        <ele>917.6</ele>
        <time>2021-05-27T10:59:19.000Z</time>
      </trkpt>
      <trkpt lat="47.96535" lon="7.06277">
        <ele>918.1</ele>
        <time>2021-05-27T10:59:25.000Z</time>
      </trkpt>
      <trkpt lat="47.96527" lon="7.06282">
        <ele>920.4</ele>
        <time>2021-05-27T10:59:33.000Z</time>
      </trkpt>
      <trkpt lat="47.96514" lon="7.06283">
        <ele>921.2</ele>
        <time>2021-05-27T10:59:45.000Z</time>
      </trkpt>
      <trkpt lat="47.96501" lon="7.0629">
        <ele>924.2</ele>
        <time>2021-05-27T10:59:55.000Z</time>
      </trkpt>
      <trkpt lat="47.9649" lon="7.06297">
        <ele>927.1</ele>
        <time>2021-05-27T11:00:06.000Z</time>
      </trkpt>
      <trkpt lat="47.96479" lon="7.06301">
        <ele>928.1</ele>
        <time>2021-05-27T11:00:13.000Z</time>
      </trkpt>
      <trkpt lat="47.96469" lon="7.06305">
        <ele>929.5</ele>
        <time>2021-05-27T11:00:21.000Z</time>
      </trkpt>
      <trkpt lat="47.96459" lon="7.06306">
        <ele>929.7</ele>
        <time>2021-05-27T11:00:27.000Z</time>
      </trkpt>
      <trkpt lat="47.96449" lon="7.06307">
        <ele>929.5</ele>
        <time>2021-05-27T11:00:33.000Z</time>
      </trkpt>
      <trkpt lat="47.9644" lon="7.06312">
        <ele>931.4</ele>
        <time>2021-05-27T11:00:42.000Z</time>
      </trkpt>
      <trkpt lat="47.9643" lon="7.06313">
        <ele>931.1</ele>
        <time>2021-05-27T11:00:55.000Z</time>
      </trkpt>
      <trkpt lat="47.96419" lon="7.06313">
        <ele>930.4</ele>
        <time>2021-05-27T11:01:00.000Z</time>
      </trkpt>
      <trkpt lat="47.9641" lon="7.06313">
        <ele>929.4</ele>
        <time>2021-05-27T11:01:06.000Z</time>
      </trkpt>
      <trkpt lat="47.96398" lon="7.0633">
        <ele>934.5</ele>
        <time>2021-05-27T11:01:24.000Z</time>
      </trkpt>
      <trkpt lat="47.96388" lon="7.06333">
        <ele>934</ele>
        <time>2021-05-27T11:01:37.000Z</time>
      </trkpt>
      <trkpt lat="47.96374" lon="7.06343">
        <ele>935</ele>
        <time>2021-05-27T11:01:42.000Z</time>
      </trkpt>
      <trkpt lat="47.96363" lon="7.06351">
        <ele>936</ele>
        <time>2021-05-27T11:01:50.000Z</time>
      </trkpt>
      <trkpt lat="47.96349" lon="7.06361">
        <ele>936.8</ele>
        <time>2021-05-27T11:02:13.000Z</time>
      </trkpt>
      <trkpt lat="47.96338" lon="7.06354">
        <ele>932.6</ele>
        <time>2021-05-27T11:02:25.000Z</time>
      </trkpt>
      <trkpt lat="47.96325" lon="7.06359">
        <ele>931.4</ele>
        <time>2021-05-27T11:02:37.000Z</time>
      </trkpt>
      <trkpt lat="47.96312" lon="7.06361">
        <ele>928.8</ele>
        <time>2021-05-27T11:02:49.000Z</time>
      </trkpt>
      <trkpt lat="47.963" lon="7.06364">
        <ele>926.6</ele>
        <time>2021-05-27T11:03:00.000Z</time>
      </trkpt>
      <trkpt lat="47.96282" lon="7.06372">
        <ele>924.7</ele>
        <time>2021-05-27T11:03:15.000Z</time>
      </trkpt>
      <trkpt lat="47.96273" lon="7.0638">
        <ele>925.1</ele>
        <time>2021-05-27T11:03:20.000Z</time>
      </trkpt>
      <trkpt lat="47.96265" lon="7.06392">
        <ele>927.2</ele>
        <time>2021-05-27T11:03:26.000Z</time>
      </trkpt>
      <trkpt lat="47.96256" lon="7.06403">
        <ele>928.7</ele>
        <time>2021-05-27T11:03:33.000Z</time>
      </trkpt>
      <trkpt lat="47.96248" lon="7.06409">
        <ele>928.7</ele>
        <time>2021-05-27T11:03:38.000Z</time>
      </trkpt>
      <trkpt lat="47.96237" lon="7.06416">
        <ele>929.1</ele>
        <time>2021-05-27T11:03:44.000Z</time>
      </trkpt>
      <trkpt lat="47.96229" lon="7.0642">
        <ele>928.2</ele>
        <time>2021-05-27T11:03:50.000Z</time>
      </trkpt>
      <trkpt lat="47.9622" lon="7.06425">
        <ele>927.9</ele>
        <time>2021-05-27T11:03:58.000Z</time>
      </trkpt>
      <trkpt lat="47.96205" lon="7.0643">
        <ele>926.1</ele>
        <time>2021-05-27T11:04:07.000Z</time>
      </trkpt>
      <trkpt lat="47.96192" lon="7.06432">
        <ele>923.9</ele>
        <time>2021-05-27T11:04:18.000Z</time>
      </trkpt>
      <trkpt lat="47.96176" lon="7.06433">
        <ele>920.4</ele>
        <time>2021-05-27T11:04:32.000Z</time>
      </trkpt>
      <trkpt lat="47.96158" lon="7.06433">
        <ele>916.4</ele>
        <time>2021-05-27T11:04:45.000Z</time>
      </trkpt>
      <trkpt lat="47.96143" lon="7.06436">
        <ele>913.7</ele>
        <time>2021-05-27T11:04:56.000Z</time>
      </trkpt>
      <trkpt lat="47.96128" lon="7.06446">
        <ele>913.1</ele>
        <time>2021-05-27T11:05:10.000Z</time>
      </trkpt>
      <trkpt lat="47.96116" lon="7.06449">
        <ele>911.6</ele>
        <time>2021-05-27T11:05:21.000Z</time>
      </trkpt>
      <trkpt lat="47.96106" lon="7.06452">
        <ele>910.3</ele>
        <time>2021-05-27T11:05:26.000Z</time>
      </trkpt>
      <trkpt lat="47.96095" lon="7.06456">
        <ele>908.9</ele>
        <time>2021-05-27T11:05:31.000Z</time>
      </trkpt>
      <trkpt lat="47.96086" lon="7.06462">
        <ele>908.7</ele>
        <time>2021-05-27T11:05:36.000Z</time>
      </trkpt>
      <trkpt lat="47.96076" lon="7.06461">
        <ele>907.1</ele>
        <time>2021-05-27T11:05:42.000Z</time>
      </trkpt>
      <trkpt lat="47.96063" lon="7.06463">
        <ele>906</ele>
        <time>2021-05-27T11:05:51.000Z</time>
      </trkpt>
      <trkpt lat="47.96045" lon="7.0647">
        <ele>905.9</ele>
        <time>2021-05-27T11:06:01.000Z</time>
      </trkpt>
      <trkpt lat="47.96012" lon="7.06454">
        <ele>898.2</ele>
        <time>2021-05-27T11:06:06.000Z</time>
      </trkpt>
      <trkpt lat="47.96021" lon="7.0645">
        <ele>898.1</ele>
        <time>2021-05-27T11:06:22.000Z</time>
      </trkpt>
      <trkpt lat="47.9603" lon="7.06452">
        <ele>899.6</ele>
        <time>2021-05-27T11:06:27.000Z</time>
      </trkpt>
      <trkpt lat="47.96039" lon="7.06452">
        <ele>900.6</ele>
        <time>2021-05-27T11:06:32.000Z</time>
      </trkpt>
      <trkpt lat="47.9605" lon="7.0645">
        <ele>901.1</ele>
        <time>2021-05-27T11:06:38.000Z</time>
      </trkpt>
      <trkpt lat="47.96059" lon="7.06444">
        <ele>900.1</ele>
        <time>2021-05-27T11:06:44.000Z</time>
      </trkpt>
      <trkpt lat="47.96066" lon="7.06434">
        <ele>897.8</ele>
        <time>2021-05-27T11:06:50.000Z</time>
      </trkpt>
      <trkpt lat="47.96072" lon="7.06423">
        <ele>895.1</ele>
        <time>2021-05-27T11:07:58.000Z</time>
      </trkpt>
      <trkpt lat="47.96084" lon="7.06406">
        <ele>892.2</ele>
        <time>2021-05-27T11:08:58.000Z</time>
      </trkpt>
      <trkpt lat="47.96091" lon="7.06395">
        <ele>891.7</ele>
        <time>2021-05-27T11:09:05.000Z</time>
      </trkpt>
      <trkpt lat="47.96097" lon="7.06385">
        <ele>891</ele>
        <time>2021-05-27T11:09:12.000Z</time>
      </trkpt>
      <trkpt lat="47.96103" lon="7.06374">
        <ele>889.5</ele>
        <time>2021-05-27T11:09:18.000Z</time>
      </trkpt>
      <trkpt lat="47.96113" lon="7.06356">
        <ele>886.7</ele>
        <time>2021-05-27T11:09:34.000Z</time>
      </trkpt>
      <trkpt lat="47.9612" lon="7.06345">
        <ele>884.6</ele>
        <time>2021-05-27T11:09:40.000Z</time>
      </trkpt>
      <trkpt lat="47.96129" lon="7.06338">
        <ele>883.4</ele>
        <time>2021-05-27T11:09:47.000Z</time>
      </trkpt>
      <trkpt lat="47.96137" lon="7.06327">
        <ele>881.5</ele>
        <time>2021-05-27T11:09:57.000Z</time>
      </trkpt>
      <trkpt lat="47.96147" lon="7.06318">
        <ele>879.8</ele>
        <time>2021-05-27T11:10:09.000Z</time>
      </trkpt>
      <trkpt lat="47.96157" lon="7.06303">
        <ele>876.3</ele>
        <time>2021-05-27T11:10:20.000Z</time>
      </trkpt>
      <trkpt lat="47.96168" lon="7.06283">
        <ele>870.9</ele>
        <time>2021-05-27T11:10:34.000Z</time>
      </trkpt>
      <trkpt lat="47.96173" lon="7.0627">
        <ele>868.2</ele>
        <time>2021-05-27T11:10:40.000Z</time>
      </trkpt>
      <trkpt lat="47.96175" lon="7.06257">
        <ele>864.9</ele>
        <time>2021-05-27T11:10:45.000Z</time>
      </trkpt>
      <trkpt lat="47.96181" lon="7.06246">
        <ele>863.7</ele>
        <time>2021-05-27T11:10:53.000Z</time>
      </trkpt>
      <trkpt lat="47.96187" lon="7.06234">
        <ele>863.4</ele>
        <time>2021-05-27T11:10:59.000Z</time>
      </trkpt>
      <trkpt lat="47.96194" lon="7.06224">
        <ele>862.9</ele>
        <time>2021-05-27T11:11:06.000Z</time>
      </trkpt>
      <trkpt lat="47.96201" lon="7.06213">
        <ele>861.9</ele>
        <time>2021-05-27T11:11:15.000Z</time>
      </trkpt>
      <trkpt lat="47.96209" lon="7.06205">
        <ele>860.7</ele>
        <time>2021-05-27T11:11:21.000Z</time>
      </trkpt>
      <trkpt lat="47.96215" lon="7.06196">
        <ele>859.1</ele>
        <time>2021-05-27T11:11:28.000Z</time>
      </trkpt>
      <trkpt lat="47.96222" lon="7.06184">
        <ele>856.4</ele>
        <time>2021-05-27T11:11:38.000Z</time>
      </trkpt>
      <trkpt lat="47.9623" lon="7.06174">
        <ele>853.4</ele>
        <time>2021-05-27T11:11:45.000Z</time>
      </trkpt>
      <trkpt lat="47.96239" lon="7.06182">
        <ele>854.3</ele>
        <time>2021-05-27T11:11:53.000Z</time>
      </trkpt>
      <trkpt lat="47.9625" lon="7.06178">
        <ele>852.3</ele>
        <time>2021-05-27T11:11:59.000Z</time>
      </trkpt>
      <trkpt lat="47.96257" lon="7.06117">
        <ele>846.1</ele>
        <time>2021-05-27T11:12:04.000Z</time>
      </trkpt>
      <trkpt lat="47.96258" lon="7.06132">
        <ele>847.2</ele>
        <time>2021-05-27T11:12:09.000Z</time>
      </trkpt>
      <trkpt lat="47.96268" lon="7.06133">
        <ele>847.1</ele>
        <time>2021-05-27T11:12:18.000Z</time>
      </trkpt>
      <trkpt lat="47.96278" lon="7.06132">
        <ele>846.8</ele>
        <time>2021-05-27T11:12:25.000Z</time>
      </trkpt>
      <trkpt lat="47.96287" lon="7.06129">
        <ele>846.2</ele>
        <time>2021-05-27T11:12:31.000Z</time>
      </trkpt>
      <trkpt lat="47.96297" lon="7.0613">
        <ele>845.9</ele>
        <time>2021-05-27T11:12:37.000Z</time>
      </trkpt>
      <trkpt lat="47.96307" lon="7.06126">
        <ele>844.9</ele>
        <time>2021-05-27T11:12:44.000Z</time>
      </trkpt>
      <trkpt lat="47.96315" lon="7.06114">
        <ele>841.2</ele>
        <time>2021-05-27T11:12:55.000Z</time>
      </trkpt>
      <trkpt lat="47.9632" lon="7.061">
        <ele>837.2</ele>
        <time>2021-05-27T11:13:02.000Z</time>
      </trkpt>
      <trkpt lat="47.96328" lon="7.06085">
        <ele>831.6</ele>
        <time>2021-05-27T11:13:13.000Z</time>
      </trkpt>
      <trkpt lat="47.96335" lon="7.06076">
        <ele>829.1</ele>
        <time>2021-05-27T11:13:19.000Z</time>
      </trkpt>
      <trkpt lat="47.96343" lon="7.0607">
        <ele>828.7</ele>
        <time>2021-05-27T11:13:26.000Z</time>
      </trkpt>
      <trkpt lat="47.96351" lon="7.06064">
        <ele>828</ele>
        <time>2021-05-27T11:13:33.000Z</time>
      </trkpt>
      <trkpt lat="47.96362" lon="7.06063">
        <ele>828.3</ele>
        <time>2021-05-27T11:13:40.000Z</time>
      </trkpt>
      <trkpt lat="47.96369" lon="7.06055">
        <ele>826.6</ele>
        <time>2021-05-27T11:13:47.000Z</time>
      </trkpt>
      <trkpt lat="47.96374" lon="7.06042">
        <ele>823.7</ele>
        <time>2021-05-27T11:13:54.000Z</time>
      </trkpt>
      <trkpt lat="47.96384" lon="7.06034">
        <ele>821.3</ele>
        <time>2021-05-27T11:14:06.000Z</time>
      </trkpt>
      <trkpt lat="47.96393" lon="7.06021">
        <ele>817</ele>
        <time>2021-05-27T11:14:16.000Z</time>
      </trkpt>
      <trkpt lat="47.96408" lon="7.06008">
        <ele>811.9</ele>
        <time>2021-05-27T11:14:33.000Z</time>
      </trkpt>
      <trkpt lat="47.96414" lon="7.05997">
        <ele>808.1</ele>
        <time>2021-05-27T11:14:38.000Z</time>
      </trkpt>
      <trkpt lat="47.96424" lon="7.05988">
        <ele>806.8</ele>
        <time>2021-05-27T11:14:49.000Z</time>
      </trkpt>
      <trkpt lat="47.96433" lon="7.05976">
        <ele>805.3</ele>
        <time>2021-05-27T11:15:00.000Z</time>
      </trkpt>
      <trkpt lat="47.96441" lon="7.05966">
        <ele>803.7</ele>
        <time>2021-05-27T11:15:08.000Z</time>
      </trkpt>
      <trkpt lat="47.96448" lon="7.05958">
        <ele>802.1</ele>
        <time>2021-05-27T11:15:15.000Z</time>
      </trkpt>
      <trkpt lat="47.96456" lon="7.05949">
        <ele>800.1</ele>
        <time>2021-05-27T11:15:23.000Z</time>
      </trkpt>
      <trkpt lat="47.96466" lon="7.05936">
        <ele>796.6</ele>
        <time>2021-05-27T11:15:35.000Z</time>
      </trkpt>
      <trkpt lat="47.96472" lon="7.05924">
        <ele>793.4</ele>
        <time>2021-05-27T11:15:41.000Z</time>
      </trkpt>
      <trkpt lat="47.96479" lon="7.05915">
        <ele>790.5</ele>
        <time>2021-05-27T11:15:47.000Z</time>
      </trkpt>
      <trkpt lat="47.96487" lon="7.05904">
        <ele>787.8</ele>
        <time>2021-05-27T11:15:54.000Z</time>
      </trkpt>
      <trkpt lat="47.96493" lon="7.05894">
        <ele>785.1</ele>
        <time>2021-05-27T11:16:00.000Z</time>
      </trkpt>
      <trkpt lat="47.96505" lon="7.0589">
        <ele>782.9</ele>
        <time>2021-05-27T11:16:11.000Z</time>
      </trkpt>
      <trkpt lat="47.96515" lon="7.05886">
        <ele>781.2</ele>
        <time>2021-05-27T11:16:18.000Z</time>
      </trkpt>
      <trkpt lat="47.96524" lon="7.05878">
        <ele>778.8</ele>
        <time>2021-05-27T11:16:31.000Z</time>
      </trkpt>
      <trkpt lat="47.96532" lon="7.05869">
        <ele>776.4</ele>
        <time>2021-05-27T11:16:38.000Z</time>
      </trkpt>
      <trkpt lat="47.9654" lon="7.05861">
        <ele>773.9</ele>
        <time>2021-05-27T11:16:45.000Z</time>
      </trkpt>
      <trkpt lat="47.9655" lon="7.05857">
        <ele>772.1</ele>
        <time>2021-05-27T11:16:51.000Z</time>
      </trkpt>
      <trkpt lat="47.96563" lon="7.05855">
        <ele>770.2</ele>
        <time>2021-05-27T11:17:04.000Z</time>
      </trkpt>
      <trkpt lat="47.96571" lon="7.05851">
        <ele>768.5</ele>
        <time>2021-05-27T11:17:09.000Z</time>
      </trkpt>
      <trkpt lat="47.9658" lon="7.05847">
        <ele>766.9</ele>
        <time>2021-05-27T11:17:15.000Z</time>
      </trkpt>
      <trkpt lat="47.9659" lon="7.05848">
        <ele>765.2</ele>
        <time>2021-05-27T11:17:21.000Z</time>
      </trkpt>
      <trkpt lat="47.96599" lon="7.0585">
        <ele>763.5</ele>
        <time>2021-05-27T11:17:28.000Z</time>
      </trkpt>
      <trkpt lat="47.96609" lon="7.0585">
        <ele>761.3</ele>
        <time>2021-05-27T11:17:37.000Z</time>
      </trkpt>
      <trkpt lat="47.96619" lon="7.0585">
        <ele>759.2</ele>
        <time>2021-05-27T11:17:45.000Z</time>
      </trkpt>
      <trkpt lat="47.96627" lon="7.05843">
        <ele>755.6</ele>
        <time>2021-05-27T11:17:51.000Z</time>
      </trkpt>
      <trkpt lat="47.96634" lon="7.0583">
        <ele>751.6</ele>
        <time>2021-05-27T11:17:56.000Z</time>
      </trkpt>
      <trkpt lat="47.96641" lon="7.05815">
        <ele>748.4</ele>
        <time>2021-05-27T11:18:01.000Z</time>
      </trkpt>
      <trkpt lat="47.96645" lon="7.05803">
        <ele>746.5</ele>
        <time>2021-05-27T11:18:07.000Z</time>
      </trkpt>
      <trkpt lat="47.9664" lon="7.05788">
        <ele>746.2</ele>
        <time>2021-05-27T11:18:12.000Z</time>
      </trkpt>
      <trkpt lat="47.96632" lon="7.05781">
        <ele>747.4</ele>
        <time>2021-05-27T11:18:18.000Z</time>
      </trkpt>
      <trkpt lat="47.96623" lon="7.05777">
        <ele>749.1</ele>
        <time>2021-05-27T11:18:24.000Z</time>
      </trkpt>
      <trkpt lat="47.96614" lon="7.05773">
        <ele>750.7</ele>
        <time>2021-05-27T11:18:29.000Z</time>
      </trkpt>
      <trkpt lat="47.96603" lon="7.0577">
        <ele>752.8</ele>
        <time>2021-05-27T11:18:37.000Z</time>
      </trkpt>
      <trkpt lat="47.96594" lon="7.05765">
        <ele>754.4</ele>
        <time>2021-05-27T11:18:44.000Z</time>
      </trkpt>
      <trkpt lat="47.96579" lon="7.05764">
        <ele>756.8</ele>
        <time>2021-05-27T11:18:55.000Z</time>
      </trkpt>
      <trkpt lat="47.9657" lon="7.05762">
        <ele>757.4</ele>
        <time>2021-05-27T11:19:01.000Z</time>
      </trkpt>
      <trkpt lat="47.96559" lon="7.05757">
        <ele>757.9</ele>
        <time>2021-05-27T11:19:10.000Z</time>
      </trkpt>
      <trkpt lat="47.9655" lon="7.05756">
        <ele>758.5</ele>
        <time>2021-05-27T11:19:18.000Z</time>
      </trkpt>
      <trkpt lat="47.9654" lon="7.05752">
        <ele>758.8</ele>
        <time>2021-05-27T11:19:25.000Z</time>
      </trkpt>
      <trkpt lat="47.96531" lon="7.0575">
        <ele>759.4</ele>
        <time>2021-05-27T11:19:34.000Z</time>
      </trkpt>
      <trkpt lat="47.96524" lon="7.05741">
        <ele>759.2</ele>
        <time>2021-05-27T11:19:41.000Z</time>
      </trkpt>
      <trkpt lat="47.96516" lon="7.0573">
        <ele>758.9</ele>
        <time>2021-05-27T11:19:47.000Z</time>
      </trkpt>
      <trkpt lat="47.96509" lon="7.05721">
        <ele>758.8</ele>
        <time>2021-05-27T11:19:53.000Z</time>
      </trkpt>
      <trkpt lat="47.965" lon="7.05716">
        <ele>759.2</ele>
        <time>2021-05-27T11:20:01.000Z</time>
      </trkpt>
      <trkpt lat="47.96491" lon="7.05711">
        <ele>760.1</ele>
        <time>2021-05-27T11:20:09.000Z</time>
      </trkpt>
      <trkpt lat="47.96482" lon="7.05708">
        <ele>761.2</ele>
        <time>2021-05-27T11:20:16.000Z</time>
      </trkpt>
      <trkpt lat="47.96473" lon="7.05704">
        <ele>762.3</ele>
        <time>2021-05-27T11:20:23.000Z</time>
      </trkpt>
      <trkpt lat="47.96463" lon="7.05699">
        <ele>763.3</ele>
        <time>2021-05-27T11:20:30.000Z</time>
      </trkpt>
      <trkpt lat="47.96453" lon="7.05697">
        <ele>764.6</ele>
        <time>2021-05-27T11:20:38.000Z</time>
      </trkpt>
      <trkpt lat="47.96444" lon="7.0569">
        <ele>765.5</ele>
        <time>2021-05-27T11:20:46.000Z</time>
      </trkpt>
      <trkpt lat="47.96434" lon="7.05684">
        <ele>766.6</ele>
        <time>2021-05-27T11:21:18.000Z</time>
      </trkpt>
    </trkseg>
  </trk>
</gpx>